<?xml version="1.0" encoding="UTF-8" standalone="no" ?>
<gpx xmlns="http://www.topografix.com/GPX/1/1" xmlns:xsi="http://www.w3.org/2001/XMLSchema-instance" xsi:schemaLocation="http://www.topografix.com/GPX/1/1 http://www.topografix.com/GPX/1/1/gpx.xsd" version="1.1" creator="VisuGPX - https://www.visugpx.com">
  <metadata>
    <name>club vtt des rochers</name>
    <desc><![CDATA[piste sur cavagnac]]></desc>
  </metadata>
  <trk>
    <name><![CDATA[14-NOV-15 17:34:30]]></name>
    <trkseg>
      <trkpt lat="44.47209" lon="0.93416">
        <ele>76.08</ele>
        <time>2015-11-14T13:15:13Z</time>
      </trkpt>
      <trkpt lat="44.47209" lon="0.93417">
        <ele>75.12</ele>
        <time>2015-11-14T13:15:43Z</time>
      </trkpt>
      <trkpt lat="44.47209" lon="0.93417">
        <ele>75.12</ele>
        <time>2015-11-14T13:15:47Z</time>
      </trkpt>
      <trkpt lat="44.47199" lon="0.93422">
        <ele>74.64</ele>
        <time>2015-11-14T13:15:56Z</time>
      </trkpt>
      <trkpt lat="44.47196" lon="0.93428">
        <ele>74.64</ele>
        <time>2015-11-14T13:16:11Z</time>
      </trkpt>
      <trkpt lat="44.47195" lon="0.93429">
        <ele>75.6</ele>
        <time>2015-11-14T13:16:38Z</time>
      </trkpt>
      <trkpt lat="44.47196" lon="0.93428">
        <ele>78.48</ele>
        <time>2015-11-14T13:17:09Z</time>
      </trkpt>
      <trkpt lat="44.47196" lon="0.93428">
        <ele>78</ele>
        <time>2015-11-14T13:17:47Z</time>
      </trkpt>
      <trkpt lat="44.47196" lon="0.93428">
        <ele>77.04</ele>
        <time>2015-11-14T13:18:11Z</time>
      </trkpt>
      <trkpt lat="44.47196" lon="0.93429">
        <ele>77.04</ele>
        <time>2015-11-14T13:18:28Z</time>
      </trkpt>
      <trkpt lat="44.47197" lon="0.93429">
        <ele>77.04</ele>
        <time>2015-11-14T13:18:56Z</time>
      </trkpt>
      <trkpt lat="44.47197" lon="0.93428">
        <ele>77.52</ele>
        <time>2015-11-14T13:19:24Z</time>
      </trkpt>
      <trkpt lat="44.47197" lon="0.93429">
        <ele>78</ele>
        <time>2015-11-14T13:19:45Z</time>
      </trkpt>
      <trkpt lat="44.47197" lon="0.93428">
        <ele>78.48</ele>
        <time>2015-11-14T13:20:08Z</time>
      </trkpt>
      <trkpt lat="44.47196" lon="0.93429">
        <ele>77.52</ele>
        <time>2015-11-14T13:20:37Z</time>
      </trkpt>
      <trkpt lat="44.47196" lon="0.93428">
        <ele>77.52</ele>
        <time>2015-11-14T13:20:59Z</time>
      </trkpt>
      <trkpt lat="44.47196" lon="0.93429">
        <ele>77.04</ele>
        <time>2015-11-14T13:21:16Z</time>
      </trkpt>
      <trkpt lat="44.47198" lon="0.9343">
        <ele>76.08</ele>
        <time>2015-11-14T13:21:33Z</time>
      </trkpt>
      <trkpt lat="44.472" lon="0.93443">
        <ele>76.08</ele>
        <time>2015-11-14T13:21:39Z</time>
      </trkpt>
      <trkpt lat="44.47201" lon="0.93445">
        <ele>76.56</ele>
        <time>2015-11-14T13:21:40Z</time>
      </trkpt>
      <trkpt lat="44.47211" lon="0.93452">
        <ele>78</ele>
        <time>2015-11-14T13:21:46Z</time>
      </trkpt>
      <trkpt lat="44.47223" lon="0.93493">
        <ele>75.6</ele>
        <time>2015-11-14T13:21:59Z</time>
      </trkpt>
      <trkpt lat="44.47229" lon="0.93541">
        <ele>74.64</ele>
        <time>2015-11-14T13:22:10Z</time>
      </trkpt>
      <trkpt lat="44.4724" lon="0.93588">
        <ele>73.68</ele>
        <time>2015-11-14T13:22:19Z</time>
      </trkpt>
      <trkpt lat="44.47246" lon="0.93603">
        <ele>73.2</ele>
        <time>2015-11-14T13:22:22Z</time>
      </trkpt>
      <trkpt lat="44.47255" lon="0.93622">
        <ele>72.24</ele>
        <time>2015-11-14T13:22:26Z</time>
      </trkpt>
      <trkpt lat="44.47259" lon="0.93625">
        <ele>72.24</ele>
        <time>2015-11-14T13:22:27Z</time>
      </trkpt>
      <trkpt lat="44.4728" lon="0.93651">
        <ele>72.72</ele>
        <time>2015-11-14T13:22:34Z</time>
      </trkpt>
      <trkpt lat="44.47281" lon="0.93657">
        <ele>72.24</ele>
        <time>2015-11-14T13:22:35Z</time>
      </trkpt>
      <trkpt lat="44.47283" lon="0.93662">
        <ele>72.24</ele>
        <time>2015-11-14T13:22:36Z</time>
      </trkpt>
      <trkpt lat="44.47285" lon="0.93667">
        <ele>72.24</ele>
        <time>2015-11-14T13:22:37Z</time>
      </trkpt>
      <trkpt lat="44.47288" lon="0.93671">
        <ele>72.24</ele>
        <time>2015-11-14T13:22:38Z</time>
      </trkpt>
      <trkpt lat="44.47291" lon="0.93675">
        <ele>72.72</ele>
        <time>2015-11-14T13:22:39Z</time>
      </trkpt>
      <trkpt lat="44.47295" lon="0.93684">
        <ele>73.2</ele>
        <time>2015-11-14T13:22:41Z</time>
      </trkpt>
      <trkpt lat="44.47309" lon="0.93719">
        <ele>74.16</ele>
        <time>2015-11-14T13:22:48Z</time>
      </trkpt>
      <trkpt lat="44.47321" lon="0.93736">
        <ele>77.04</ele>
        <time>2015-11-14T13:22:52Z</time>
      </trkpt>
      <trkpt lat="44.47324" lon="0.9374">
        <ele>77.04</ele>
        <time>2015-11-14T13:22:53Z</time>
      </trkpt>
      <trkpt lat="44.47327" lon="0.93745">
        <ele>77.04</ele>
        <time>2015-11-14T13:22:54Z</time>
      </trkpt>
      <trkpt lat="44.4733" lon="0.9375">
        <ele>76.56</ele>
        <time>2015-11-14T13:22:55Z</time>
      </trkpt>
      <trkpt lat="44.47333" lon="0.93756">
        <ele>76.56</ele>
        <time>2015-11-14T13:22:56Z</time>
      </trkpt>
      <trkpt lat="44.47335" lon="0.93762">
        <ele>76.08</ele>
        <time>2015-11-14T13:22:57Z</time>
      </trkpt>
      <trkpt lat="44.47337" lon="0.93768">
        <ele>76.08</ele>
        <time>2015-11-14T13:22:58Z</time>
      </trkpt>
      <trkpt lat="44.47338" lon="0.93774">
        <ele>76.08</ele>
        <time>2015-11-14T13:22:59Z</time>
      </trkpt>
      <trkpt lat="44.47344" lon="0.93805">
        <ele>76.08</ele>
        <time>2015-11-14T13:23:04Z</time>
      </trkpt>
      <trkpt lat="44.47347" lon="0.9381">
        <ele>76.08</ele>
        <time>2015-11-14T13:23:05Z</time>
      </trkpt>
      <trkpt lat="44.47349" lon="0.93813">
        <ele>76.08</ele>
        <time>2015-11-14T13:23:06Z</time>
      </trkpt>
      <trkpt lat="44.47365" lon="0.93835">
        <ele>77.04</ele>
        <time>2015-11-14T13:23:13Z</time>
      </trkpt>
      <trkpt lat="44.47367" lon="0.93841">
        <ele>77.52</ele>
        <time>2015-11-14T13:23:14Z</time>
      </trkpt>
      <trkpt lat="44.47383" lon="0.93904">
        <ele>75.12</ele>
        <time>2015-11-14T13:23:26Z</time>
      </trkpt>
      <trkpt lat="44.47383" lon="0.93906">
        <ele>75.6</ele>
        <time>2015-11-14T13:23:27Z</time>
      </trkpt>
      <trkpt lat="44.47383" lon="0.93908">
        <ele>75.6</ele>
        <time>2015-11-14T13:23:28Z</time>
      </trkpt>
      <trkpt lat="44.47392" lon="0.93948">
        <ele>75.12</ele>
        <time>2015-11-14T13:23:40Z</time>
      </trkpt>
      <trkpt lat="44.47394" lon="0.93956">
        <ele>75.12</ele>
        <time>2015-11-14T13:23:54Z</time>
      </trkpt>
      <trkpt lat="44.47396" lon="0.93956">
        <ele>75.12</ele>
        <time>2015-11-14T13:23:55Z</time>
      </trkpt>
      <trkpt lat="44.47399" lon="0.93955">
        <ele>75.6</ele>
        <time>2015-11-14T13:23:56Z</time>
      </trkpt>
      <trkpt lat="44.47402" lon="0.93954">
        <ele>75.6</ele>
        <time>2015-11-14T13:23:57Z</time>
      </trkpt>
      <trkpt lat="44.47406" lon="0.93952">
        <ele>75.6</ele>
        <time>2015-11-14T13:23:58Z</time>
      </trkpt>
      <trkpt lat="44.47461" lon="0.93913">
        <ele>72.72</ele>
        <time>2015-11-14T13:24:09Z</time>
      </trkpt>
      <trkpt lat="44.47479" lon="0.93899">
        <ele>70.31</ele>
        <time>2015-11-14T13:24:13Z</time>
      </trkpt>
      <trkpt lat="44.47483" lon="0.93897">
        <ele>69.83</ele>
        <time>2015-11-14T13:24:14Z</time>
      </trkpt>
      <trkpt lat="44.47487" lon="0.93897">
        <ele>69.35</ele>
        <time>2015-11-14T13:24:15Z</time>
      </trkpt>
      <trkpt lat="44.47491" lon="0.939">
        <ele>69.35</ele>
        <time>2015-11-14T13:24:16Z</time>
      </trkpt>
      <trkpt lat="44.47494" lon="0.93905">
        <ele>69.35</ele>
        <time>2015-11-14T13:24:17Z</time>
      </trkpt>
      <trkpt lat="44.47497" lon="0.9391">
        <ele>68.87</ele>
        <time>2015-11-14T13:24:18Z</time>
      </trkpt>
      <trkpt lat="44.475" lon="0.93916">
        <ele>68.87</ele>
        <time>2015-11-14T13:24:19Z</time>
      </trkpt>
      <trkpt lat="44.47521" lon="0.93952">
        <ele>68.87</ele>
        <time>2015-11-14T13:24:26Z</time>
      </trkpt>
      <trkpt lat="44.47526" lon="0.93956">
        <ele>68.39</ele>
        <time>2015-11-14T13:24:27Z</time>
      </trkpt>
      <trkpt lat="44.47531" lon="0.93959">
        <ele>68.39</ele>
        <time>2015-11-14T13:24:28Z</time>
      </trkpt>
      <trkpt lat="44.47537" lon="0.9396">
        <ele>67.91</ele>
        <time>2015-11-14T13:24:29Z</time>
      </trkpt>
      <trkpt lat="44.47544" lon="0.93961">
        <ele>67.91</ele>
        <time>2015-11-14T13:24:30Z</time>
      </trkpt>
      <trkpt lat="44.4755" lon="0.93964">
        <ele>67.91</ele>
        <time>2015-11-14T13:24:31Z</time>
      </trkpt>
      <trkpt lat="44.47555" lon="0.93968">
        <ele>67.43</ele>
        <time>2015-11-14T13:24:32Z</time>
      </trkpt>
      <trkpt lat="44.47589" lon="0.93997">
        <ele>67.43</ele>
        <time>2015-11-14T13:24:39Z</time>
      </trkpt>
      <trkpt lat="44.47619" lon="0.94021">
        <ele>67.91</ele>
        <time>2015-11-14T13:24:47Z</time>
      </trkpt>
      <trkpt lat="44.4767" lon="0.94055">
        <ele>69.83</ele>
        <time>2015-11-14T13:25:00Z</time>
      </trkpt>
      <trkpt lat="44.47702" lon="0.94082">
        <ele>69.83</ele>
        <time>2015-11-14T13:25:09Z</time>
      </trkpt>
      <trkpt lat="44.47717" lon="0.94095">
        <ele>69.83</ele>
        <time>2015-11-14T13:25:13Z</time>
      </trkpt>
      <trkpt lat="44.47762" lon="0.94135">
        <ele>70.79</ele>
        <time>2015-11-14T13:25:26Z</time>
      </trkpt>
      <trkpt lat="44.47797" lon="0.94186">
        <ele>70.79</ele>
        <time>2015-11-14T13:25:38Z</time>
      </trkpt>
      <trkpt lat="44.47818" lon="0.94222">
        <ele>72.24</ele>
        <time>2015-11-14T13:25:47Z</time>
      </trkpt>
      <trkpt lat="44.47834" lon="0.94244">
        <ele>72.24</ele>
        <time>2015-11-14T13:25:52Z</time>
      </trkpt>
      <trkpt lat="44.47838" lon="0.94255">
        <ele>71.76</ele>
        <time>2015-11-14T13:25:54Z</time>
      </trkpt>
      <trkpt lat="44.47843" lon="0.94277">
        <ele>71.27</ele>
        <time>2015-11-14T13:25:58Z</time>
      </trkpt>
      <trkpt lat="44.47876" lon="0.94363">
        <ele>70.79</ele>
        <time>2015-11-14T13:26:14Z</time>
      </trkpt>
      <trkpt lat="44.47898" lon="0.94421">
        <ele>70.79</ele>
        <time>2015-11-14T13:26:24Z</time>
      </trkpt>
      <trkpt lat="44.47903" lon="0.94433">
        <ele>70.31</ele>
        <time>2015-11-14T13:26:26Z</time>
      </trkpt>
      <trkpt lat="44.47931" lon="0.94521">
        <ele>68.87</ele>
        <time>2015-11-14T13:26:41Z</time>
      </trkpt>
      <trkpt lat="44.47951" lon="0.94598">
        <ele>68.39</ele>
        <time>2015-11-14T13:26:55Z</time>
      </trkpt>
      <trkpt lat="44.47982" lon="0.94694">
        <ele>67.43</ele>
        <time>2015-11-14T13:27:11Z</time>
      </trkpt>
      <trkpt lat="44.48008" lon="0.94755">
        <ele>66.95</ele>
        <time>2015-11-14T13:27:23Z</time>
      </trkpt>
      <trkpt lat="44.48015" lon="0.94773">
        <ele>68.39</ele>
        <time>2015-11-14T13:27:33Z</time>
      </trkpt>
      <trkpt lat="44.48017" lon="0.94775">
        <ele>69.35</ele>
        <time>2015-11-14T13:27:40Z</time>
      </trkpt>
      <trkpt lat="44.4802" lon="0.94774">
        <ele>68.87</ele>
        <time>2015-11-14T13:27:41Z</time>
      </trkpt>
      <trkpt lat="44.48022" lon="0.94773">
        <ele>68.87</ele>
        <time>2015-11-14T13:27:42Z</time>
      </trkpt>
      <trkpt lat="44.48024" lon="0.9477">
        <ele>68.87</ele>
        <time>2015-11-14T13:27:43Z</time>
      </trkpt>
      <trkpt lat="44.48027" lon="0.94768">
        <ele>68.87</ele>
        <time>2015-11-14T13:27:44Z</time>
      </trkpt>
      <trkpt lat="44.48031" lon="0.94765">
        <ele>68.87</ele>
        <time>2015-11-14T13:27:45Z</time>
      </trkpt>
      <trkpt lat="44.48034" lon="0.94762">
        <ele>68.87</ele>
        <time>2015-11-14T13:27:46Z</time>
      </trkpt>
      <trkpt lat="44.48038" lon="0.94759">
        <ele>69.35</ele>
        <time>2015-11-14T13:27:47Z</time>
      </trkpt>
      <trkpt lat="44.48106" lon="0.94702">
        <ele>67.43</ele>
        <time>2015-11-14T13:28:03Z</time>
      </trkpt>
      <trkpt lat="44.48138" lon="0.94679">
        <ele>66.47</ele>
        <time>2015-11-14T13:28:10Z</time>
      </trkpt>
      <trkpt lat="44.48142" lon="0.94677">
        <ele>66.47</ele>
        <time>2015-11-14T13:28:11Z</time>
      </trkpt>
      <trkpt lat="44.4817" lon="0.94663">
        <ele>65.51</ele>
        <time>2015-11-14T13:28:17Z</time>
      </trkpt>
      <trkpt lat="44.48174" lon="0.94661">
        <ele>65.51</ele>
        <time>2015-11-14T13:28:18Z</time>
      </trkpt>
      <trkpt lat="44.48205" lon="0.94634">
        <ele>65.51</ele>
        <time>2015-11-14T13:28:28Z</time>
      </trkpt>
      <trkpt lat="44.48208" lon="0.94628">
        <ele>65.51</ele>
        <time>2015-11-14T13:28:29Z</time>
      </trkpt>
      <trkpt lat="44.48221" lon="0.94601">
        <ele>66.47</ele>
        <time>2015-11-14T13:28:34Z</time>
      </trkpt>
      <trkpt lat="44.48237" lon="0.94573">
        <ele>67.91</ele>
        <time>2015-11-14T13:28:42Z</time>
      </trkpt>
      <trkpt lat="44.48241" lon="0.94574">
        <ele>68.39</ele>
        <time>2015-11-14T13:28:43Z</time>
      </trkpt>
      <trkpt lat="44.48256" lon="0.94584">
        <ele>70.79</ele>
        <time>2015-11-14T13:28:48Z</time>
      </trkpt>
      <trkpt lat="44.4826" lon="0.94583">
        <ele>70.79</ele>
        <time>2015-11-14T13:28:49Z</time>
      </trkpt>
      <trkpt lat="44.48263" lon="0.9458">
        <ele>70.79</ele>
        <time>2015-11-14T13:28:50Z</time>
      </trkpt>
      <trkpt lat="44.48267" lon="0.94577">
        <ele>70.79</ele>
        <time>2015-11-14T13:28:51Z</time>
      </trkpt>
      <trkpt lat="44.4827" lon="0.94573">
        <ele>71.27</ele>
        <time>2015-11-14T13:28:52Z</time>
      </trkpt>
      <trkpt lat="44.48302" lon="0.94536">
        <ele>70.79</ele>
        <time>2015-11-14T13:29:02Z</time>
      </trkpt>
      <trkpt lat="44.48306" lon="0.94533">
        <ele>70.79</ele>
        <time>2015-11-14T13:29:03Z</time>
      </trkpt>
      <trkpt lat="44.4831" lon="0.9453">
        <ele>70.79</ele>
        <time>2015-11-14T13:29:04Z</time>
      </trkpt>
      <trkpt lat="44.48314" lon="0.94528">
        <ele>70.79</ele>
        <time>2015-11-14T13:29:05Z</time>
      </trkpt>
      <trkpt lat="44.48317" lon="0.94527">
        <ele>70.79</ele>
        <time>2015-11-14T13:29:06Z</time>
      </trkpt>
      <trkpt lat="44.4832" lon="0.94526">
        <ele>70.79</ele>
        <time>2015-11-14T13:29:07Z</time>
      </trkpt>
      <trkpt lat="44.48322" lon="0.94524">
        <ele>71.27</ele>
        <time>2015-11-14T13:29:08Z</time>
      </trkpt>
      <trkpt lat="44.48324" lon="0.94521">
        <ele>71.76</ele>
        <time>2015-11-14T13:29:09Z</time>
      </trkpt>
      <trkpt lat="44.48326" lon="0.94519">
        <ele>71.76</ele>
        <time>2015-11-14T13:29:10Z</time>
      </trkpt>
      <trkpt lat="44.48326" lon="0.94516">
        <ele>72.72</ele>
        <time>2015-11-14T13:29:11Z</time>
      </trkpt>
      <trkpt lat="44.48325" lon="0.94511">
        <ele>73.2</ele>
        <time>2015-11-14T13:29:12Z</time>
      </trkpt>
      <trkpt lat="44.48324" lon="0.94507">
        <ele>73.68</ele>
        <time>2015-11-14T13:29:13Z</time>
      </trkpt>
      <trkpt lat="44.48323" lon="0.94502">
        <ele>74.16</ele>
        <time>2015-11-14T13:29:14Z</time>
      </trkpt>
      <trkpt lat="44.48321" lon="0.94497">
        <ele>74.64</ele>
        <time>2015-11-14T13:29:15Z</time>
      </trkpt>
      <trkpt lat="44.48319" lon="0.94493">
        <ele>75.6</ele>
        <time>2015-11-14T13:29:16Z</time>
      </trkpt>
      <trkpt lat="44.4831" lon="0.94463">
        <ele>78.48</ele>
        <time>2015-11-14T13:29:26Z</time>
      </trkpt>
      <trkpt lat="44.48313" lon="0.94456">
        <ele>78.48</ele>
        <time>2015-11-14T13:29:30Z</time>
      </trkpt>
      <trkpt lat="44.48314" lon="0.94455">
        <ele>78</ele>
        <time>2015-11-14T13:29:31Z</time>
      </trkpt>
      <trkpt lat="44.48346" lon="0.94435">
        <ele>76.56</ele>
        <time>2015-11-14T13:29:40Z</time>
      </trkpt>
      <trkpt lat="44.48391" lon="0.94407">
        <ele>75.6</ele>
        <time>2015-11-14T13:29:51Z</time>
      </trkpt>
      <trkpt lat="44.48393" lon="0.94411">
        <ele>75.12</ele>
        <time>2015-11-14T13:29:52Z</time>
      </trkpt>
      <trkpt lat="44.48394" lon="0.94415">
        <ele>75.12</ele>
        <time>2015-11-14T13:29:53Z</time>
      </trkpt>
      <trkpt lat="44.48396" lon="0.94431">
        <ele>74.64</ele>
        <time>2015-11-14T13:29:56Z</time>
      </trkpt>
      <trkpt lat="44.48405" lon="0.94472">
        <ele>71.76</ele>
        <time>2015-11-14T13:30:04Z</time>
      </trkpt>
      <trkpt lat="44.48408" lon="0.94475">
        <ele>71.76</ele>
        <time>2015-11-14T13:30:05Z</time>
      </trkpt>
      <trkpt lat="44.48412" lon="0.94476">
        <ele>72.24</ele>
        <time>2015-11-14T13:30:06Z</time>
      </trkpt>
      <trkpt lat="44.48436" lon="0.94474">
        <ele>72.24</ele>
        <time>2015-11-14T13:30:13Z</time>
      </trkpt>
      <trkpt lat="44.48438" lon="0.94471">
        <ele>72.24</ele>
        <time>2015-11-14T13:30:14Z</time>
      </trkpt>
      <trkpt lat="44.48439" lon="0.94463">
        <ele>71.76</ele>
        <time>2015-11-14T13:30:16Z</time>
      </trkpt>
      <trkpt lat="44.4844" lon="0.94452">
        <ele>71.27</ele>
        <time>2015-11-14T13:30:27Z</time>
      </trkpt>
      <trkpt lat="44.48442" lon="0.94452">
        <ele>71.27</ele>
        <time>2015-11-14T13:30:29Z</time>
      </trkpt>
      <trkpt lat="44.48444" lon="0.94443">
        <ele>70.79</ele>
        <time>2015-11-14T13:30:35Z</time>
      </trkpt>
      <trkpt lat="44.48457" lon="0.94439">
        <ele>70.31</ele>
        <time>2015-11-14T13:30:42Z</time>
      </trkpt>
      <trkpt lat="44.48484" lon="0.94433">
        <ele>70.31</ele>
        <time>2015-11-14T13:30:53Z</time>
      </trkpt>
      <trkpt lat="44.48495" lon="0.94429">
        <ele>70.79</ele>
        <time>2015-11-14T13:30:57Z</time>
      </trkpt>
      <trkpt lat="44.4853" lon="0.94415">
        <ele>71.27</ele>
        <time>2015-11-14T13:31:10Z</time>
      </trkpt>
      <trkpt lat="44.48546" lon="0.9444">
        <ele>70.79</ele>
        <time>2015-11-14T13:31:18Z</time>
      </trkpt>
      <trkpt lat="44.48548" lon="0.94444">
        <ele>70.79</ele>
        <time>2015-11-14T13:31:19Z</time>
      </trkpt>
      <trkpt lat="44.48572" lon="0.94471">
        <ele>73.2</ele>
        <time>2015-11-14T13:31:30Z</time>
      </trkpt>
      <trkpt lat="44.48614" lon="0.94478">
        <ele>72.72</ele>
        <time>2015-11-14T13:31:44Z</time>
      </trkpt>
      <trkpt lat="44.48628" lon="0.94482">
        <ele>72.72</ele>
        <time>2015-11-14T13:31:49Z</time>
      </trkpt>
      <trkpt lat="44.4863" lon="0.94485">
        <ele>73.2</ele>
        <time>2015-11-14T13:31:50Z</time>
      </trkpt>
      <trkpt lat="44.48658" lon="0.94518">
        <ele>75.6</ele>
        <time>2015-11-14T13:32:02Z</time>
      </trkpt>
      <trkpt lat="44.48692" lon="0.94538">
        <ele>76.08</ele>
        <time>2015-11-14T13:32:15Z</time>
      </trkpt>
      <trkpt lat="44.48696" lon="0.94537">
        <ele>76.08</ele>
        <time>2015-11-14T13:32:17Z</time>
      </trkpt>
      <trkpt lat="44.48701" lon="0.94534">
        <ele>75.12</ele>
        <time>2015-11-14T13:32:27Z</time>
      </trkpt>
      <trkpt lat="44.48706" lon="0.94532">
        <ele>74.16</ele>
        <time>2015-11-14T13:32:38Z</time>
      </trkpt>
      <trkpt lat="44.48708" lon="0.94532">
        <ele>73.68</ele>
        <time>2015-11-14T13:32:39Z</time>
      </trkpt>
      <trkpt lat="44.4871" lon="0.94532">
        <ele>73.2</ele>
        <time>2015-11-14T13:32:40Z</time>
      </trkpt>
      <trkpt lat="44.48715" lon="0.94533">
        <ele>72.72</ele>
        <time>2015-11-14T13:32:42Z</time>
      </trkpt>
      <trkpt lat="44.48723" lon="0.94532">
        <ele>73.2</ele>
        <time>2015-11-14T13:32:47Z</time>
      </trkpt>
      <trkpt lat="44.48725" lon="0.94525">
        <ele>73.68</ele>
        <time>2015-11-14T13:32:50Z</time>
      </trkpt>
      <trkpt lat="44.48745" lon="0.94527">
        <ele>72.72</ele>
        <time>2015-11-14T13:32:57Z</time>
      </trkpt>
      <trkpt lat="44.48747" lon="0.9453">
        <ele>72.72</ele>
        <time>2015-11-14T13:32:58Z</time>
      </trkpt>
      <trkpt lat="44.4875" lon="0.94535">
        <ele>72.72</ele>
        <time>2015-11-14T13:32:59Z</time>
      </trkpt>
      <trkpt lat="44.48753" lon="0.9454">
        <ele>72.72</ele>
        <time>2015-11-14T13:33:00Z</time>
      </trkpt>
      <trkpt lat="44.48776" lon="0.94572">
        <ele>73.2</ele>
        <time>2015-11-14T13:33:07Z</time>
      </trkpt>
      <trkpt lat="44.48797" lon="0.94588">
        <ele>73.68</ele>
        <time>2015-11-14T13:33:12Z</time>
      </trkpt>
      <trkpt lat="44.48815" lon="0.94593">
        <ele>74.16</ele>
        <time>2015-11-14T13:33:16Z</time>
      </trkpt>
      <trkpt lat="44.48831" lon="0.94591">
        <ele>73.68</ele>
        <time>2015-11-14T13:33:20Z</time>
      </trkpt>
      <trkpt lat="44.48835" lon="0.94589">
        <ele>73.68</ele>
        <time>2015-11-14T13:33:21Z</time>
      </trkpt>
      <trkpt lat="44.48877" lon="0.94558">
        <ele>74.16</ele>
        <time>2015-11-14T13:33:34Z</time>
      </trkpt>
      <trkpt lat="44.48892" lon="0.94557">
        <ele>74.64</ele>
        <time>2015-11-14T13:33:43Z</time>
      </trkpt>
      <trkpt lat="44.48894" lon="0.94558">
        <ele>74.64</ele>
        <time>2015-11-14T13:33:44Z</time>
      </trkpt>
      <trkpt lat="44.48897" lon="0.94566">
        <ele>75.6</ele>
        <time>2015-11-14T13:33:47Z</time>
      </trkpt>
      <trkpt lat="44.48901" lon="0.94577">
        <ele>77.52</ele>
        <time>2015-11-14T13:33:53Z</time>
      </trkpt>
      <trkpt lat="44.48907" lon="0.94603">
        <ele>79.93</ele>
        <time>2015-11-14T13:34:06Z</time>
      </trkpt>
      <trkpt lat="44.48908" lon="0.94615">
        <ele>80.41</ele>
        <time>2015-11-14T13:34:10Z</time>
      </trkpt>
      <trkpt lat="44.48912" lon="0.94652">
        <ele>78.97</ele>
        <time>2015-11-14T13:34:18Z</time>
      </trkpt>
      <trkpt lat="44.48914" lon="0.94677">
        <ele>79.45</ele>
        <time>2015-11-14T13:34:24Z</time>
      </trkpt>
      <trkpt lat="44.48918" lon="0.94729">
        <ele>77.52</ele>
        <time>2015-11-14T13:34:36Z</time>
      </trkpt>
      <trkpt lat="44.48928" lon="0.94839">
        <ele>76.56</ele>
        <time>2015-11-14T13:34:52Z</time>
      </trkpt>
      <trkpt lat="44.48934" lon="0.94901">
        <ele>75.6</ele>
        <time>2015-11-14T13:35:00Z</time>
      </trkpt>
      <trkpt lat="44.48947" lon="0.95043">
        <ele>73.68</ele>
        <time>2015-11-14T13:35:17Z</time>
      </trkpt>
      <trkpt lat="44.4896" lon="0.95181">
        <ele>72.72</ele>
        <time>2015-11-14T13:35:33Z</time>
      </trkpt>
      <trkpt lat="44.48973" lon="0.95331">
        <ele>71.76</ele>
        <time>2015-11-14T13:35:50Z</time>
      </trkpt>
      <trkpt lat="44.48995" lon="0.95481">
        <ele>70.31</ele>
        <time>2015-11-14T13:36:07Z</time>
      </trkpt>
      <trkpt lat="44.4901" lon="0.95542">
        <ele>70.79</ele>
        <time>2015-11-14T13:36:14Z</time>
      </trkpt>
      <trkpt lat="44.49059" lon="0.95666">
        <ele>71.27</ele>
        <time>2015-11-14T13:36:30Z</time>
      </trkpt>
      <trkpt lat="44.49107" lon="0.95783">
        <ele>70.79</ele>
        <time>2015-11-14T13:36:46Z</time>
      </trkpt>
      <trkpt lat="44.49161" lon="0.9591">
        <ele>70.79</ele>
        <time>2015-11-14T13:37:03Z</time>
      </trkpt>
      <trkpt lat="44.4919" lon="0.95978">
        <ele>70.79</ele>
        <time>2015-11-14T13:37:13Z</time>
      </trkpt>
      <trkpt lat="44.49238" lon="0.9609">
        <ele>71.27</ele>
        <time>2015-11-14T13:37:29Z</time>
      </trkpt>
      <trkpt lat="44.49291" lon="0.96216">
        <ele>71.76</ele>
        <time>2015-11-14T13:37:47Z</time>
      </trkpt>
      <trkpt lat="44.49319" lon="0.96278">
        <ele>72.24</ele>
        <time>2015-11-14T13:37:57Z</time>
      </trkpt>
      <trkpt lat="44.49323" lon="0.96289">
        <ele>72.24</ele>
        <time>2015-11-14T13:37:59Z</time>
      </trkpt>
      <trkpt lat="44.49328" lon="0.963">
        <ele>72.72</ele>
        <time>2015-11-14T13:38:01Z</time>
      </trkpt>
      <trkpt lat="44.49338" lon="0.96327">
        <ele>73.68</ele>
        <time>2015-11-14T13:38:05Z</time>
      </trkpt>
      <trkpt lat="44.49384" lon="0.96438">
        <ele>73.2</ele>
        <time>2015-11-14T13:38:22Z</time>
      </trkpt>
      <trkpt lat="44.49394" lon="0.96459">
        <ele>73.2</ele>
        <time>2015-11-14T13:38:31Z</time>
      </trkpt>
      <trkpt lat="44.49402" lon="0.96481">
        <ele>73.2</ele>
        <time>2015-11-14T13:38:41Z</time>
      </trkpt>
      <trkpt lat="44.49415" lon="0.9651">
        <ele>73.2</ele>
        <time>2015-11-14T13:38:47Z</time>
      </trkpt>
      <trkpt lat="44.49417" lon="0.96516">
        <ele>73.2</ele>
        <time>2015-11-14T13:38:48Z</time>
      </trkpt>
      <trkpt lat="44.49459" lon="0.96612">
        <ele>72.72</ele>
        <time>2015-11-14T13:39:05Z</time>
      </trkpt>
      <trkpt lat="44.49505" lon="0.96724">
        <ele>72.24</ele>
        <time>2015-11-14T13:39:23Z</time>
      </trkpt>
      <trkpt lat="44.49536" lon="0.96806">
        <ele>71.76</ele>
        <time>2015-11-14T13:39:35Z</time>
      </trkpt>
      <trkpt lat="44.49537" lon="0.96813">
        <ele>71.76</ele>
        <time>2015-11-14T13:39:36Z</time>
      </trkpt>
      <trkpt lat="44.49538" lon="0.96821">
        <ele>71.76</ele>
        <time>2015-11-14T13:39:37Z</time>
      </trkpt>
      <trkpt lat="44.4954" lon="0.96828">
        <ele>71.76</ele>
        <time>2015-11-14T13:39:38Z</time>
      </trkpt>
      <trkpt lat="44.49543" lon="0.96835">
        <ele>71.76</ele>
        <time>2015-11-14T13:39:39Z</time>
      </trkpt>
      <trkpt lat="44.49546" lon="0.96841">
        <ele>71.76</ele>
        <time>2015-11-14T13:39:40Z</time>
      </trkpt>
      <trkpt lat="44.49594" lon="0.96957">
        <ele>71.76</ele>
        <time>2015-11-14T13:39:57Z</time>
      </trkpt>
      <trkpt lat="44.49637" lon="0.97077">
        <ele>72.72</ele>
        <time>2015-11-14T13:40:14Z</time>
      </trkpt>
      <trkpt lat="44.49675" lon="0.97181">
        <ele>71.27</ele>
        <time>2015-11-14T13:40:29Z</time>
      </trkpt>
      <trkpt lat="44.4971" lon="0.97285">
        <ele>71.27</ele>
        <time>2015-11-14T13:40:43Z</time>
      </trkpt>
      <trkpt lat="44.49745" lon="0.97402">
        <ele>73.68</ele>
        <time>2015-11-14T13:40:58Z</time>
      </trkpt>
      <trkpt lat="44.4978" lon="0.97536">
        <ele>74.64</ele>
        <time>2015-11-14T13:41:15Z</time>
      </trkpt>
      <trkpt lat="44.49821" lon="0.97703">
        <ele>75.12</ele>
        <time>2015-11-14T13:41:35Z</time>
      </trkpt>
      <trkpt lat="44.4984" lon="0.97824">
        <ele>76.08</ele>
        <time>2015-11-14T13:41:49Z</time>
      </trkpt>
      <trkpt lat="44.49849" lon="0.97958">
        <ele>78</ele>
        <time>2015-11-14T13:42:04Z</time>
      </trkpt>
      <trkpt lat="44.49847" lon="0.98087">
        <ele>80.41</ele>
        <time>2015-11-14T13:42:19Z</time>
      </trkpt>
      <trkpt lat="44.49839" lon="0.98138">
        <ele>79.93</ele>
        <time>2015-11-14T13:42:25Z</time>
      </trkpt>
      <trkpt lat="44.49809" lon="0.98244">
        <ele>80.41</ele>
        <time>2015-11-14T13:42:38Z</time>
      </trkpt>
      <trkpt lat="44.49779" lon="0.98348">
        <ele>79.93</ele>
        <time>2015-11-14T13:42:54Z</time>
      </trkpt>
      <trkpt lat="44.49778" lon="0.98362">
        <ele>78.48</ele>
        <time>2015-11-14T13:42:59Z</time>
      </trkpt>
      <trkpt lat="44.49776" lon="0.98364">
        <ele>78</ele>
        <time>2015-11-14T13:43:00Z</time>
      </trkpt>
      <trkpt lat="44.49775" lon="0.98366">
        <ele>78</ele>
        <time>2015-11-14T13:43:01Z</time>
      </trkpt>
      <trkpt lat="44.49774" lon="0.98369">
        <ele>78.48</ele>
        <time>2015-11-14T13:43:02Z</time>
      </trkpt>
      <trkpt lat="44.49773" lon="0.98371">
        <ele>78.48</ele>
        <time>2015-11-14T13:43:03Z</time>
      </trkpt>
      <trkpt lat="44.49773" lon="0.98374">
        <ele>78</ele>
        <time>2015-11-14T13:43:04Z</time>
      </trkpt>
      <trkpt lat="44.49773" lon="0.98377">
        <ele>78</ele>
        <time>2015-11-14T13:43:05Z</time>
      </trkpt>
      <trkpt lat="44.49762" lon="0.98411">
        <ele>78.48</ele>
        <time>2015-11-14T13:43:15Z</time>
      </trkpt>
      <trkpt lat="44.49744" lon="0.98481">
        <ele>77.52</ele>
        <time>2015-11-14T13:43:29Z</time>
      </trkpt>
      <trkpt lat="44.49733" lon="0.98538">
        <ele>77.04</ele>
        <time>2015-11-14T13:43:39Z</time>
      </trkpt>
      <trkpt lat="44.49729" lon="0.98561">
        <ele>76.56</ele>
        <time>2015-11-14T13:43:43Z</time>
      </trkpt>
      <trkpt lat="44.49719" lon="0.98629">
        <ele>76.08</ele>
        <time>2015-11-14T13:43:54Z</time>
      </trkpt>
      <trkpt lat="44.49704" lon="0.98734">
        <ele>75.12</ele>
        <time>2015-11-14T13:44:10Z</time>
      </trkpt>
      <trkpt lat="44.49697" lon="0.98772">
        <ele>72.24</ele>
        <time>2015-11-14T13:44:15Z</time>
      </trkpt>
      <trkpt lat="44.49695" lon="0.98777">
        <ele>72.24</ele>
        <time>2015-11-14T13:44:16Z</time>
      </trkpt>
      <trkpt lat="44.49692" lon="0.98783">
        <ele>71.76</ele>
        <time>2015-11-14T13:44:18Z</time>
      </trkpt>
      <trkpt lat="44.49691" lon="0.98784">
        <ele>71.76</ele>
        <time>2015-11-14T13:44:19Z</time>
      </trkpt>
      <trkpt lat="44.49689" lon="0.98786">
        <ele>72.24</ele>
        <time>2015-11-14T13:44:20Z</time>
      </trkpt>
      <trkpt lat="44.49687" lon="0.98787">
        <ele>71.76</ele>
        <time>2015-11-14T13:44:21Z</time>
      </trkpt>
      <trkpt lat="44.49686" lon="0.98787">
        <ele>71.76</ele>
        <time>2015-11-14T13:44:22Z</time>
      </trkpt>
      <trkpt lat="44.49684" lon="0.98788">
        <ele>71.76</ele>
        <time>2015-11-14T13:44:23Z</time>
      </trkpt>
      <trkpt lat="44.49682" lon="0.9879">
        <ele>71.76</ele>
        <time>2015-11-14T13:44:24Z</time>
      </trkpt>
      <trkpt lat="44.4968" lon="0.98792">
        <ele>71.76</ele>
        <time>2015-11-14T13:44:25Z</time>
      </trkpt>
      <trkpt lat="44.49669" lon="0.98822">
        <ele>70.79</ele>
        <time>2015-11-14T13:44:33Z</time>
      </trkpt>
      <trkpt lat="44.49667" lon="0.98855">
        <ele>70.79</ele>
        <time>2015-11-14T13:44:39Z</time>
      </trkpt>
      <trkpt lat="44.49694" lon="0.98866">
        <ele>72.24</ele>
        <time>2015-11-14T13:44:49Z</time>
      </trkpt>
      <trkpt lat="44.49698" lon="0.98865">
        <ele>72.24</ele>
        <time>2015-11-14T13:44:50Z</time>
      </trkpt>
      <trkpt lat="44.49733" lon="0.98869">
        <ele>73.68</ele>
        <time>2015-11-14T13:44:59Z</time>
      </trkpt>
      <trkpt lat="44.49739" lon="0.98873">
        <ele>75.12</ele>
        <time>2015-11-14T13:45:11Z</time>
      </trkpt>
      <trkpt lat="44.49739" lon="0.98873">
        <ele>74.64</ele>
        <time>2015-11-14T13:45:20Z</time>
      </trkpt>
      <trkpt lat="44.49742" lon="0.98871">
        <ele>74.64</ele>
        <time>2015-11-14T13:45:22Z</time>
      </trkpt>
      <trkpt lat="44.49744" lon="0.98868">
        <ele>74.64</ele>
        <time>2015-11-14T13:45:23Z</time>
      </trkpt>
      <trkpt lat="44.49746" lon="0.98865">
        <ele>74.64</ele>
        <time>2015-11-14T13:45:24Z</time>
      </trkpt>
      <trkpt lat="44.49748" lon="0.98861">
        <ele>74.64</ele>
        <time>2015-11-14T13:45:25Z</time>
      </trkpt>
      <trkpt lat="44.4975" lon="0.98856">
        <ele>74.64</ele>
        <time>2015-11-14T13:45:26Z</time>
      </trkpt>
      <trkpt lat="44.49759" lon="0.98842">
        <ele>74.64</ele>
        <time>2015-11-14T13:45:30Z</time>
      </trkpt>
      <trkpt lat="44.49762" lon="0.98842">
        <ele>74.64</ele>
        <time>2015-11-14T13:45:31Z</time>
      </trkpt>
      <trkpt lat="44.49766" lon="0.98844">
        <ele>74.64</ele>
        <time>2015-11-14T13:45:32Z</time>
      </trkpt>
      <trkpt lat="44.49769" lon="0.98847">
        <ele>74.64</ele>
        <time>2015-11-14T13:45:33Z</time>
      </trkpt>
      <trkpt lat="44.49771" lon="0.98851">
        <ele>74.64</ele>
        <time>2015-11-14T13:45:34Z</time>
      </trkpt>
      <trkpt lat="44.49808" lon="0.9888">
        <ele>73.68</ele>
        <time>2015-11-14T13:45:45Z</time>
      </trkpt>
      <trkpt lat="44.49828" lon="0.98887">
        <ele>73.68</ele>
        <time>2015-11-14T13:45:50Z</time>
      </trkpt>
      <trkpt lat="44.49831" lon="0.9889">
        <ele>73.68</ele>
        <time>2015-11-14T13:45:51Z</time>
      </trkpt>
      <trkpt lat="44.49839" lon="0.98895">
        <ele>74.16</ele>
        <time>2015-11-14T13:45:53Z</time>
      </trkpt>
      <trkpt lat="44.49911" lon="0.98938">
        <ele>76.08</ele>
        <time>2015-11-14T13:46:10Z</time>
      </trkpt>
      <trkpt lat="44.4992" lon="0.98944">
        <ele>76.08</ele>
        <time>2015-11-14T13:46:12Z</time>
      </trkpt>
      <trkpt lat="44.49923" lon="0.98948">
        <ele>76.08</ele>
        <time>2015-11-14T13:46:13Z</time>
      </trkpt>
      <trkpt lat="44.49924" lon="0.98954">
        <ele>76.08</ele>
        <time>2015-11-14T13:46:14Z</time>
      </trkpt>
      <trkpt lat="44.49925" lon="0.98961">
        <ele>76.08</ele>
        <time>2015-11-14T13:46:15Z</time>
      </trkpt>
      <trkpt lat="44.49924" lon="0.98969">
        <ele>76.08</ele>
        <time>2015-11-14T13:46:16Z</time>
      </trkpt>
      <trkpt lat="44.49924" lon="0.98976">
        <ele>76.08</ele>
        <time>2015-11-14T13:46:17Z</time>
      </trkpt>
      <trkpt lat="44.49923" lon="0.9899">
        <ele>76.08</ele>
        <time>2015-11-14T13:46:19Z</time>
      </trkpt>
      <trkpt lat="44.49929" lon="0.99092">
        <ele>75.12</ele>
        <time>2015-11-14T13:46:35Z</time>
      </trkpt>
      <trkpt lat="44.49941" lon="0.99219">
        <ele>77.52</ele>
        <time>2015-11-14T13:46:56Z</time>
      </trkpt>
      <trkpt lat="44.49948" lon="0.99282">
        <ele>79.45</ele>
        <time>2015-11-14T13:47:07Z</time>
      </trkpt>
      <trkpt lat="44.49954" lon="0.99301">
        <ele>80.41</ele>
        <time>2015-11-14T13:47:11Z</time>
      </trkpt>
      <trkpt lat="44.49957" lon="0.99304">
        <ele>80.41</ele>
        <time>2015-11-14T13:47:12Z</time>
      </trkpt>
      <trkpt lat="44.4996" lon="0.99306">
        <ele>80.41</ele>
        <time>2015-11-14T13:47:13Z</time>
      </trkpt>
      <trkpt lat="44.49972" lon="0.99311">
        <ele>81.37</ele>
        <time>2015-11-14T13:47:16Z</time>
      </trkpt>
      <trkpt lat="44.50024" lon="0.99354">
        <ele>83.77</ele>
        <time>2015-11-14T13:47:31Z</time>
      </trkpt>
      <trkpt lat="44.50042" lon="0.99384">
        <ele>82.81</ele>
        <time>2015-11-14T13:47:38Z</time>
      </trkpt>
      <trkpt lat="44.50045" lon="0.99391">
        <ele>82.81</ele>
        <time>2015-11-14T13:47:39Z</time>
      </trkpt>
      <trkpt lat="44.50056" lon="0.99425">
        <ele>80.89</ele>
        <time>2015-11-14T13:47:43Z</time>
      </trkpt>
      <trkpt lat="44.50068" lon="0.99488">
        <ele>79.93</ele>
        <time>2015-11-14T13:47:50Z</time>
      </trkpt>
      <trkpt lat="44.50086" lon="0.99544">
        <ele>80.89</ele>
        <time>2015-11-14T13:47:58Z</time>
      </trkpt>
      <trkpt lat="44.50092" lon="0.99556">
        <ele>80.41</ele>
        <time>2015-11-14T13:48:00Z</time>
      </trkpt>
      <trkpt lat="44.50108" lon="0.9959">
        <ele>79.45</ele>
        <time>2015-11-14T13:48:05Z</time>
      </trkpt>
      <trkpt lat="44.50111" lon="0.99596">
        <ele>79.45</ele>
        <time>2015-11-14T13:48:06Z</time>
      </trkpt>
      <trkpt lat="44.50134" lon="0.99645">
        <ele>76.56</ele>
        <time>2015-11-14T13:48:14Z</time>
      </trkpt>
      <trkpt lat="44.5017" lon="0.99711">
        <ele>78.48</ele>
        <time>2015-11-14T13:48:27Z</time>
      </trkpt>
      <trkpt lat="44.50208" lon="0.99758">
        <ele>82.33</ele>
        <time>2015-11-14T13:48:39Z</time>
      </trkpt>
      <trkpt lat="44.50265" lon="0.99805">
        <ele>83.77</ele>
        <time>2015-11-14T13:48:49Z</time>
      </trkpt>
      <trkpt lat="44.50307" lon="0.99834">
        <ele>85.69</ele>
        <time>2015-11-14T13:49:00Z</time>
      </trkpt>
      <trkpt lat="44.50329" lon="0.99847">
        <ele>86.66</ele>
        <time>2015-11-14T13:49:05Z</time>
      </trkpt>
      <trkpt lat="44.50363" lon="0.99853">
        <ele>87.14</ele>
        <time>2015-11-14T13:49:11Z</time>
      </trkpt>
      <trkpt lat="44.50368" lon="0.99853">
        <ele>86.66</ele>
        <time>2015-11-14T13:49:12Z</time>
      </trkpt>
      <trkpt lat="44.5039" lon="0.99852">
        <ele>86.66</ele>
        <time>2015-11-14T13:49:16Z</time>
      </trkpt>
      <trkpt lat="44.50396" lon="0.9985">
        <ele>86.66</ele>
        <time>2015-11-14T13:49:17Z</time>
      </trkpt>
      <trkpt lat="44.50444" lon="0.99844">
        <ele>86.18</ele>
        <time>2015-11-14T13:49:27Z</time>
      </trkpt>
      <trkpt lat="44.50449" lon="0.99846">
        <ele>86.18</ele>
        <time>2015-11-14T13:49:28Z</time>
      </trkpt>
      <trkpt lat="44.50453" lon="0.99847">
        <ele>85.69</ele>
        <time>2015-11-14T13:49:29Z</time>
      </trkpt>
      <trkpt lat="44.50458" lon="0.99848">
        <ele>86.18</ele>
        <time>2015-11-14T13:49:30Z</time>
      </trkpt>
      <trkpt lat="44.50462" lon="0.9985">
        <ele>86.18</ele>
        <time>2015-11-14T13:49:31Z</time>
      </trkpt>
      <trkpt lat="44.50495" lon="0.99871">
        <ele>89.06</ele>
        <time>2015-11-14T13:49:42Z</time>
      </trkpt>
      <trkpt lat="44.50529" lon="0.99929">
        <ele>91.46</ele>
        <time>2015-11-14T13:49:58Z</time>
      </trkpt>
      <trkpt lat="44.50557" lon="0.99967">
        <ele>92.9</ele>
        <time>2015-11-14T13:50:10Z</time>
      </trkpt>
      <trkpt lat="44.50589" lon="0.99989">
        <ele>95.79</ele>
        <time>2015-11-14T13:50:24Z</time>
      </trkpt>
      <trkpt lat="44.50603" lon="0.99998">
        <ele>96.75</ele>
        <time>2015-11-14T13:50:34Z</time>
      </trkpt>
      <trkpt lat="44.50604" lon="0.99999">
        <ele>96.75</ele>
        <time>2015-11-14T13:50:35Z</time>
      </trkpt>
      <trkpt lat="44.50606" lon="0.99999">
        <ele>96.75</ele>
        <time>2015-11-14T13:50:49Z</time>
      </trkpt>
      <trkpt lat="44.50606" lon="0.99999">
        <ele>96.75</ele>
        <time>2015-11-14T13:51:07Z</time>
      </trkpt>
      <trkpt lat="44.50607" lon="1">
        <ele>95.31</ele>
        <time>2015-11-14T13:51:43Z</time>
      </trkpt>
      <trkpt lat="44.50607" lon="1">
        <ele>94.35</ele>
        <time>2015-11-14T13:52:21Z</time>
      </trkpt>
      <trkpt lat="44.50607" lon="1">
        <ele>93.87</ele>
        <time>2015-11-14T13:52:29Z</time>
      </trkpt>
      <trkpt lat="44.50608" lon="1">
        <ele>93.87</ele>
        <time>2015-11-14T13:52:30Z</time>
      </trkpt>
      <trkpt lat="44.5061" lon="1.00001">
        <ele>93.87</ele>
        <time>2015-11-14T13:52:31Z</time>
      </trkpt>
      <trkpt lat="44.5063" lon="1.00012">
        <ele>94.35</ele>
        <time>2015-11-14T13:52:38Z</time>
      </trkpt>
      <trkpt lat="44.50634" lon="1.00014">
        <ele>94.35</ele>
        <time>2015-11-14T13:52:39Z</time>
      </trkpt>
      <trkpt lat="44.50638" lon="1.00017">
        <ele>94.35</ele>
        <time>2015-11-14T13:52:40Z</time>
      </trkpt>
      <trkpt lat="44.50642" lon="1.0002">
        <ele>94.35</ele>
        <time>2015-11-14T13:52:41Z</time>
      </trkpt>
      <trkpt lat="44.50646" lon="1.00023">
        <ele>94.35</ele>
        <time>2015-11-14T13:52:42Z</time>
      </trkpt>
      <trkpt lat="44.50662" lon="1.00037">
        <ele>94.35</ele>
        <time>2015-11-14T13:52:46Z</time>
      </trkpt>
      <trkpt lat="44.50666" lon="1.00042">
        <ele>93.87</ele>
        <time>2015-11-14T13:52:47Z</time>
      </trkpt>
      <trkpt lat="44.50669" lon="1.00048">
        <ele>93.39</ele>
        <time>2015-11-14T13:52:48Z</time>
      </trkpt>
      <trkpt lat="44.50672" lon="1.00055">
        <ele>93.39</ele>
        <time>2015-11-14T13:52:49Z</time>
      </trkpt>
      <trkpt lat="44.50674" lon="1.00062">
        <ele>92.9</ele>
        <time>2015-11-14T13:52:50Z</time>
      </trkpt>
      <trkpt lat="44.50675" lon="1.00071">
        <ele>92.42</ele>
        <time>2015-11-14T13:52:51Z</time>
      </trkpt>
      <trkpt lat="44.50705" lon="1.00198">
        <ele>90.02</ele>
        <time>2015-11-14T13:53:03Z</time>
      </trkpt>
      <trkpt lat="44.50731" lon="1.00261">
        <ele>89.54</ele>
        <time>2015-11-14T13:53:12Z</time>
      </trkpt>
      <trkpt lat="44.50735" lon="1.00268">
        <ele>89.06</ele>
        <time>2015-11-14T13:53:13Z</time>
      </trkpt>
      <trkpt lat="44.50739" lon="1.00275">
        <ele>89.06</ele>
        <time>2015-11-14T13:53:14Z</time>
      </trkpt>
      <trkpt lat="44.50744" lon="1.00281">
        <ele>89.06</ele>
        <time>2015-11-14T13:53:15Z</time>
      </trkpt>
      <trkpt lat="44.50795" lon="1.00356">
        <ele>86.18</ele>
        <time>2015-11-14T13:53:26Z</time>
      </trkpt>
      <trkpt lat="44.50829" lon="1.00399">
        <ele>85.21</ele>
        <time>2015-11-14T13:53:34Z</time>
      </trkpt>
      <trkpt lat="44.50832" lon="1.00404">
        <ele>85.21</ele>
        <time>2015-11-14T13:53:35Z</time>
      </trkpt>
      <trkpt lat="44.50835" lon="1.00409">
        <ele>85.21</ele>
        <time>2015-11-14T13:53:36Z</time>
      </trkpt>
      <trkpt lat="44.50838" lon="1.00413">
        <ele>85.21</ele>
        <time>2015-11-14T13:53:37Z</time>
      </trkpt>
      <trkpt lat="44.50841" lon="1.00417">
        <ele>85.21</ele>
        <time>2015-11-14T13:53:38Z</time>
      </trkpt>
      <trkpt lat="44.50873" lon="1.00466">
        <ele>87.62</ele>
        <time>2015-11-14T13:53:50Z</time>
      </trkpt>
      <trkpt lat="44.50876" lon="1.0047">
        <ele>87.62</ele>
        <time>2015-11-14T13:53:51Z</time>
      </trkpt>
      <trkpt lat="44.50879" lon="1.00474">
        <ele>88.1</ele>
        <time>2015-11-14T13:53:52Z</time>
      </trkpt>
      <trkpt lat="44.50891" lon="1.00513">
        <ele>90.98</ele>
        <time>2015-11-14T13:54:04Z</time>
      </trkpt>
      <trkpt lat="44.50904" lon="1.00543">
        <ele>91.94</ele>
        <time>2015-11-14T13:54:17Z</time>
      </trkpt>
      <trkpt lat="44.50905" lon="1.00544">
        <ele>91.94</ele>
        <time>2015-11-14T13:54:18Z</time>
      </trkpt>
      <trkpt lat="44.50906" lon="1.00547">
        <ele>91.94</ele>
        <time>2015-11-14T13:54:19Z</time>
      </trkpt>
      <trkpt lat="44.50907" lon="1.00549">
        <ele>92.42</ele>
        <time>2015-11-14T13:54:20Z</time>
      </trkpt>
      <trkpt lat="44.50909" lon="1.00553">
        <ele>92.42</ele>
        <time>2015-11-14T13:54:21Z</time>
      </trkpt>
      <trkpt lat="44.5091" lon="1.00556">
        <ele>92.42</ele>
        <time>2015-11-14T13:54:22Z</time>
      </trkpt>
      <trkpt lat="44.50911" lon="1.00559">
        <ele>92.42</ele>
        <time>2015-11-14T13:54:23Z</time>
      </trkpt>
      <trkpt lat="44.50913" lon="1.00562">
        <ele>92.42</ele>
        <time>2015-11-14T13:54:24Z</time>
      </trkpt>
      <trkpt lat="44.50915" lon="1.00566">
        <ele>92.42</ele>
        <time>2015-11-14T13:54:25Z</time>
      </trkpt>
      <trkpt lat="44.50939" lon="1.00614">
        <ele>91.46</ele>
        <time>2015-11-14T13:54:40Z</time>
      </trkpt>
      <trkpt lat="44.50938" lon="1.00645">
        <ele>92.42</ele>
        <time>2015-11-14T13:54:48Z</time>
      </trkpt>
      <trkpt lat="44.50909" lon="1.00676">
        <ele>98.67</ele>
        <time>2015-11-14T13:55:02Z</time>
      </trkpt>
      <trkpt lat="44.5086" lon="1.00706">
        <ele>102.52</ele>
        <time>2015-11-14T13:55:19Z</time>
      </trkpt>
      <trkpt lat="44.50808" lon="1.00743">
        <ele>101.56</ele>
        <time>2015-11-14T13:55:36Z</time>
      </trkpt>
      <trkpt lat="44.50774" lon="1.00783">
        <ele>102.04</ele>
        <time>2015-11-14T13:55:50Z</time>
      </trkpt>
      <trkpt lat="44.5075" lon="1.00806">
        <ele>103.48</ele>
        <time>2015-11-14T13:56:02Z</time>
      </trkpt>
      <trkpt lat="44.50741" lon="1.00812">
        <ele>103</ele>
        <time>2015-11-14T13:56:14Z</time>
      </trkpt>
      <trkpt lat="44.50732" lon="1.00813">
        <ele>103</ele>
        <time>2015-11-14T13:56:18Z</time>
      </trkpt>
      <trkpt lat="44.50729" lon="1.00813">
        <ele>103</ele>
        <time>2015-11-14T13:56:19Z</time>
      </trkpt>
      <trkpt lat="44.50727" lon="1.00813">
        <ele>103.48</ele>
        <time>2015-11-14T13:56:20Z</time>
      </trkpt>
      <trkpt lat="44.50725" lon="1.00813">
        <ele>103.48</ele>
        <time>2015-11-14T13:56:21Z</time>
      </trkpt>
      <trkpt lat="44.50722" lon="1.00813">
        <ele>103.96</ele>
        <time>2015-11-14T13:56:22Z</time>
      </trkpt>
      <trkpt lat="44.5072" lon="1.00813">
        <ele>104.44</ele>
        <time>2015-11-14T13:56:23Z</time>
      </trkpt>
      <trkpt lat="44.50717" lon="1.00813">
        <ele>104.44</ele>
        <time>2015-11-14T13:56:24Z</time>
      </trkpt>
      <trkpt lat="44.50715" lon="1.00813">
        <ele>104.92</ele>
        <time>2015-11-14T13:56:25Z</time>
      </trkpt>
      <trkpt lat="44.50712" lon="1.00813">
        <ele>104.92</ele>
        <time>2015-11-14T13:56:26Z</time>
      </trkpt>
      <trkpt lat="44.50682" lon="1.00824">
        <ele>106.84</ele>
        <time>2015-11-14T13:56:39Z</time>
      </trkpt>
      <trkpt lat="44.50651" lon="1.00842">
        <ele>108.77</ele>
        <time>2015-11-14T13:56:53Z</time>
      </trkpt>
      <trkpt lat="44.50622" lon="1.00855">
        <ele>110.69</ele>
        <time>2015-11-14T13:57:07Z</time>
      </trkpt>
      <trkpt lat="44.50592" lon="1.00867">
        <ele>115.98</ele>
        <time>2015-11-14T13:57:22Z</time>
      </trkpt>
      <trkpt lat="44.50564" lon="1.0088">
        <ele>118.38</ele>
        <time>2015-11-14T13:57:35Z</time>
      </trkpt>
      <trkpt lat="44.50559" lon="1.00891">
        <ele>119.82</ele>
        <time>2015-11-14T13:57:40Z</time>
      </trkpt>
      <trkpt lat="44.50559" lon="1.00894">
        <ele>120.3</ele>
        <time>2015-11-14T13:57:41Z</time>
      </trkpt>
      <trkpt lat="44.50557" lon="1.00904">
        <ele>123.19</ele>
        <time>2015-11-14T13:57:45Z</time>
      </trkpt>
      <trkpt lat="44.50557" lon="1.00907">
        <ele>123.19</ele>
        <time>2015-11-14T13:57:46Z</time>
      </trkpt>
      <trkpt lat="44.5055" lon="1.00933">
        <ele>125.11</ele>
        <time>2015-11-14T13:57:57Z</time>
      </trkpt>
      <trkpt lat="44.50528" lon="1.00952">
        <ele>126.07</ele>
        <time>2015-11-14T13:58:10Z</time>
      </trkpt>
      <trkpt lat="44.50506" lon="1.00962">
        <ele>128.47</ele>
        <time>2015-11-14T13:58:24Z</time>
      </trkpt>
      <trkpt lat="44.50485" lon="1.00962">
        <ele>131.84</ele>
        <time>2015-11-14T13:58:38Z</time>
      </trkpt>
      <trkpt lat="44.5048" lon="1.00962">
        <ele>132.8</ele>
        <time>2015-11-14T13:58:41Z</time>
      </trkpt>
      <trkpt lat="44.50479" lon="1.00963">
        <ele>133.28</ele>
        <time>2015-11-14T13:58:42Z</time>
      </trkpt>
      <trkpt lat="44.50477" lon="1.00963">
        <ele>133.28</ele>
        <time>2015-11-14T13:58:43Z</time>
      </trkpt>
      <trkpt lat="44.50476" lon="1.00964">
        <ele>133.76</ele>
        <time>2015-11-14T13:58:44Z</time>
      </trkpt>
      <trkpt lat="44.50474" lon="1.00965">
        <ele>133.76</ele>
        <time>2015-11-14T13:58:45Z</time>
      </trkpt>
      <trkpt lat="44.50473" lon="1.00965">
        <ele>134.24</ele>
        <time>2015-11-14T13:58:46Z</time>
      </trkpt>
      <trkpt lat="44.50472" lon="1.00966">
        <ele>134.72</ele>
        <time>2015-11-14T13:58:47Z</time>
      </trkpt>
      <trkpt lat="44.5047" lon="1.00966">
        <ele>134.72</ele>
        <time>2015-11-14T13:58:48Z</time>
      </trkpt>
      <trkpt lat="44.50449" lon="1.00978">
        <ele>137.61</ele>
        <time>2015-11-14T13:59:02Z</time>
      </trkpt>
      <trkpt lat="44.50424" lon="1.00988">
        <ele>141.45</ele>
        <time>2015-11-14T13:59:18Z</time>
      </trkpt>
      <trkpt lat="44.50398" lon="1.00998">
        <ele>147.7</ele>
        <time>2015-11-14T13:59:35Z</time>
      </trkpt>
      <trkpt lat="44.50377" lon="1.01003">
        <ele>150.58</ele>
        <time>2015-11-14T13:59:48Z</time>
      </trkpt>
      <trkpt lat="44.50356" lon="1.01007">
        <ele>153.47</ele>
        <time>2015-11-14T14:00:01Z</time>
      </trkpt>
      <trkpt lat="44.50336" lon="1.01021">
        <ele>157.31</ele>
        <time>2015-11-14T14:00:14Z</time>
      </trkpt>
      <trkpt lat="44.50321" lon="1.01042">
        <ele>159.72</ele>
        <time>2015-11-14T14:00:26Z</time>
      </trkpt>
      <trkpt lat="44.50316" lon="1.01057">
        <ele>163.08</ele>
        <time>2015-11-14T14:00:33Z</time>
      </trkpt>
      <trkpt lat="44.50315" lon="1.0106">
        <ele>163.56</ele>
        <time>2015-11-14T14:00:34Z</time>
      </trkpt>
      <trkpt lat="44.50315" lon="1.01062">
        <ele>164.04</ele>
        <time>2015-11-14T14:00:35Z</time>
      </trkpt>
      <trkpt lat="44.50314" lon="1.01065">
        <ele>164.52</ele>
        <time>2015-11-14T14:00:36Z</time>
      </trkpt>
      <trkpt lat="44.50314" lon="1.01068">
        <ele>164.52</ele>
        <time>2015-11-14T14:00:37Z</time>
      </trkpt>
      <trkpt lat="44.50304" lon="1.01101">
        <ele>168.37</ele>
        <time>2015-11-14T14:00:49Z</time>
      </trkpt>
      <trkpt lat="44.50293" lon="1.01134">
        <ele>169.81</ele>
        <time>2015-11-14T14:01:02Z</time>
      </trkpt>
      <trkpt lat="44.50282" lon="1.01165">
        <ele>175.58</ele>
        <time>2015-11-14T14:01:16Z</time>
      </trkpt>
      <trkpt lat="44.50276" lon="1.01173">
        <ele>177.5</ele>
        <time>2015-11-14T14:01:21Z</time>
      </trkpt>
      <trkpt lat="44.50275" lon="1.01174">
        <ele>177.5</ele>
        <time>2015-11-14T14:01:22Z</time>
      </trkpt>
      <trkpt lat="44.50274" lon="1.01173">
        <ele>177.5</ele>
        <time>2015-11-14T14:01:23Z</time>
      </trkpt>
      <trkpt lat="44.50273" lon="1.01172">
        <ele>177.02</ele>
        <time>2015-11-14T14:01:24Z</time>
      </trkpt>
      <trkpt lat="44.50273" lon="1.01171">
        <ele>177.02</ele>
        <time>2015-11-14T14:01:25Z</time>
      </trkpt>
      <trkpt lat="44.50273" lon="1.0117">
        <ele>177.02</ele>
        <time>2015-11-14T14:01:27Z</time>
      </trkpt>
      <trkpt lat="44.50274" lon="1.01171">
        <ele>176.54</ele>
        <time>2015-11-14T14:01:28Z</time>
      </trkpt>
      <trkpt lat="44.50274" lon="1.01173">
        <ele>176.54</ele>
        <time>2015-11-14T14:01:29Z</time>
      </trkpt>
      <trkpt lat="44.50272" lon="1.01177">
        <ele>175.58</ele>
        <time>2015-11-14T14:01:35Z</time>
      </trkpt>
      <trkpt lat="44.50271" lon="1.01191">
        <ele>173.17</ele>
        <time>2015-11-14T14:01:47Z</time>
      </trkpt>
      <trkpt lat="44.50271" lon="1.01193">
        <ele>173.66</ele>
        <time>2015-11-14T14:01:48Z</time>
      </trkpt>
      <trkpt lat="44.50271" lon="1.01195">
        <ele>173.17</ele>
        <time>2015-11-14T14:01:49Z</time>
      </trkpt>
      <trkpt lat="44.5027" lon="1.01207">
        <ele>173.66</ele>
        <time>2015-11-14T14:01:58Z</time>
      </trkpt>
      <trkpt lat="44.50272" lon="1.01208">
        <ele>172.69</ele>
        <time>2015-11-14T14:02:12Z</time>
      </trkpt>
      <trkpt lat="44.50272" lon="1.0121">
        <ele>172.69</ele>
        <time>2015-11-14T14:02:31Z</time>
      </trkpt>
      <trkpt lat="44.50272" lon="1.01209">
        <ele>172.21</ele>
        <time>2015-11-14T14:02:35Z</time>
      </trkpt>
      <trkpt lat="44.50272" lon="1.01207">
        <ele>172.21</ele>
        <time>2015-11-14T14:02:36Z</time>
      </trkpt>
      <trkpt lat="44.50272" lon="1.01205">
        <ele>172.21</ele>
        <time>2015-11-14T14:02:37Z</time>
      </trkpt>
      <trkpt lat="44.50271" lon="1.01189">
        <ele>171.25</ele>
        <time>2015-11-14T14:02:52Z</time>
      </trkpt>
      <trkpt lat="44.50271" lon="1.01189">
        <ele>169.81</ele>
        <time>2015-11-14T14:03:12Z</time>
      </trkpt>
      <trkpt lat="44.50272" lon="1.01191">
        <ele>169.81</ele>
        <time>2015-11-14T14:03:41Z</time>
      </trkpt>
      <trkpt lat="44.50272" lon="1.01191">
        <ele>169.33</ele>
        <time>2015-11-14T14:04:05Z</time>
      </trkpt>
      <trkpt lat="44.50272" lon="1.0119">
        <ele>168.85</ele>
        <time>2015-11-14T14:04:31Z</time>
      </trkpt>
      <trkpt lat="44.50272" lon="1.0119">
        <ele>168.37</ele>
        <time>2015-11-14T14:04:52Z</time>
      </trkpt>
      <trkpt lat="44.50273" lon="1.0119">
        <ele>166.93</ele>
        <time>2015-11-14T14:05:20Z</time>
      </trkpt>
      <trkpt lat="44.50273" lon="1.0119">
        <ele>167.41</ele>
        <time>2015-11-14T14:05:43Z</time>
      </trkpt>
      <trkpt lat="44.50274" lon="1.01189">
        <ele>167.41</ele>
        <time>2015-11-14T14:06:08Z</time>
      </trkpt>
      <trkpt lat="44.50273" lon="1.0119">
        <ele>167.89</ele>
        <time>2015-11-14T14:06:38Z</time>
      </trkpt>
      <trkpt lat="44.50272" lon="1.01191">
        <ele>167.41</ele>
        <time>2015-11-14T14:07:04Z</time>
      </trkpt>
      <trkpt lat="44.50272" lon="1.0119">
        <ele>167.41</ele>
        <time>2015-11-14T14:07:29Z</time>
      </trkpt>
      <trkpt lat="44.50273" lon="1.01189">
        <ele>168.37</ele>
        <time>2015-11-14T14:07:53Z</time>
      </trkpt>
      <trkpt lat="44.50273" lon="1.01189">
        <ele>168.37</ele>
        <time>2015-11-14T14:08:18Z</time>
      </trkpt>
      <trkpt lat="44.50272" lon="1.01187">
        <ele>167.89</ele>
        <time>2015-11-14T14:08:44Z</time>
      </trkpt>
      <trkpt lat="44.50273" lon="1.01187">
        <ele>167.89</ele>
        <time>2015-11-14T14:08:59Z</time>
      </trkpt>
      <trkpt lat="44.50273" lon="1.0119">
        <ele>167.89</ele>
        <time>2015-11-14T14:09:13Z</time>
      </trkpt>
      <trkpt lat="44.50273" lon="1.01191">
        <ele>168.37</ele>
        <time>2015-11-14T14:09:14Z</time>
      </trkpt>
      <trkpt lat="44.50272" lon="1.01194">
        <ele>168.37</ele>
        <time>2015-11-14T14:09:15Z</time>
      </trkpt>
      <trkpt lat="44.50266" lon="1.01221">
        <ele>170.29</ele>
        <time>2015-11-14T14:09:23Z</time>
      </trkpt>
      <trkpt lat="44.50264" lon="1.01223">
        <ele>170.77</ele>
        <time>2015-11-14T14:09:24Z</time>
      </trkpt>
      <trkpt lat="44.50261" lon="1.01223">
        <ele>170.77</ele>
        <time>2015-11-14T14:09:25Z</time>
      </trkpt>
      <trkpt lat="44.50214" lon="1.01233">
        <ele>167.89</ele>
        <time>2015-11-14T14:09:36Z</time>
      </trkpt>
      <trkpt lat="44.5015" lon="1.01278">
        <ele>161.16</ele>
        <time>2015-11-14T14:09:45Z</time>
      </trkpt>
      <trkpt lat="44.50118" lon="1.01322">
        <ele>157.79</ele>
        <time>2015-11-14T14:09:51Z</time>
      </trkpt>
      <trkpt lat="44.50085" lon="1.01342">
        <ele>153.95</ele>
        <time>2015-11-14T14:09:56Z</time>
      </trkpt>
      <trkpt lat="44.50052" lon="1.01342">
        <ele>149.62</ele>
        <time>2015-11-14T14:10:00Z</time>
      </trkpt>
      <trkpt lat="44.50032" lon="1.01358">
        <ele>145.78</ele>
        <time>2015-11-14T14:10:04Z</time>
      </trkpt>
      <trkpt lat="44.5" lon="1.01512">
        <ele>137.61</ele>
        <time>2015-11-14T14:10:20Z</time>
      </trkpt>
      <trkpt lat="44.49982" lon="1.01638">
        <ele>135.68</ele>
        <time>2015-11-14T14:10:34Z</time>
      </trkpt>
      <trkpt lat="44.4997" lon="1.01697">
        <ele>132.8</ele>
        <time>2015-11-14T14:10:44Z</time>
      </trkpt>
      <trkpt lat="44.49964" lon="1.01705">
        <ele>132.8</ele>
        <time>2015-11-14T14:10:46Z</time>
      </trkpt>
      <trkpt lat="44.49952" lon="1.01721">
        <ele>132.8</ele>
        <time>2015-11-14T14:10:50Z</time>
      </trkpt>
      <trkpt lat="44.49939" lon="1.01739">
        <ele>132.8</ele>
        <time>2015-11-14T14:10:54Z</time>
      </trkpt>
      <trkpt lat="44.49924" lon="1.01758">
        <ele>132.32</ele>
        <time>2015-11-14T14:10:59Z</time>
      </trkpt>
      <trkpt lat="44.49868" lon="1.01833">
        <ele>130.88</ele>
        <time>2015-11-14T14:11:16Z</time>
      </trkpt>
      <trkpt lat="44.49851" lon="1.01861">
        <ele>129.92</ele>
        <time>2015-11-14T14:11:22Z</time>
      </trkpt>
      <trkpt lat="44.49842" lon="1.01882">
        <ele>129.92</ele>
        <time>2015-11-14T14:11:26Z</time>
      </trkpt>
      <trkpt lat="44.4981" lon="1.01957">
        <ele>129.43</ele>
        <time>2015-11-14T14:11:43Z</time>
      </trkpt>
      <trkpt lat="44.49803" lon="1.01971">
        <ele>129.43</ele>
        <time>2015-11-14T14:11:54Z</time>
      </trkpt>
      <trkpt lat="44.49804" lon="1.01972">
        <ele>129.92</ele>
        <time>2015-11-14T14:11:58Z</time>
      </trkpt>
      <trkpt lat="44.49803" lon="1.01974">
        <ele>129.43</ele>
        <time>2015-11-14T14:11:59Z</time>
      </trkpt>
      <trkpt lat="44.49783" lon="1.02021">
        <ele>126.07</ele>
        <time>2015-11-14T14:12:09Z</time>
      </trkpt>
      <trkpt lat="44.4978" lon="1.0203">
        <ele>125.59</ele>
        <time>2015-11-14T14:12:10Z</time>
      </trkpt>
      <trkpt lat="44.49778" lon="1.02041">
        <ele>125.11</ele>
        <time>2015-11-14T14:12:11Z</time>
      </trkpt>
      <trkpt lat="44.49767" lon="1.02113">
        <ele>121.26</ele>
        <time>2015-11-14T14:12:17Z</time>
      </trkpt>
      <trkpt lat="44.49764" lon="1.02123">
        <ele>121.26</ele>
        <time>2015-11-14T14:12:18Z</time>
      </trkpt>
      <trkpt lat="44.49759" lon="1.02131">
        <ele>121.26</ele>
        <time>2015-11-14T14:12:19Z</time>
      </trkpt>
      <trkpt lat="44.49755" lon="1.02137">
        <ele>121.74</ele>
        <time>2015-11-14T14:12:20Z</time>
      </trkpt>
      <trkpt lat="44.49751" lon="1.02141">
        <ele>121.74</ele>
        <time>2015-11-14T14:12:21Z</time>
      </trkpt>
      <trkpt lat="44.49721" lon="1.02187">
        <ele>126.07</ele>
        <time>2015-11-14T14:12:33Z</time>
      </trkpt>
      <trkpt lat="44.49712" lon="1.02205">
        <ele>127.51</ele>
        <time>2015-11-14T14:12:39Z</time>
      </trkpt>
      <trkpt lat="44.49709" lon="1.02208">
        <ele>127.51</ele>
        <time>2015-11-14T14:12:40Z</time>
      </trkpt>
      <trkpt lat="44.49707" lon="1.02211">
        <ele>127.51</ele>
        <time>2015-11-14T14:12:41Z</time>
      </trkpt>
      <trkpt lat="44.49703" lon="1.02214">
        <ele>127.03</ele>
        <time>2015-11-14T14:12:42Z</time>
      </trkpt>
      <trkpt lat="44.497" lon="1.02218">
        <ele>127.03</ele>
        <time>2015-11-14T14:12:43Z</time>
      </trkpt>
      <trkpt lat="44.49675" lon="1.02249">
        <ele>125.11</ele>
        <time>2015-11-14T14:12:49Z</time>
      </trkpt>
      <trkpt lat="44.49669" lon="1.02253">
        <ele>124.63</ele>
        <time>2015-11-14T14:12:50Z</time>
      </trkpt>
      <trkpt lat="44.49663" lon="1.02257">
        <ele>124.15</ele>
        <time>2015-11-14T14:12:51Z</time>
      </trkpt>
      <trkpt lat="44.49657" lon="1.02259">
        <ele>123.67</ele>
        <time>2015-11-14T14:12:52Z</time>
      </trkpt>
      <trkpt lat="44.4965" lon="1.02261">
        <ele>123.19</ele>
        <time>2015-11-14T14:12:53Z</time>
      </trkpt>
      <trkpt lat="44.49642" lon="1.02261">
        <ele>122.22</ele>
        <time>2015-11-14T14:12:54Z</time>
      </trkpt>
      <trkpt lat="44.49635" lon="1.0226">
        <ele>121.74</ele>
        <time>2015-11-14T14:12:55Z</time>
      </trkpt>
      <trkpt lat="44.49628" lon="1.02257">
        <ele>120.78</ele>
        <time>2015-11-14T14:12:56Z</time>
      </trkpt>
      <trkpt lat="44.49621" lon="1.02251">
        <ele>120.3</ele>
        <time>2015-11-14T14:12:57Z</time>
      </trkpt>
      <trkpt lat="44.49616" lon="1.02244">
        <ele>119.82</ele>
        <time>2015-11-14T14:12:58Z</time>
      </trkpt>
      <trkpt lat="44.49612" lon="1.02235">
        <ele>118.86</ele>
        <time>2015-11-14T14:12:59Z</time>
      </trkpt>
      <trkpt lat="44.49608" lon="1.02226">
        <ele>118.38</ele>
        <time>2015-11-14T14:13:00Z</time>
      </trkpt>
      <trkpt lat="44.49599" lon="1.0221">
        <ele>117.42</ele>
        <time>2015-11-14T14:13:02Z</time>
      </trkpt>
      <trkpt lat="44.49593" lon="1.02204">
        <ele>116.46</ele>
        <time>2015-11-14T14:13:03Z</time>
      </trkpt>
      <trkpt lat="44.49586" lon="1.02199">
        <ele>115.98</ele>
        <time>2015-11-14T14:13:04Z</time>
      </trkpt>
      <trkpt lat="44.49578" lon="1.02196">
        <ele>115.5</ele>
        <time>2015-11-14T14:13:05Z</time>
      </trkpt>
      <trkpt lat="44.4957" lon="1.02194">
        <ele>115.01</ele>
        <time>2015-11-14T14:13:06Z</time>
      </trkpt>
      <trkpt lat="44.49562" lon="1.02192">
        <ele>114.53</ele>
        <time>2015-11-14T14:13:07Z</time>
      </trkpt>
      <trkpt lat="44.49554" lon="1.02191">
        <ele>114.05</ele>
        <time>2015-11-14T14:13:08Z</time>
      </trkpt>
      <trkpt lat="44.49538" lon="1.02187">
        <ele>113.09</ele>
        <time>2015-11-14T14:13:10Z</time>
      </trkpt>
      <trkpt lat="44.49531" lon="1.02183">
        <ele>112.61</ele>
        <time>2015-11-14T14:13:11Z</time>
      </trkpt>
      <trkpt lat="44.49526" lon="1.0218">
        <ele>112.13</ele>
        <time>2015-11-14T14:13:12Z</time>
      </trkpt>
      <trkpt lat="44.49521" lon="1.02178">
        <ele>112.13</ele>
        <time>2015-11-14T14:13:13Z</time>
      </trkpt>
      <trkpt lat="44.49518" lon="1.02178">
        <ele>112.61</ele>
        <time>2015-11-14T14:13:14Z</time>
      </trkpt>
      <trkpt lat="44.49516" lon="1.02187">
        <ele>113.09</ele>
        <time>2015-11-14T14:13:18Z</time>
      </trkpt>
      <trkpt lat="44.49516" lon="1.0219">
        <ele>113.57</ele>
        <time>2015-11-14T14:13:19Z</time>
      </trkpt>
      <trkpt lat="44.49517" lon="1.02193">
        <ele>114.05</ele>
        <time>2015-11-14T14:13:20Z</time>
      </trkpt>
      <trkpt lat="44.49518" lon="1.02196">
        <ele>114.53</ele>
        <time>2015-11-14T14:13:21Z</time>
      </trkpt>
      <trkpt lat="44.49518" lon="1.02199">
        <ele>114.53</ele>
        <time>2015-11-14T14:13:22Z</time>
      </trkpt>
      <trkpt lat="44.49519" lon="1.02201">
        <ele>114.53</ele>
        <time>2015-11-14T14:13:23Z</time>
      </trkpt>
      <trkpt lat="44.4952" lon="1.02203">
        <ele>115.01</ele>
        <time>2015-11-14T14:13:24Z</time>
      </trkpt>
      <trkpt lat="44.4952" lon="1.02206">
        <ele>115.5</ele>
        <time>2015-11-14T14:13:25Z</time>
      </trkpt>
      <trkpt lat="44.49528" lon="1.02244">
        <ele>119.82</ele>
        <time>2015-11-14T14:13:40Z</time>
      </trkpt>
      <trkpt lat="44.49535" lon="1.02278">
        <ele>123.19</ele>
        <time>2015-11-14T14:13:56Z</time>
      </trkpt>
      <trkpt lat="44.49536" lon="1.02284">
        <ele>123.67</ele>
        <time>2015-11-14T14:13:59Z</time>
      </trkpt>
      <trkpt lat="44.49544" lon="1.02324">
        <ele>127.99</ele>
        <time>2015-11-14T14:14:17Z</time>
      </trkpt>
      <trkpt lat="44.49553" lon="1.02362">
        <ele>131.84</ele>
        <time>2015-11-14T14:14:33Z</time>
      </trkpt>
      <trkpt lat="44.49558" lon="1.02401">
        <ele>136.16</ele>
        <time>2015-11-14T14:14:49Z</time>
      </trkpt>
      <trkpt lat="44.49546" lon="1.0243">
        <ele>140.01</ele>
        <time>2015-11-14T14:15:03Z</time>
      </trkpt>
      <trkpt lat="44.4953" lon="1.02464">
        <ele>142.89</ele>
        <time>2015-11-14T14:15:19Z</time>
      </trkpt>
      <trkpt lat="44.49521" lon="1.02486">
        <ele>143.85</ele>
        <time>2015-11-14T14:15:29Z</time>
      </trkpt>
      <trkpt lat="44.49518" lon="1.02495">
        <ele>144.34</ele>
        <time>2015-11-14T14:15:33Z</time>
      </trkpt>
      <trkpt lat="44.49505" lon="1.02528">
        <ele>145.78</ele>
        <time>2015-11-14T14:15:50Z</time>
      </trkpt>
      <trkpt lat="44.49505" lon="1.0253">
        <ele>145.3</ele>
        <time>2015-11-14T14:16:11Z</time>
      </trkpt>
      <trkpt lat="44.49505" lon="1.02531">
        <ele>145.78</ele>
        <time>2015-11-14T14:16:33Z</time>
      </trkpt>
      <trkpt lat="44.49505" lon="1.02531">
        <ele>145.78</ele>
        <time>2015-11-14T14:16:48Z</time>
      </trkpt>
      <trkpt lat="44.49505" lon="1.02531">
        <ele>145.78</ele>
        <time>2015-11-14T14:17:12Z</time>
      </trkpt>
      <trkpt lat="44.49504" lon="1.02532">
        <ele>145.3</ele>
        <time>2015-11-14T14:17:34Z</time>
      </trkpt>
      <trkpt lat="44.49504" lon="1.02532">
        <ele>143.85</ele>
        <time>2015-11-14T14:18:04Z</time>
      </trkpt>
      <trkpt lat="44.49505" lon="1.02533">
        <ele>144.34</ele>
        <time>2015-11-14T14:18:07Z</time>
      </trkpt>
      <trkpt lat="44.49521" lon="1.02546">
        <ele>144.82</ele>
        <time>2015-11-14T14:18:17Z</time>
      </trkpt>
      <trkpt lat="44.49532" lon="1.02553">
        <ele>146.26</ele>
        <time>2015-11-14T14:18:23Z</time>
      </trkpt>
      <trkpt lat="44.49539" lon="1.02558">
        <ele>148.18</ele>
        <time>2015-11-14T14:18:27Z</time>
      </trkpt>
      <trkpt lat="44.49558" lon="1.02574">
        <ele>149.62</ele>
        <time>2015-11-14T14:18:38Z</time>
      </trkpt>
      <trkpt lat="44.49593" lon="1.02581">
        <ele>150.58</ele>
        <time>2015-11-14T14:18:52Z</time>
      </trkpt>
      <trkpt lat="44.49643" lon="1.02586">
        <ele>152.03</ele>
        <time>2015-11-14T14:19:10Z</time>
      </trkpt>
      <trkpt lat="44.49695" lon="1.02583">
        <ele>153.47</ele>
        <time>2015-11-14T14:19:29Z</time>
      </trkpt>
      <trkpt lat="44.4974" lon="1.02573">
        <ele>156.35</ele>
        <time>2015-11-14T14:19:47Z</time>
      </trkpt>
      <trkpt lat="44.49774" lon="1.02562">
        <ele>159.72</ele>
        <time>2015-11-14T14:20:02Z</time>
      </trkpt>
      <trkpt lat="44.498" lon="1.02558">
        <ele>159.72</ele>
        <time>2015-11-14T14:20:14Z</time>
      </trkpt>
      <trkpt lat="44.49828" lon="1.02548">
        <ele>163.08</ele>
        <time>2015-11-14T14:20:28Z</time>
      </trkpt>
      <trkpt lat="44.49859" lon="1.02535">
        <ele>165.96</ele>
        <time>2015-11-14T14:20:45Z</time>
      </trkpt>
      <trkpt lat="44.49876" lon="1.02523">
        <ele>167.41</ele>
        <time>2015-11-14T14:20:56Z</time>
      </trkpt>
      <trkpt lat="44.49886" lon="1.02499">
        <ele>171.25</ele>
        <time>2015-11-14T14:21:09Z</time>
      </trkpt>
      <trkpt lat="44.49902" lon="1.02467">
        <ele>176.54</ele>
        <time>2015-11-14T14:21:24Z</time>
      </trkpt>
      <trkpt lat="44.49922" lon="1.02443">
        <ele>180.38</ele>
        <time>2015-11-14T14:21:37Z</time>
      </trkpt>
      <trkpt lat="44.49941" lon="1.0243">
        <ele>181.35</ele>
        <time>2015-11-14T14:21:49Z</time>
      </trkpt>
      <trkpt lat="44.49944" lon="1.02427">
        <ele>181.35</ele>
        <time>2015-11-14T14:21:51Z</time>
      </trkpt>
      <trkpt lat="44.49977" lon="1.02409">
        <ele>180.38</ele>
        <time>2015-11-14T14:22:07Z</time>
      </trkpt>
      <trkpt lat="44.50003" lon="1.024">
        <ele>179.9</ele>
        <time>2015-11-14T14:22:20Z</time>
      </trkpt>
      <trkpt lat="44.50008" lon="1.024">
        <ele>179.9</ele>
        <time>2015-11-14T14:22:23Z</time>
      </trkpt>
      <trkpt lat="44.50034" lon="1.02396">
        <ele>178.94</ele>
        <time>2015-11-14T14:22:33Z</time>
      </trkpt>
      <trkpt lat="44.50048" lon="1.02394">
        <ele>178.46</ele>
        <time>2015-11-14T14:22:38Z</time>
      </trkpt>
      <trkpt lat="44.5006" lon="1.02396">
        <ele>176.54</ele>
        <time>2015-11-14T14:22:44Z</time>
      </trkpt>
      <trkpt lat="44.50077" lon="1.02393">
        <ele>174.62</ele>
        <time>2015-11-14T14:22:51Z</time>
      </trkpt>
      <trkpt lat="44.50085" lon="1.02391">
        <ele>175.58</ele>
        <time>2015-11-14T14:22:55Z</time>
      </trkpt>
      <trkpt lat="44.501" lon="1.02387">
        <ele>175.58</ele>
        <time>2015-11-14T14:23:01Z</time>
      </trkpt>
      <trkpt lat="44.50111" lon="1.02384">
        <ele>175.1</ele>
        <time>2015-11-14T14:23:05Z</time>
      </trkpt>
      <trkpt lat="44.50164" lon="1.02379">
        <ele>176.54</ele>
        <time>2015-11-14T14:23:18Z</time>
      </trkpt>
      <trkpt lat="44.50207" lon="1.02374">
        <ele>178.94</ele>
        <time>2015-11-14T14:23:29Z</time>
      </trkpt>
      <trkpt lat="44.50254" lon="1.02366">
        <ele>178.94</ele>
        <time>2015-11-14T14:23:43Z</time>
      </trkpt>
      <trkpt lat="44.50295" lon="1.02335">
        <ele>180.38</ele>
        <time>2015-11-14T14:23:58Z</time>
      </trkpt>
      <trkpt lat="44.50317" lon="1.02302">
        <ele>180.87</ele>
        <time>2015-11-14T14:24:11Z</time>
      </trkpt>
      <trkpt lat="44.50327" lon="1.02293">
        <ele>180.87</ele>
        <time>2015-11-14T14:24:23Z</time>
      </trkpt>
      <trkpt lat="44.50328" lon="1.02293">
        <ele>180.87</ele>
        <time>2015-11-14T14:24:39Z</time>
      </trkpt>
      <trkpt lat="44.5034" lon="1.02285">
        <ele>179.42</ele>
        <time>2015-11-14T14:24:50Z</time>
      </trkpt>
      <trkpt lat="44.50349" lon="1.02283">
        <ele>178.94</ele>
        <time>2015-11-14T14:24:52Z</time>
      </trkpt>
      <trkpt lat="44.50422" lon="1.02296">
        <ele>175.58</ele>
        <time>2015-11-14T14:25:06Z</time>
      </trkpt>
      <trkpt lat="44.50447" lon="1.02301">
        <ele>176.54</ele>
        <time>2015-11-14T14:25:15Z</time>
      </trkpt>
      <trkpt lat="44.50482" lon="1.02309">
        <ele>178.46</ele>
        <time>2015-11-14T14:25:27Z</time>
      </trkpt>
      <trkpt lat="44.50525" lon="1.02304">
        <ele>180.87</ele>
        <time>2015-11-14T14:25:42Z</time>
      </trkpt>
      <trkpt lat="44.50542" lon="1.02291">
        <ele>180.87</ele>
        <time>2015-11-14T14:25:48Z</time>
      </trkpt>
      <trkpt lat="44.50544" lon="1.02288">
        <ele>180.87</ele>
        <time>2015-11-14T14:25:49Z</time>
      </trkpt>
      <trkpt lat="44.50583" lon="1.0224">
        <ele>180.87</ele>
        <time>2015-11-14T14:26:04Z</time>
      </trkpt>
      <trkpt lat="44.50633" lon="1.02222">
        <ele>182.31</ele>
        <time>2015-11-14T14:26:17Z</time>
      </trkpt>
      <trkpt lat="44.50664" lon="1.02204">
        <ele>183.27</ele>
        <time>2015-11-14T14:26:28Z</time>
      </trkpt>
      <trkpt lat="44.50666" lon="1.02205">
        <ele>183.27</ele>
        <time>2015-11-14T14:26:29Z</time>
      </trkpt>
      <trkpt lat="44.50669" lon="1.02207">
        <ele>183.27</ele>
        <time>2015-11-14T14:26:30Z</time>
      </trkpt>
      <trkpt lat="44.50672" lon="1.0221">
        <ele>183.27</ele>
        <time>2015-11-14T14:26:31Z</time>
      </trkpt>
      <trkpt lat="44.50674" lon="1.02212">
        <ele>183.27</ele>
        <time>2015-11-14T14:26:32Z</time>
      </trkpt>
      <trkpt lat="44.507" lon="1.02262">
        <ele>184.23</ele>
        <time>2015-11-14T14:26:45Z</time>
      </trkpt>
      <trkpt lat="44.50738" lon="1.02323">
        <ele>184.23</ele>
        <time>2015-11-14T14:27:00Z</time>
      </trkpt>
      <trkpt lat="44.50781" lon="1.02381">
        <ele>185.19</ele>
        <time>2015-11-14T14:27:16Z</time>
      </trkpt>
      <trkpt lat="44.50817" lon="1.02445">
        <ele>189.52</ele>
        <time>2015-11-14T14:27:33Z</time>
      </trkpt>
      <trkpt lat="44.50832" lon="1.02492">
        <ele>193.84</ele>
        <time>2015-11-14T14:27:48Z</time>
      </trkpt>
      <trkpt lat="44.5084" lon="1.02531">
        <ele>196.73</ele>
        <time>2015-11-14T14:28:00Z</time>
      </trkpt>
      <trkpt lat="44.50849" lon="1.02573">
        <ele>200.09</ele>
        <time>2015-11-14T14:28:13Z</time>
      </trkpt>
      <trkpt lat="44.50849" lon="1.02575">
        <ele>200.09</ele>
        <time>2015-11-14T14:28:14Z</time>
      </trkpt>
      <trkpt lat="44.50849" lon="1.02577">
        <ele>200.57</ele>
        <time>2015-11-14T14:28:15Z</time>
      </trkpt>
      <trkpt lat="44.50849" lon="1.02579">
        <ele>200.57</ele>
        <time>2015-11-14T14:28:16Z</time>
      </trkpt>
      <trkpt lat="44.5085" lon="1.0258">
        <ele>200.57</ele>
        <time>2015-11-14T14:28:17Z</time>
      </trkpt>
      <trkpt lat="44.50852" lon="1.02586">
        <ele>201.05</ele>
        <time>2015-11-14T14:28:21Z</time>
      </trkpt>
      <trkpt lat="44.50851" lon="1.02588">
        <ele>201.53</ele>
        <time>2015-11-14T14:28:22Z</time>
      </trkpt>
      <trkpt lat="44.50851" lon="1.0259">
        <ele>201.53</ele>
        <time>2015-11-14T14:28:23Z</time>
      </trkpt>
      <trkpt lat="44.50851" lon="1.02592">
        <ele>202.01</ele>
        <time>2015-11-14T14:28:24Z</time>
      </trkpt>
      <trkpt lat="44.50851" lon="1.02594">
        <ele>202.01</ele>
        <time>2015-11-14T14:28:25Z</time>
      </trkpt>
      <trkpt lat="44.50851" lon="1.02596">
        <ele>202.49</ele>
        <time>2015-11-14T14:28:26Z</time>
      </trkpt>
      <trkpt lat="44.50852" lon="1.02598">
        <ele>202.49</ele>
        <time>2015-11-14T14:28:27Z</time>
      </trkpt>
      <trkpt lat="44.50851" lon="1.02616">
        <ele>203.46</ele>
        <time>2015-11-14T14:28:43Z</time>
      </trkpt>
      <trkpt lat="44.50849" lon="1.02617">
        <ele>200.09</ele>
        <time>2015-11-14T14:29:17Z</time>
      </trkpt>
      <trkpt lat="44.50849" lon="1.02617">
        <ele>200.09</ele>
        <time>2015-11-14T14:29:47Z</time>
      </trkpt>
      <trkpt lat="44.50848" lon="1.02616">
        <ele>200.09</ele>
        <time>2015-11-14T14:30:22Z</time>
      </trkpt>
      <trkpt lat="44.50848" lon="1.02616">
        <ele>200.09</ele>
        <time>2015-11-14T14:30:59Z</time>
      </trkpt>
      <trkpt lat="44.50849" lon="1.02615">
        <ele>200.09</ele>
        <time>2015-11-14T14:31:19Z</time>
      </trkpt>
      <trkpt lat="44.50852" lon="1.02615">
        <ele>200.09</ele>
        <time>2015-11-14T14:31:38Z</time>
      </trkpt>
      <trkpt lat="44.50852" lon="1.02615">
        <ele>200.57</ele>
        <time>2015-11-14T14:32:05Z</time>
      </trkpt>
      <trkpt lat="44.50853" lon="1.02617">
        <ele>201.53</ele>
        <time>2015-11-14T14:32:27Z</time>
      </trkpt>
      <trkpt lat="44.50853" lon="1.02619">
        <ele>201.53</ele>
        <time>2015-11-14T14:32:29Z</time>
      </trkpt>
      <trkpt lat="44.50855" lon="1.0263">
        <ele>202.98</ele>
        <time>2015-11-14T14:32:35Z</time>
      </trkpt>
      <trkpt lat="44.50857" lon="1.02636">
        <ele>203.46</ele>
        <time>2015-11-14T14:32:38Z</time>
      </trkpt>
      <trkpt lat="44.50857" lon="1.02644">
        <ele>203.94</ele>
        <time>2015-11-14T14:32:42Z</time>
      </trkpt>
      <trkpt lat="44.50858" lon="1.02647">
        <ele>204.42</ele>
        <time>2015-11-14T14:32:43Z</time>
      </trkpt>
      <trkpt lat="44.50858" lon="1.0265">
        <ele>204.9</ele>
        <time>2015-11-14T14:32:44Z</time>
      </trkpt>
      <trkpt lat="44.50858" lon="1.02653">
        <ele>204.9</ele>
        <time>2015-11-14T14:32:45Z</time>
      </trkpt>
      <trkpt lat="44.50867" lon="1.02699">
        <ele>206.34</ele>
        <time>2015-11-14T14:32:58Z</time>
      </trkpt>
      <trkpt lat="44.5088" lon="1.02753">
        <ele>206.82</ele>
        <time>2015-11-14T14:33:12Z</time>
      </trkpt>
      <trkpt lat="44.50886" lon="1.02802">
        <ele>210.19</ele>
        <time>2015-11-14T14:33:25Z</time>
      </trkpt>
      <trkpt lat="44.50897" lon="1.02856">
        <ele>216.43</ele>
        <time>2015-11-14T14:33:40Z</time>
      </trkpt>
      <trkpt lat="44.50908" lon="1.02912">
        <ele>219.32</ele>
        <time>2015-11-14T14:33:54Z</time>
      </trkpt>
      <trkpt lat="44.50915" lon="1.02968">
        <ele>222.68</ele>
        <time>2015-11-14T14:34:09Z</time>
      </trkpt>
      <trkpt lat="44.50928" lon="1.03027">
        <ele>222.2</ele>
        <time>2015-11-14T14:34:24Z</time>
      </trkpt>
      <trkpt lat="44.50945" lon="1.03079">
        <ele>224.12</ele>
        <time>2015-11-14T14:34:39Z</time>
      </trkpt>
      <trkpt lat="44.50953" lon="1.03147">
        <ele>225.57</ele>
        <time>2015-11-14T14:34:55Z</time>
      </trkpt>
      <trkpt lat="44.50971" lon="1.03208">
        <ele>225.09</ele>
        <time>2015-11-14T14:35:08Z</time>
      </trkpt>
      <trkpt lat="44.50975" lon="1.0322">
        <ele>224.61</ele>
        <time>2015-11-14T14:35:10Z</time>
      </trkpt>
      <trkpt lat="44.50985" lon="1.03267">
        <ele>222.2</ele>
        <time>2015-11-14T14:35:16Z</time>
      </trkpt>
      <trkpt lat="44.50988" lon="1.03275">
        <ele>221.72</ele>
        <time>2015-11-14T14:35:17Z</time>
      </trkpt>
      <trkpt lat="44.51001" lon="1.03307">
        <ele>220.28</ele>
        <time>2015-11-14T14:35:21Z</time>
      </trkpt>
      <trkpt lat="44.51025" lon="1.0338">
        <ele>214.51</ele>
        <time>2015-11-14T14:35:28Z</time>
      </trkpt>
      <trkpt lat="44.51032" lon="1.03391">
        <ele>213.07</ele>
        <time>2015-11-14T14:35:29Z</time>
      </trkpt>
      <trkpt lat="44.51039" lon="1.034">
        <ele>212.11</ele>
        <time>2015-11-14T14:35:30Z</time>
      </trkpt>
      <trkpt lat="44.51047" lon="1.03409">
        <ele>210.67</ele>
        <time>2015-11-14T14:35:31Z</time>
      </trkpt>
      <trkpt lat="44.51054" lon="1.03416">
        <ele>209.7</ele>
        <time>2015-11-14T14:35:32Z</time>
      </trkpt>
      <trkpt lat="44.51123" lon="1.03491">
        <ele>205.38</ele>
        <time>2015-11-14T14:35:43Z</time>
      </trkpt>
      <trkpt lat="44.51127" lon="1.03498">
        <ele>205.38</ele>
        <time>2015-11-14T14:35:44Z</time>
      </trkpt>
      <trkpt lat="44.51134" lon="1.03512">
        <ele>205.86</ele>
        <time>2015-11-14T14:35:46Z</time>
      </trkpt>
      <trkpt lat="44.51143" lon="1.03527">
        <ele>206.34</ele>
        <time>2015-11-14T14:35:49Z</time>
      </trkpt>
      <trkpt lat="44.51166" lon="1.03568">
        <ele>207.78</ele>
        <time>2015-11-14T14:36:00Z</time>
      </trkpt>
      <trkpt lat="44.51164" lon="1.0357">
        <ele>207.78</ele>
        <time>2015-11-14T14:36:01Z</time>
      </trkpt>
      <trkpt lat="44.51157" lon="1.03578">
        <ele>208.74</ele>
        <time>2015-11-14T14:36:12Z</time>
      </trkpt>
      <trkpt lat="44.51155" lon="1.03578">
        <ele>208.74</ele>
        <time>2015-11-14T14:36:13Z</time>
      </trkpt>
      <trkpt lat="44.51153" lon="1.03577">
        <ele>208.74</ele>
        <time>2015-11-14T14:36:14Z</time>
      </trkpt>
      <trkpt lat="44.51151" lon="1.03577">
        <ele>208.74</ele>
        <time>2015-11-14T14:36:15Z</time>
      </trkpt>
      <trkpt lat="44.51149" lon="1.03577">
        <ele>209.22</ele>
        <time>2015-11-14T14:36:16Z</time>
      </trkpt>
      <trkpt lat="44.51147" lon="1.03577">
        <ele>209.22</ele>
        <time>2015-11-14T14:36:17Z</time>
      </trkpt>
      <trkpt lat="44.51145" lon="1.03577">
        <ele>209.22</ele>
        <time>2015-11-14T14:36:18Z</time>
      </trkpt>
      <trkpt lat="44.51142" lon="1.03577">
        <ele>209.7</ele>
        <time>2015-11-14T14:36:19Z</time>
      </trkpt>
      <trkpt lat="44.5114" lon="1.03576">
        <ele>209.7</ele>
        <time>2015-11-14T14:36:20Z</time>
      </trkpt>
      <trkpt lat="44.51138" lon="1.03573">
        <ele>210.19</ele>
        <time>2015-11-14T14:36:21Z</time>
      </trkpt>
      <trkpt lat="44.51132" lon="1.03562">
        <ele>210.67</ele>
        <time>2015-11-14T14:36:27Z</time>
      </trkpt>
      <trkpt lat="44.51132" lon="1.03561">
        <ele>210.19</ele>
        <time>2015-11-14T14:36:28Z</time>
      </trkpt>
      <trkpt lat="44.51132" lon="1.03561">
        <ele>208.74</ele>
        <time>2015-11-14T14:36:40Z</time>
      </trkpt>
      <trkpt lat="44.51132" lon="1.0356">
        <ele>207.78</ele>
        <time>2015-11-14T14:37:00Z</time>
      </trkpt>
      <trkpt lat="44.51132" lon="1.03561">
        <ele>207.3</ele>
        <time>2015-11-14T14:37:35Z</time>
      </trkpt>
      <trkpt lat="44.51132" lon="1.03561">
        <ele>207.78</ele>
        <time>2015-11-14T14:38:11Z</time>
      </trkpt>
      <trkpt lat="44.51131" lon="1.03562">
        <ele>206.82</ele>
        <time>2015-11-14T14:38:46Z</time>
      </trkpt>
      <trkpt lat="44.51131" lon="1.03561">
        <ele>207.78</ele>
        <time>2015-11-14T14:39:17Z</time>
      </trkpt>
      <trkpt lat="44.51131" lon="1.0356">
        <ele>207.78</ele>
        <time>2015-11-14T14:39:48Z</time>
      </trkpt>
      <trkpt lat="44.5113" lon="1.0356">
        <ele>208.26</ele>
        <time>2015-11-14T14:40:20Z</time>
      </trkpt>
      <trkpt lat="44.5113" lon="1.0356">
        <ele>209.22</ele>
        <time>2015-11-14T14:40:58Z</time>
      </trkpt>
      <trkpt lat="44.5113" lon="1.03559">
        <ele>208.26</ele>
        <time>2015-11-14T14:41:25Z</time>
      </trkpt>
      <trkpt lat="44.5113" lon="1.03558">
        <ele>208.26</ele>
        <time>2015-11-14T14:41:53Z</time>
      </trkpt>
      <trkpt lat="44.5113" lon="1.03559">
        <ele>208.74</ele>
        <time>2015-11-14T14:42:22Z</time>
      </trkpt>
      <trkpt lat="44.51129" lon="1.03558">
        <ele>208.74</ele>
        <time>2015-11-14T14:42:52Z</time>
      </trkpt>
      <trkpt lat="44.51131" lon="1.03559">
        <ele>208.26</ele>
        <time>2015-11-14T14:43:31Z</time>
      </trkpt>
      <trkpt lat="44.51132" lon="1.0356">
        <ele>207.78</ele>
        <time>2015-11-14T14:44:02Z</time>
      </trkpt>
      <trkpt lat="44.51132" lon="1.0356">
        <ele>207.3</ele>
        <time>2015-11-14T14:44:28Z</time>
      </trkpt>
      <trkpt lat="44.51132" lon="1.03559">
        <ele>207.3</ele>
        <time>2015-11-14T14:44:57Z</time>
      </trkpt>
      <trkpt lat="44.51132" lon="1.0356">
        <ele>206.82</ele>
        <time>2015-11-14T14:45:29Z</time>
      </trkpt>
      <trkpt lat="44.51133" lon="1.0356">
        <ele>207.3</ele>
        <time>2015-11-14T14:45:55Z</time>
      </trkpt>
      <trkpt lat="44.51133" lon="1.0356">
        <ele>208.74</ele>
        <time>2015-11-14T14:46:23Z</time>
      </trkpt>
      <trkpt lat="44.51133" lon="1.03559">
        <ele>209.7</ele>
        <time>2015-11-14T14:46:48Z</time>
      </trkpt>
      <trkpt lat="44.51132" lon="1.03559">
        <ele>209.7</ele>
        <time>2015-11-14T14:47:16Z</time>
      </trkpt>
      <trkpt lat="44.51132" lon="1.0356">
        <ele>210.67</ele>
        <time>2015-11-14T14:47:53Z</time>
      </trkpt>
      <trkpt lat="44.51132" lon="1.0356">
        <ele>210.67</ele>
        <time>2015-11-14T14:48:02Z</time>
      </trkpt>
      <trkpt lat="44.5113" lon="1.03563">
        <ele>211.15</ele>
        <time>2015-11-14T14:48:11Z</time>
      </trkpt>
      <trkpt lat="44.5113" lon="1.03565">
        <ele>211.15</ele>
        <time>2015-11-14T14:48:12Z</time>
      </trkpt>
      <trkpt lat="44.51131" lon="1.03566">
        <ele>211.15</ele>
        <time>2015-11-14T14:48:13Z</time>
      </trkpt>
      <trkpt lat="44.51153" lon="1.03583">
        <ele>212.59</ele>
        <time>2015-11-14T14:48:25Z</time>
      </trkpt>
      <trkpt lat="44.51167" lon="1.03602">
        <ele>214.51</ele>
        <time>2015-11-14T14:48:34Z</time>
      </trkpt>
      <trkpt lat="44.51169" lon="1.03601">
        <ele>214.51</ele>
        <time>2015-11-14T14:48:35Z</time>
      </trkpt>
      <trkpt lat="44.51176" lon="1.03601">
        <ele>214.99</ele>
        <time>2015-11-14T14:48:38Z</time>
      </trkpt>
      <trkpt lat="44.51178" lon="1.03604">
        <ele>214.99</ele>
        <time>2015-11-14T14:48:39Z</time>
      </trkpt>
      <trkpt lat="44.51179" lon="1.03607">
        <ele>214.99</ele>
        <time>2015-11-14T14:48:40Z</time>
      </trkpt>
      <trkpt lat="44.5118" lon="1.03611">
        <ele>214.99</ele>
        <time>2015-11-14T14:48:41Z</time>
      </trkpt>
      <trkpt lat="44.51181" lon="1.03614">
        <ele>214.99</ele>
        <time>2015-11-14T14:48:42Z</time>
      </trkpt>
      <trkpt lat="44.51181" lon="1.03618">
        <ele>214.51</ele>
        <time>2015-11-14T14:48:43Z</time>
      </trkpt>
      <trkpt lat="44.51182" lon="1.03622">
        <ele>214.51</ele>
        <time>2015-11-14T14:48:44Z</time>
      </trkpt>
      <trkpt lat="44.51181" lon="1.03684">
        <ele>213.07</ele>
        <time>2015-11-14T14:48:58Z</time>
      </trkpt>
      <trkpt lat="44.51177" lon="1.03749">
        <ele>214.03</ele>
        <time>2015-11-14T14:49:13Z</time>
      </trkpt>
      <trkpt lat="44.51155" lon="1.03797">
        <ele>215.47</ele>
        <time>2015-11-14T14:49:26Z</time>
      </trkpt>
      <trkpt lat="44.51141" lon="1.0384">
        <ele>215.95</ele>
        <time>2015-11-14T14:49:38Z</time>
      </trkpt>
      <trkpt lat="44.51111" lon="1.03927">
        <ele>211.63</ele>
        <time>2015-11-14T14:49:50Z</time>
      </trkpt>
      <trkpt lat="44.51106" lon="1.03961">
        <ele>211.15</ele>
        <time>2015-11-14T14:49:54Z</time>
      </trkpt>
      <trkpt lat="44.5111" lon="1.04063">
        <ele>210.19</ele>
        <time>2015-11-14T14:50:10Z</time>
      </trkpt>
      <trkpt lat="44.51115" lon="1.04084">
        <ele>210.19</ele>
        <time>2015-11-14T14:50:20Z</time>
      </trkpt>
      <trkpt lat="44.51115" lon="1.04083">
        <ele>210.67</ele>
        <time>2015-11-14T14:50:53Z</time>
      </trkpt>
      <trkpt lat="44.51115" lon="1.04083">
        <ele>209.22</ele>
        <time>2015-11-14T14:51:29Z</time>
      </trkpt>
      <trkpt lat="44.51115" lon="1.04084">
        <ele>208.26</ele>
        <time>2015-11-14T14:52:03Z</time>
      </trkpt>
      <trkpt lat="44.51115" lon="1.04084">
        <ele>208.74</ele>
        <time>2015-11-14T14:52:06Z</time>
      </trkpt>
      <trkpt lat="44.51116" lon="1.04085">
        <ele>208.74</ele>
        <time>2015-11-14T14:52:07Z</time>
      </trkpt>
      <trkpt lat="44.51118" lon="1.04086">
        <ele>209.22</ele>
        <time>2015-11-14T14:52:08Z</time>
      </trkpt>
      <trkpt lat="44.51153" lon="1.04085">
        <ele>208.26</ele>
        <time>2015-11-14T14:52:22Z</time>
      </trkpt>
      <trkpt lat="44.51161" lon="1.04084">
        <ele>207.78</ele>
        <time>2015-11-14T14:52:25Z</time>
      </trkpt>
      <trkpt lat="44.51167" lon="1.04093">
        <ele>208.74</ele>
        <time>2015-11-14T14:52:30Z</time>
      </trkpt>
      <trkpt lat="44.51171" lon="1.04096">
        <ele>208.74</ele>
        <time>2015-11-14T14:52:34Z</time>
      </trkpt>
      <trkpt lat="44.51194" lon="1.04072">
        <ele>204.42</ele>
        <time>2015-11-14T14:52:44Z</time>
      </trkpt>
      <trkpt lat="44.51212" lon="1.04062">
        <ele>201.53</ele>
        <time>2015-11-14T14:52:54Z</time>
      </trkpt>
      <trkpt lat="44.51213" lon="1.04061">
        <ele>201.53</ele>
        <time>2015-11-14T14:52:57Z</time>
      </trkpt>
      <trkpt lat="44.51225" lon="1.04051">
        <ele>201.53</ele>
        <time>2015-11-14T14:53:04Z</time>
      </trkpt>
      <trkpt lat="44.51262" lon="1.04023">
        <ele>202.01</ele>
        <time>2015-11-14T14:53:18Z</time>
      </trkpt>
      <trkpt lat="44.51284" lon="1.04008">
        <ele>200.09</ele>
        <time>2015-11-14T14:53:28Z</time>
      </trkpt>
      <trkpt lat="44.51285" lon="1.03998">
        <ele>199.13</ele>
        <time>2015-11-14T14:53:32Z</time>
      </trkpt>
      <trkpt lat="44.51274" lon="1.03956">
        <ele>197.21</ele>
        <time>2015-11-14T14:53:48Z</time>
      </trkpt>
      <trkpt lat="44.51274" lon="1.03955">
        <ele>197.21</ele>
        <time>2015-11-14T14:53:54Z</time>
      </trkpt>
      <trkpt lat="44.51278" lon="1.03951">
        <ele>195.77</ele>
        <time>2015-11-14T14:54:04Z</time>
      </trkpt>
      <trkpt lat="44.51281" lon="1.03951">
        <ele>195.77</ele>
        <time>2015-11-14T14:54:15Z</time>
      </trkpt>
      <trkpt lat="44.51287" lon="1.03954">
        <ele>196.25</ele>
        <time>2015-11-14T14:54:21Z</time>
      </trkpt>
      <trkpt lat="44.51289" lon="1.03955">
        <ele>196.25</ele>
        <time>2015-11-14T14:54:23Z</time>
      </trkpt>
      <trkpt lat="44.51298" lon="1.03961">
        <ele>197.69</ele>
        <time>2015-11-14T14:54:35Z</time>
      </trkpt>
      <trkpt lat="44.51304" lon="1.03968">
        <ele>198.65</ele>
        <time>2015-11-14T14:54:40Z</time>
      </trkpt>
      <trkpt lat="44.51312" lon="1.03984">
        <ele>202.01</ele>
        <time>2015-11-14T14:54:52Z</time>
      </trkpt>
      <trkpt lat="44.51313" lon="1.0399">
        <ele>202.49</ele>
        <time>2015-11-14T14:55:08Z</time>
      </trkpt>
      <trkpt lat="44.51313" lon="1.0399">
        <ele>201.05</ele>
        <time>2015-11-14T14:55:32Z</time>
      </trkpt>
      <trkpt lat="44.51314" lon="1.03988">
        <ele>200.57</ele>
        <time>2015-11-14T14:55:48Z</time>
      </trkpt>
      <trkpt lat="44.51314" lon="1.03988">
        <ele>200.57</ele>
        <time>2015-11-14T14:56:14Z</time>
      </trkpt>
      <trkpt lat="44.51314" lon="1.03988">
        <ele>200.57</ele>
        <time>2015-11-14T14:56:42Z</time>
      </trkpt>
      <trkpt lat="44.51315" lon="1.03988">
        <ele>200.09</ele>
        <time>2015-11-14T14:57:01Z</time>
      </trkpt>
      <trkpt lat="44.51315" lon="1.03988">
        <ele>199.61</ele>
        <time>2015-11-14T14:57:21Z</time>
      </trkpt>
      <trkpt lat="44.51315" lon="1.0399">
        <ele>199.13</ele>
        <time>2015-11-14T14:57:50Z</time>
      </trkpt>
      <trkpt lat="44.51316" lon="1.03992">
        <ele>199.13</ele>
        <time>2015-11-14T14:57:56Z</time>
      </trkpt>
      <trkpt lat="44.51314" lon="1.04009">
        <ele>199.61</ele>
        <time>2015-11-14T14:58:02Z</time>
      </trkpt>
      <trkpt lat="44.51306" lon="1.04048">
        <ele>203.46</ele>
        <time>2015-11-14T14:58:14Z</time>
      </trkpt>
      <trkpt lat="44.51303" lon="1.04058">
        <ele>204.9</ele>
        <time>2015-11-14T14:58:18Z</time>
      </trkpt>
      <trkpt lat="44.5129" lon="1.04092">
        <ele>209.22</ele>
        <time>2015-11-14T14:58:32Z</time>
      </trkpt>
      <trkpt lat="44.51288" lon="1.04119">
        <ele>211.63</ele>
        <time>2015-11-14T14:58:44Z</time>
      </trkpt>
      <trkpt lat="44.5129" lon="1.04129">
        <ele>211.63</ele>
        <time>2015-11-14T14:58:47Z</time>
      </trkpt>
      <trkpt lat="44.51301" lon="1.04145">
        <ele>209.22</ele>
        <time>2015-11-14T14:58:57Z</time>
      </trkpt>
      <trkpt lat="44.51322" lon="1.04167">
        <ele>210.19</ele>
        <time>2015-11-14T14:59:08Z</time>
      </trkpt>
      <trkpt lat="44.51335" lon="1.04199">
        <ele>208.74</ele>
        <time>2015-11-14T14:59:18Z</time>
      </trkpt>
      <trkpt lat="44.51349" lon="1.0423">
        <ele>211.15</ele>
        <time>2015-11-14T14:59:31Z</time>
      </trkpt>
      <trkpt lat="44.51351" lon="1.04242">
        <ele>210.19</ele>
        <time>2015-11-14T14:59:44Z</time>
      </trkpt>
      <trkpt lat="44.51354" lon="1.0425">
        <ele>211.15</ele>
        <time>2015-11-14T14:59:48Z</time>
      </trkpt>
      <trkpt lat="44.51355" lon="1.04275">
        <ele>213.07</ele>
        <time>2015-11-14T15:00:01Z</time>
      </trkpt>
      <trkpt lat="44.51355" lon="1.04278">
        <ele>210.19</ele>
        <time>2015-11-14T15:00:11Z</time>
      </trkpt>
      <trkpt lat="44.51356" lon="1.0428">
        <ele>209.7</ele>
        <time>2015-11-14T15:00:43Z</time>
      </trkpt>
      <trkpt lat="44.51357" lon="1.04281">
        <ele>210.67</ele>
        <time>2015-11-14T15:01:06Z</time>
      </trkpt>
      <trkpt lat="44.51358" lon="1.0428">
        <ele>210.19</ele>
        <time>2015-11-14T15:01:32Z</time>
      </trkpt>
      <trkpt lat="44.51357" lon="1.0428">
        <ele>209.7</ele>
        <time>2015-11-14T15:02:07Z</time>
      </trkpt>
      <trkpt lat="44.51356" lon="1.04282">
        <ele>208.74</ele>
        <time>2015-11-14T15:02:37Z</time>
      </trkpt>
      <trkpt lat="44.51354" lon="1.04283">
        <ele>207.78</ele>
        <time>2015-11-14T15:03:19Z</time>
      </trkpt>
      <trkpt lat="44.51354" lon="1.04283">
        <ele>207.3</ele>
        <time>2015-11-14T15:03:46Z</time>
      </trkpt>
      <trkpt lat="44.51353" lon="1.04283">
        <ele>207.3</ele>
        <time>2015-11-14T15:04:15Z</time>
      </trkpt>
      <trkpt lat="44.51354" lon="1.04285">
        <ele>206.82</ele>
        <time>2015-11-14T15:04:44Z</time>
      </trkpt>
      <trkpt lat="44.51354" lon="1.04284">
        <ele>206.34</ele>
        <time>2015-11-14T15:05:10Z</time>
      </trkpt>
      <trkpt lat="44.51355" lon="1.04279">
        <ele>205.38</ele>
        <time>2015-11-14T15:05:51Z</time>
      </trkpt>
      <trkpt lat="44.51354" lon="1.04277">
        <ele>205.38</ele>
        <time>2015-11-14T15:06:19Z</time>
      </trkpt>
      <trkpt lat="44.51355" lon="1.04273">
        <ele>205.38</ele>
        <time>2015-11-14T15:06:27Z</time>
      </trkpt>
      <trkpt lat="44.51356" lon="1.04268">
        <ele>204.9</ele>
        <time>2015-11-14T15:06:35Z</time>
      </trkpt>
      <trkpt lat="44.51358" lon="1.04264">
        <ele>204.42</ele>
        <time>2015-11-14T15:06:39Z</time>
      </trkpt>
      <trkpt lat="44.5136" lon="1.04266">
        <ele>202.98</ele>
        <time>2015-11-14T15:06:52Z</time>
      </trkpt>
      <trkpt lat="44.5136" lon="1.04266">
        <ele>202.49</ele>
        <time>2015-11-14T15:07:15Z</time>
      </trkpt>
      <trkpt lat="44.5136" lon="1.04266">
        <ele>202.49</ele>
        <time>2015-11-14T15:07:21Z</time>
      </trkpt>
      <trkpt lat="44.51362" lon="1.04276">
        <ele>201.05</ele>
        <time>2015-11-14T15:07:27Z</time>
      </trkpt>
      <trkpt lat="44.51367" lon="1.04292">
        <ele>201.53</ele>
        <time>2015-11-14T15:07:39Z</time>
      </trkpt>
      <trkpt lat="44.51371" lon="1.04305">
        <ele>200.57</ele>
        <time>2015-11-14T15:07:51Z</time>
      </trkpt>
      <trkpt lat="44.51372" lon="1.04307">
        <ele>200.57</ele>
        <time>2015-11-14T15:07:53Z</time>
      </trkpt>
      <trkpt lat="44.51374" lon="1.04312">
        <ele>200.09</ele>
        <time>2015-11-14T15:07:57Z</time>
      </trkpt>
      <trkpt lat="44.51375" lon="1.04327">
        <ele>199.13</ele>
        <time>2015-11-14T15:08:05Z</time>
      </trkpt>
      <trkpt lat="44.51376" lon="1.04335">
        <ele>200.57</ele>
        <time>2015-11-14T15:08:19Z</time>
      </trkpt>
      <trkpt lat="44.51376" lon="1.04336">
        <ele>200.09</ele>
        <time>2015-11-14T15:08:31Z</time>
      </trkpt>
      <trkpt lat="44.5138" lon="1.04336">
        <ele>199.61</ele>
        <time>2015-11-14T15:08:35Z</time>
      </trkpt>
      <trkpt lat="44.51385" lon="1.04336">
        <ele>198.17</ele>
        <time>2015-11-14T15:08:39Z</time>
      </trkpt>
      <trkpt lat="44.51408" lon="1.04338">
        <ele>194.32</ele>
        <time>2015-11-14T15:08:49Z</time>
      </trkpt>
      <trkpt lat="44.51447" lon="1.04348">
        <ele>188.56</ele>
        <time>2015-11-14T15:09:01Z</time>
      </trkpt>
      <trkpt lat="44.51463" lon="1.0435">
        <ele>185.67</ele>
        <time>2015-11-14T15:09:05Z</time>
      </trkpt>
      <trkpt lat="44.51499" lon="1.04356">
        <ele>180.87</ele>
        <time>2015-11-14T15:09:18Z</time>
      </trkpt>
      <trkpt lat="44.51499" lon="1.04356">
        <ele>179.9</ele>
        <time>2015-11-14T15:09:21Z</time>
      </trkpt>
      <trkpt lat="44.51501" lon="1.04354">
        <ele>179.42</ele>
        <time>2015-11-14T15:09:23Z</time>
      </trkpt>
      <trkpt lat="44.51505" lon="1.04353">
        <ele>179.42</ele>
        <time>2015-11-14T15:09:37Z</time>
      </trkpt>
      <trkpt lat="44.5151" lon="1.04355">
        <ele>178.94</ele>
        <time>2015-11-14T15:09:42Z</time>
      </trkpt>
      <trkpt lat="44.51523" lon="1.04354">
        <ele>178.46</ele>
        <time>2015-11-14T15:09:48Z</time>
      </trkpt>
      <trkpt lat="44.51532" lon="1.0434">
        <ele>178.94</ele>
        <time>2015-11-14T15:09:59Z</time>
      </trkpt>
      <trkpt lat="44.51539" lon="1.04337">
        <ele>179.42</ele>
        <time>2015-11-14T15:10:11Z</time>
      </trkpt>
      <trkpt lat="44.51541" lon="1.04336">
        <ele>179.42</ele>
        <time>2015-11-14T15:10:26Z</time>
      </trkpt>
      <trkpt lat="44.51541" lon="1.04338">
        <ele>178.94</ele>
        <time>2015-11-14T15:10:41Z</time>
      </trkpt>
      <trkpt lat="44.51542" lon="1.04337">
        <ele>178.94</ele>
        <time>2015-11-14T15:10:55Z</time>
      </trkpt>
      <trkpt lat="44.51544" lon="1.04337">
        <ele>178.46</ele>
        <time>2015-11-14T15:11:18Z</time>
      </trkpt>
      <trkpt lat="44.51546" lon="1.04336">
        <ele>177.98</ele>
        <time>2015-11-14T15:11:21Z</time>
      </trkpt>
      <trkpt lat="44.51548" lon="1.04331">
        <ele>177.98</ele>
        <time>2015-11-14T15:11:24Z</time>
      </trkpt>
      <trkpt lat="44.51547" lon="1.04321">
        <ele>178.94</ele>
        <time>2015-11-14T15:11:28Z</time>
      </trkpt>
      <trkpt lat="44.51544" lon="1.04313">
        <ele>179.42</ele>
        <time>2015-11-14T15:11:32Z</time>
      </trkpt>
      <trkpt lat="44.51545" lon="1.04304">
        <ele>178.94</ele>
        <time>2015-11-14T15:11:44Z</time>
      </trkpt>
      <trkpt lat="44.51545" lon="1.04301">
        <ele>177.98</ele>
        <time>2015-11-14T15:12:00Z</time>
      </trkpt>
      <trkpt lat="44.51547" lon="1.04299">
        <ele>177.5</ele>
        <time>2015-11-14T15:12:03Z</time>
      </trkpt>
      <trkpt lat="44.51555" lon="1.043">
        <ele>174.14</ele>
        <time>2015-11-14T15:12:18Z</time>
      </trkpt>
      <trkpt lat="44.51552" lon="1.04295">
        <ele>174.62</ele>
        <time>2015-11-14T15:12:29Z</time>
      </trkpt>
      <trkpt lat="44.51547" lon="1.04288">
        <ele>176.06</ele>
        <time>2015-11-14T15:12:37Z</time>
      </trkpt>
      <trkpt lat="44.51542" lon="1.04276">
        <ele>177.02</ele>
        <time>2015-11-14T15:12:51Z</time>
      </trkpt>
      <trkpt lat="44.51541" lon="1.04273">
        <ele>177.02</ele>
        <time>2015-11-14T15:13:10Z</time>
      </trkpt>
      <trkpt lat="44.51538" lon="1.04271">
        <ele>176.06</ele>
        <time>2015-11-14T15:13:27Z</time>
      </trkpt>
      <trkpt lat="44.51536" lon="1.04268">
        <ele>176.06</ele>
        <time>2015-11-14T15:13:42Z</time>
      </trkpt>
      <trkpt lat="44.51532" lon="1.04266">
        <ele>176.54</ele>
        <time>2015-11-14T15:13:53Z</time>
      </trkpt>
      <trkpt lat="44.51527" lon="1.04262">
        <ele>177.5</ele>
        <time>2015-11-14T15:14:07Z</time>
      </trkpt>
      <trkpt lat="44.51524" lon="1.04262">
        <ele>177.98</ele>
        <time>2015-11-14T15:14:19Z</time>
      </trkpt>
      <trkpt lat="44.5152" lon="1.04263">
        <ele>178.46</ele>
        <time>2015-11-14T15:14:24Z</time>
      </trkpt>
      <trkpt lat="44.51514" lon="1.04253">
        <ele>179.42</ele>
        <time>2015-11-14T15:14:29Z</time>
      </trkpt>
      <trkpt lat="44.51508" lon="1.04243">
        <ele>179.9</ele>
        <time>2015-11-14T15:14:35Z</time>
      </trkpt>
      <trkpt lat="44.51508" lon="1.04233">
        <ele>178.94</ele>
        <time>2015-11-14T15:14:40Z</time>
      </trkpt>
      <trkpt lat="44.5151" lon="1.04227">
        <ele>179.9</ele>
        <time>2015-11-14T15:14:44Z</time>
      </trkpt>
      <trkpt lat="44.5151" lon="1.04214">
        <ele>180.87</ele>
        <time>2015-11-14T15:14:50Z</time>
      </trkpt>
      <trkpt lat="44.51525" lon="1.04194">
        <ele>176.06</ele>
        <time>2015-11-14T15:15:00Z</time>
      </trkpt>
      <trkpt lat="44.51526" lon="1.0419">
        <ele>175.1</ele>
        <time>2015-11-14T15:15:09Z</time>
      </trkpt>
      <trkpt lat="44.51527" lon="1.04181">
        <ele>171.73</ele>
        <time>2015-11-14T15:15:26Z</time>
      </trkpt>
      <trkpt lat="44.51531" lon="1.04173">
        <ele>168.37</ele>
        <time>2015-11-14T15:15:38Z</time>
      </trkpt>
      <trkpt lat="44.51532" lon="1.04167">
        <ele>166.93</ele>
        <time>2015-11-14T15:15:42Z</time>
      </trkpt>
      <trkpt lat="44.51535" lon="1.04156">
        <ele>163.56</ele>
        <time>2015-11-14T15:15:47Z</time>
      </trkpt>
      <trkpt lat="44.51536" lon="1.04142">
        <ele>160.2</ele>
        <time>2015-11-14T15:15:59Z</time>
      </trkpt>
      <trkpt lat="44.51534" lon="1.04143">
        <ele>155.87</ele>
        <time>2015-11-14T15:16:12Z</time>
      </trkpt>
      <trkpt lat="44.51534" lon="1.04141">
        <ele>154.91</ele>
        <time>2015-11-14T15:16:27Z</time>
      </trkpt>
      <trkpt lat="44.51513" lon="1.04124">
        <ele>158.75</ele>
        <time>2015-11-14T15:16:38Z</time>
      </trkpt>
      <trkpt lat="44.51479" lon="1.041">
        <ele>158.75</ele>
        <time>2015-11-14T15:16:53Z</time>
      </trkpt>
      <trkpt lat="44.51461" lon="1.04088">
        <ele>157.79</ele>
        <time>2015-11-14T15:17:04Z</time>
      </trkpt>
      <trkpt lat="44.51458" lon="1.04082">
        <ele>158.27</ele>
        <time>2015-11-14T15:17:17Z</time>
      </trkpt>
      <trkpt lat="44.51456" lon="1.04081">
        <ele>158.75</ele>
        <time>2015-11-14T15:17:19Z</time>
      </trkpt>
      <trkpt lat="44.51455" lon="1.0408">
        <ele>159.24</ele>
        <time>2015-11-14T15:17:20Z</time>
      </trkpt>
      <trkpt lat="44.51454" lon="1.04077">
        <ele>158.75</ele>
        <time>2015-11-14T15:17:21Z</time>
      </trkpt>
      <trkpt lat="44.51453" lon="1.04075">
        <ele>158.75</ele>
        <time>2015-11-14T15:17:22Z</time>
      </trkpt>
      <trkpt lat="44.51452" lon="1.04072">
        <ele>158.75</ele>
        <time>2015-11-14T15:17:23Z</time>
      </trkpt>
      <trkpt lat="44.51456" lon="1.04041">
        <ele>158.75</ele>
        <time>2015-11-14T15:17:34Z</time>
      </trkpt>
      <trkpt lat="44.51473" lon="1.04022">
        <ele>164.52</ele>
        <time>2015-11-14T15:17:45Z</time>
      </trkpt>
      <trkpt lat="44.51477" lon="1.04016">
        <ele>165.96</ele>
        <time>2015-11-14T15:17:49Z</time>
      </trkpt>
      <trkpt lat="44.51481" lon="1.0401">
        <ele>167.89</ele>
        <time>2015-11-14T15:17:52Z</time>
      </trkpt>
      <trkpt lat="44.51482" lon="1.04007">
        <ele>167.89</ele>
        <time>2015-11-14T15:17:53Z</time>
      </trkpt>
      <trkpt lat="44.51483" lon="1.04005">
        <ele>167.89</ele>
        <time>2015-11-14T15:17:54Z</time>
      </trkpt>
      <trkpt lat="44.51483" lon="1.04003">
        <ele>167.89</ele>
        <time>2015-11-14T15:17:55Z</time>
      </trkpt>
      <trkpt lat="44.51484" lon="1.04">
        <ele>167.89</ele>
        <time>2015-11-14T15:17:56Z</time>
      </trkpt>
      <trkpt lat="44.51486" lon="1.03997">
        <ele>167.89</ele>
        <time>2015-11-14T15:17:57Z</time>
      </trkpt>
      <trkpt lat="44.51487" lon="1.03994">
        <ele>167.41</ele>
        <time>2015-11-14T15:17:58Z</time>
      </trkpt>
      <trkpt lat="44.51488" lon="1.03991">
        <ele>167.41</ele>
        <time>2015-11-14T15:17:59Z</time>
      </trkpt>
      <trkpt lat="44.51489" lon="1.03989">
        <ele>167.41</ele>
        <time>2015-11-14T15:18:00Z</time>
      </trkpt>
      <trkpt lat="44.51497" lon="1.03966">
        <ele>167.89</ele>
        <time>2015-11-14T15:18:09Z</time>
      </trkpt>
      <trkpt lat="44.51506" lon="1.03938">
        <ele>171.25</ele>
        <time>2015-11-14T15:18:19Z</time>
      </trkpt>
      <trkpt lat="44.51516" lon="1.03905">
        <ele>176.54</ele>
        <time>2015-11-14T15:18:30Z</time>
      </trkpt>
      <trkpt lat="44.51523" lon="1.03889">
        <ele>173.66</ele>
        <time>2015-11-14T15:18:43Z</time>
      </trkpt>
      <trkpt lat="44.51524" lon="1.03887">
        <ele>169.33</ele>
        <time>2015-11-14T15:19:05Z</time>
      </trkpt>
      <trkpt lat="44.51524" lon="1.03888">
        <ele>166.93</ele>
        <time>2015-11-14T15:19:25Z</time>
      </trkpt>
      <trkpt lat="44.51526" lon="1.03889">
        <ele>166.45</ele>
        <time>2015-11-14T15:19:28Z</time>
      </trkpt>
      <trkpt lat="44.51526" lon="1.03889">
        <ele>165.96</ele>
        <time>2015-11-14T15:19:29Z</time>
      </trkpt>
      <trkpt lat="44.5156" lon="1.03874">
        <ele>163.08</ele>
        <time>2015-11-14T15:19:39Z</time>
      </trkpt>
      <trkpt lat="44.51578" lon="1.03866">
        <ele>162.12</ele>
        <time>2015-11-14T15:19:42Z</time>
      </trkpt>
      <trkpt lat="44.51653" lon="1.03844">
        <ele>154.43</ele>
        <time>2015-11-14T15:19:53Z</time>
      </trkpt>
      <trkpt lat="44.51686" lon="1.0384">
        <ele>148.66</ele>
        <time>2015-11-14T15:19:58Z</time>
      </trkpt>
      <trkpt lat="44.51771" lon="1.03866">
        <ele>136.16</ele>
        <time>2015-11-14T15:20:10Z</time>
      </trkpt>
      <trkpt lat="44.51861" lon="1.0388">
        <ele>128.47</ele>
        <time>2015-11-14T15:20:22Z</time>
      </trkpt>
      <trkpt lat="44.51892" lon="1.03886">
        <ele>125.59</ele>
        <time>2015-11-14T15:20:26Z</time>
      </trkpt>
      <trkpt lat="44.51962" lon="1.03936">
        <ele>114.05</ele>
        <time>2015-11-14T15:20:37Z</time>
      </trkpt>
      <trkpt lat="44.51998" lon="1.03961">
        <ele>107.32</ele>
        <time>2015-11-14T15:20:43Z</time>
      </trkpt>
      <trkpt lat="44.52001" lon="1.03963">
        <ele>106.84</ele>
        <time>2015-11-14T15:20:44Z</time>
      </trkpt>
      <trkpt lat="44.52005" lon="1.03964">
        <ele>104.44</ele>
        <time>2015-11-14T15:20:53Z</time>
      </trkpt>
      <trkpt lat="44.52007" lon="1.03963">
        <ele>103.96</ele>
        <time>2015-11-14T15:21:09Z</time>
      </trkpt>
      <trkpt lat="44.52007" lon="1.03961">
        <ele>103</ele>
        <time>2015-11-14T15:21:26Z</time>
      </trkpt>
      <trkpt lat="44.52006" lon="1.03962">
        <ele>102.04</ele>
        <time>2015-11-14T15:21:45Z</time>
      </trkpt>
      <trkpt lat="44.52005" lon="1.03963">
        <ele>102.04</ele>
        <time>2015-11-14T15:22:17Z</time>
      </trkpt>
      <trkpt lat="44.52004" lon="1.03963">
        <ele>101.56</ele>
        <time>2015-11-14T15:22:45Z</time>
      </trkpt>
      <trkpt lat="44.52002" lon="1.03964">
        <ele>101.08</ele>
        <time>2015-11-14T15:23:27Z</time>
      </trkpt>
      <trkpt lat="44.52003" lon="1.03965">
        <ele>101.56</ele>
        <time>2015-11-14T15:23:53Z</time>
      </trkpt>
      <trkpt lat="44.52003" lon="1.03965">
        <ele>102.52</ele>
        <time>2015-11-14T15:24:22Z</time>
      </trkpt>
      <trkpt lat="44.52003" lon="1.03965">
        <ele>103.96</ele>
        <time>2015-11-14T15:24:54Z</time>
      </trkpt>
      <trkpt lat="44.52004" lon="1.03965">
        <ele>104.44</ele>
        <time>2015-11-14T15:25:25Z</time>
      </trkpt>
      <trkpt lat="44.52006" lon="1.03965">
        <ele>105.4</ele>
        <time>2015-11-14T15:26:03Z</time>
      </trkpt>
      <trkpt lat="44.52007" lon="1.03963">
        <ele>105.88</ele>
        <time>2015-11-14T15:26:41Z</time>
      </trkpt>
      <trkpt lat="44.52005" lon="1.03964">
        <ele>107.81</ele>
        <time>2015-11-14T15:27:21Z</time>
      </trkpt>
      <trkpt lat="44.52006" lon="1.03964">
        <ele>107.32</ele>
        <time>2015-11-14T15:27:43Z</time>
      </trkpt>
      <trkpt lat="44.52007" lon="1.03966">
        <ele>107.81</ele>
        <time>2015-11-14T15:28:14Z</time>
      </trkpt>
      <trkpt lat="44.52006" lon="1.03965">
        <ele>107.81</ele>
        <time>2015-11-14T15:28:36Z</time>
      </trkpt>
      <trkpt lat="44.52007" lon="1.03964">
        <ele>106.36</ele>
        <time>2015-11-14T15:28:56Z</time>
      </trkpt>
      <trkpt lat="44.52007" lon="1.03962">
        <ele>105.88</ele>
        <time>2015-11-14T15:29:09Z</time>
      </trkpt>
      <trkpt lat="44.52006" lon="1.0396">
        <ele>105.4</ele>
        <time>2015-11-14T15:29:32Z</time>
      </trkpt>
      <trkpt lat="44.52006" lon="1.03959">
        <ele>104.92</ele>
        <time>2015-11-14T15:29:50Z</time>
      </trkpt>
      <trkpt lat="44.52005" lon="1.03952">
        <ele>104.44</ele>
        <time>2015-11-14T15:29:53Z</time>
      </trkpt>
      <trkpt lat="44.52004" lon="1.03948">
        <ele>104.44</ele>
        <time>2015-11-14T15:29:54Z</time>
      </trkpt>
      <trkpt lat="44.52002" lon="1.03945">
        <ele>104.44</ele>
        <time>2015-11-14T15:29:55Z</time>
      </trkpt>
      <trkpt lat="44.51993" lon="1.03924">
        <ele>104.44</ele>
        <time>2015-11-14T15:30:00Z</time>
      </trkpt>
      <trkpt lat="44.51958" lon="1.03852">
        <ele>103</ele>
        <time>2015-11-14T15:30:12Z</time>
      </trkpt>
      <trkpt lat="44.51955" lon="1.03845">
        <ele>102.52</ele>
        <time>2015-11-14T15:30:13Z</time>
      </trkpt>
      <trkpt lat="44.51921" lon="1.03759">
        <ele>101.08</ele>
        <time>2015-11-14T15:30:28Z</time>
      </trkpt>
      <trkpt lat="44.51914" lon="1.0373">
        <ele>100.6</ele>
        <time>2015-11-14T15:30:33Z</time>
      </trkpt>
      <trkpt lat="44.51893" lon="1.03631">
        <ele>98.19</ele>
        <time>2015-11-14T15:30:48Z</time>
      </trkpt>
      <trkpt lat="44.51884" lon="1.03595">
        <ele>99.15</ele>
        <time>2015-11-14T15:30:55Z</time>
      </trkpt>
      <trkpt lat="44.51882" lon="1.03567">
        <ele>97.71</ele>
        <time>2015-11-14T15:30:59Z</time>
      </trkpt>
      <trkpt lat="44.51882" lon="1.03514">
        <ele>95.31</ele>
        <time>2015-11-14T15:31:06Z</time>
      </trkpt>
      <trkpt lat="44.51886" lon="1.03498">
        <ele>94.83</ele>
        <time>2015-11-14T15:31:09Z</time>
      </trkpt>
      <trkpt lat="44.51886" lon="1.03492">
        <ele>94.83</ele>
        <time>2015-11-14T15:31:10Z</time>
      </trkpt>
      <trkpt lat="44.5189" lon="1.03431">
        <ele>95.31</ele>
        <time>2015-11-14T15:31:22Z</time>
      </trkpt>
      <trkpt lat="44.51896" lon="1.03391">
        <ele>97.23</ele>
        <time>2015-11-14T15:31:31Z</time>
      </trkpt>
      <trkpt lat="44.51899" lon="1.03365">
        <ele>96.75</ele>
        <time>2015-11-14T15:31:35Z</time>
      </trkpt>
      <trkpt lat="44.51895" lon="1.03307">
        <ele>97.71</ele>
        <time>2015-11-14T15:31:43Z</time>
      </trkpt>
      <trkpt lat="44.51882" lon="1.03231">
        <ele>103.48</ele>
        <time>2015-11-14T15:31:58Z</time>
      </trkpt>
      <trkpt lat="44.51882" lon="1.03229">
        <ele>103.48</ele>
        <time>2015-11-14T15:31:59Z</time>
      </trkpt>
      <trkpt lat="44.51899" lon="1.03227">
        <ele>100.6</ele>
        <time>2015-11-14T15:32:07Z</time>
      </trkpt>
      <trkpt lat="44.5191" lon="1.03229">
        <ele>98.67</ele>
        <time>2015-11-14T15:32:09Z</time>
      </trkpt>
      <trkpt lat="44.51922" lon="1.03214">
        <ele>96.75</ele>
        <time>2015-11-14T15:32:14Z</time>
      </trkpt>
      <trkpt lat="44.51927" lon="1.03123">
        <ele>96.27</ele>
        <time>2015-11-14T15:32:30Z</time>
      </trkpt>
      <trkpt lat="44.51926" lon="1.03108">
        <ele>95.79</ele>
        <time>2015-11-14T15:32:33Z</time>
      </trkpt>
      <trkpt lat="44.51937" lon="1.03099">
        <ele>95.79</ele>
        <time>2015-11-14T15:32:41Z</time>
      </trkpt>
      <trkpt lat="44.51939" lon="1.03099">
        <ele>95.79</ele>
        <time>2015-11-14T15:32:42Z</time>
      </trkpt>
      <trkpt lat="44.51942" lon="1.03098">
        <ele>95.31</ele>
        <time>2015-11-14T15:32:43Z</time>
      </trkpt>
      <trkpt lat="44.51944" lon="1.03098">
        <ele>95.31</ele>
        <time>2015-11-14T15:32:44Z</time>
      </trkpt>
      <trkpt lat="44.51945" lon="1.03097">
        <ele>95.31</ele>
        <time>2015-11-14T15:32:45Z</time>
      </trkpt>
      <trkpt lat="44.51948" lon="1.03097">
        <ele>95.31</ele>
        <time>2015-11-14T15:32:56Z</time>
      </trkpt>
      <trkpt lat="44.51961" lon="1.03098">
        <ele>96.75</ele>
        <time>2015-11-14T15:33:13Z</time>
      </trkpt>
      <trkpt lat="44.52" lon="1.03104">
        <ele>96.75</ele>
        <time>2015-11-14T15:33:23Z</time>
      </trkpt>
      <trkpt lat="44.52063" lon="1.03107">
        <ele>94.83</ele>
        <time>2015-11-14T15:33:36Z</time>
      </trkpt>
      <trkpt lat="44.52068" lon="1.03107">
        <ele>94.83</ele>
        <time>2015-11-14T15:33:37Z</time>
      </trkpt>
      <trkpt lat="44.52154" lon="1.03127">
        <ele>95.31</ele>
        <time>2015-11-14T15:33:55Z</time>
      </trkpt>
      <trkpt lat="44.52157" lon="1.03128">
        <ele>95.31</ele>
        <time>2015-11-14T15:33:56Z</time>
      </trkpt>
      <trkpt lat="44.52161" lon="1.0313">
        <ele>95.79</ele>
        <time>2015-11-14T15:33:57Z</time>
      </trkpt>
      <trkpt lat="44.52178" lon="1.03136">
        <ele>97.23</ele>
        <time>2015-11-14T15:34:04Z</time>
      </trkpt>
      <trkpt lat="44.5218" lon="1.03135">
        <ele>97.23</ele>
        <time>2015-11-14T15:34:14Z</time>
      </trkpt>
      <trkpt lat="44.5218" lon="1.03136">
        <ele>99.63</ele>
        <time>2015-11-14T15:34:32Z</time>
      </trkpt>
      <trkpt lat="44.52179" lon="1.03137">
        <ele>100.11</ele>
        <time>2015-11-14T15:34:53Z</time>
      </trkpt>
      <trkpt lat="44.52179" lon="1.03135">
        <ele>100.6</ele>
        <time>2015-11-14T15:35:00Z</time>
      </trkpt>
      <trkpt lat="44.5218" lon="1.03093">
        <ele>101.56</ele>
        <time>2015-11-14T15:35:09Z</time>
      </trkpt>
      <trkpt lat="44.5218" lon="1.03087">
        <ele>101.56</ele>
        <time>2015-11-14T15:35:10Z</time>
      </trkpt>
      <trkpt lat="44.52172" lon="1.02954">
        <ele>98.67</ele>
        <time>2015-11-14T15:35:30Z</time>
      </trkpt>
      <trkpt lat="44.5216" lon="1.0277">
        <ele>94.83</ele>
        <time>2015-11-14T15:35:53Z</time>
      </trkpt>
      <trkpt lat="44.52147" lon="1.02591">
        <ele>92.9</ele>
        <time>2015-11-14T15:36:15Z</time>
      </trkpt>
      <trkpt lat="44.52136" lon="1.02428">
        <ele>92.42</ele>
        <time>2015-11-14T15:36:35Z</time>
      </trkpt>
      <trkpt lat="44.52126" lon="1.0229">
        <ele>92.42</ele>
        <time>2015-11-14T15:36:54Z</time>
      </trkpt>
      <trkpt lat="44.52118" lon="1.02163">
        <ele>91.94</ele>
        <time>2015-11-14T15:37:13Z</time>
      </trkpt>
      <trkpt lat="44.52107" lon="1.02044">
        <ele>91.46</ele>
        <time>2015-11-14T15:37:32Z</time>
      </trkpt>
      <trkpt lat="44.5209" lon="1.0195">
        <ele>90.98</ele>
        <time>2015-11-14T15:37:48Z</time>
      </trkpt>
      <trkpt lat="44.52066" lon="1.01841">
        <ele>90.5</ele>
        <time>2015-11-14T15:38:07Z</time>
      </trkpt>
      <trkpt lat="44.52063" lon="1.01829">
        <ele>90.5</ele>
        <time>2015-11-14T15:38:09Z</time>
      </trkpt>
      <trkpt lat="44.52034" lon="1.01707">
        <ele>89.54</ele>
        <time>2015-11-14T15:38:27Z</time>
      </trkpt>
      <trkpt lat="44.52031" lon="1.01694">
        <ele>89.06</ele>
        <time>2015-11-14T15:38:29Z</time>
      </trkpt>
      <trkpt lat="44.52028" lon="1.01681">
        <ele>89.06</ele>
        <time>2015-11-14T15:38:31Z</time>
      </trkpt>
      <trkpt lat="44.52026" lon="1.01675">
        <ele>89.06</ele>
        <time>2015-11-14T15:38:32Z</time>
      </trkpt>
      <trkpt lat="44.52" lon="1.01606">
        <ele>89.06</ele>
        <time>2015-11-14T15:38:45Z</time>
      </trkpt>
      <trkpt lat="44.51943" lon="1.01631">
        <ele>88.1</ele>
        <time>2015-11-14T15:38:59Z</time>
      </trkpt>
      <trkpt lat="44.51869" lon="1.01665">
        <ele>87.62</ele>
        <time>2015-11-14T15:39:16Z</time>
      </trkpt>
      <trkpt lat="44.51842" lon="1.01677">
        <ele>87.62</ele>
        <time>2015-11-14T15:39:22Z</time>
      </trkpt>
      <trkpt lat="44.51825" lon="1.01684">
        <ele>88.1</ele>
        <time>2015-11-14T15:39:27Z</time>
      </trkpt>
      <trkpt lat="44.51822" lon="1.01682">
        <ele>87.62</ele>
        <time>2015-11-14T15:39:28Z</time>
      </trkpt>
      <trkpt lat="44.5182" lon="1.01678">
        <ele>87.62</ele>
        <time>2015-11-14T15:39:29Z</time>
      </trkpt>
      <trkpt lat="44.51818" lon="1.01673">
        <ele>87.62</ele>
        <time>2015-11-14T15:39:30Z</time>
      </trkpt>
      <trkpt lat="44.51816" lon="1.01668">
        <ele>88.1</ele>
        <time>2015-11-14T15:39:31Z</time>
      </trkpt>
      <trkpt lat="44.5178" lon="1.01585">
        <ele>90.5</ele>
        <time>2015-11-14T15:39:47Z</time>
      </trkpt>
      <trkpt lat="44.51757" lon="1.01537">
        <ele>91.46</ele>
        <time>2015-11-14T15:39:59Z</time>
      </trkpt>
      <trkpt lat="44.51746" lon="1.01522">
        <ele>90.02</ele>
        <time>2015-11-14T15:40:02Z</time>
      </trkpt>
      <trkpt lat="44.51711" lon="1.01481">
        <ele>87.14</ele>
        <time>2015-11-14T15:40:09Z</time>
      </trkpt>
      <trkpt lat="44.51706" lon="1.01477">
        <ele>87.14</ele>
        <time>2015-11-14T15:40:10Z</time>
      </trkpt>
      <trkpt lat="44.51701" lon="1.01475">
        <ele>86.66</ele>
        <time>2015-11-14T15:40:11Z</time>
      </trkpt>
      <trkpt lat="44.51697" lon="1.01476">
        <ele>86.66</ele>
        <time>2015-11-14T15:40:12Z</time>
      </trkpt>
      <trkpt lat="44.51693" lon="1.01478">
        <ele>87.14</ele>
        <time>2015-11-14T15:40:13Z</time>
      </trkpt>
      <trkpt lat="44.51689" lon="1.01481">
        <ele>86.66</ele>
        <time>2015-11-14T15:40:14Z</time>
      </trkpt>
      <trkpt lat="44.51687" lon="1.01484">
        <ele>87.14</ele>
        <time>2015-11-14T15:40:15Z</time>
      </trkpt>
      <trkpt lat="44.51684" lon="1.01488">
        <ele>87.14</ele>
        <time>2015-11-14T15:40:16Z</time>
      </trkpt>
      <trkpt lat="44.51682" lon="1.01492">
        <ele>87.14</ele>
        <time>2015-11-14T15:40:17Z</time>
      </trkpt>
      <trkpt lat="44.51659" lon="1.01531">
        <ele>90.02</ele>
        <time>2015-11-14T15:40:33Z</time>
      </trkpt>
      <trkpt lat="44.5164" lon="1.01558">
        <ele>94.83</ele>
        <time>2015-11-14T15:40:46Z</time>
      </trkpt>
      <trkpt lat="44.51634" lon="1.01562">
        <ele>95.79</ele>
        <time>2015-11-14T15:40:50Z</time>
      </trkpt>
      <trkpt lat="44.51632" lon="1.01562">
        <ele>96.27</ele>
        <time>2015-11-14T15:40:51Z</time>
      </trkpt>
      <trkpt lat="44.5163" lon="1.01562">
        <ele>96.75</ele>
        <time>2015-11-14T15:40:52Z</time>
      </trkpt>
      <trkpt lat="44.51628" lon="1.01562">
        <ele>96.75</ele>
        <time>2015-11-14T15:40:53Z</time>
      </trkpt>
      <trkpt lat="44.51626" lon="1.01562">
        <ele>97.23</ele>
        <time>2015-11-14T15:40:54Z</time>
      </trkpt>
      <trkpt lat="44.51624" lon="1.01562">
        <ele>97.71</ele>
        <time>2015-11-14T15:40:55Z</time>
      </trkpt>
      <trkpt lat="44.51621" lon="1.01562">
        <ele>97.71</ele>
        <time>2015-11-14T15:40:56Z</time>
      </trkpt>
      <trkpt lat="44.51603" lon="1.01553">
        <ele>102.52</ele>
        <time>2015-11-14T15:41:07Z</time>
      </trkpt>
      <trkpt lat="44.51601" lon="1.01552">
        <ele>103</ele>
        <time>2015-11-14T15:41:08Z</time>
      </trkpt>
      <trkpt lat="44.51599" lon="1.01551">
        <ele>103.48</ele>
        <time>2015-11-14T15:41:09Z</time>
      </trkpt>
      <trkpt lat="44.51597" lon="1.0155">
        <ele>103.96</ele>
        <time>2015-11-14T15:41:10Z</time>
      </trkpt>
      <trkpt lat="44.51596" lon="1.01551">
        <ele>104.44</ele>
        <time>2015-11-14T15:41:11Z</time>
      </trkpt>
      <trkpt lat="44.51594" lon="1.0155">
        <ele>104.92</ele>
        <time>2015-11-14T15:41:12Z</time>
      </trkpt>
      <trkpt lat="44.51592" lon="1.0155">
        <ele>105.4</ele>
        <time>2015-11-14T15:41:13Z</time>
      </trkpt>
      <trkpt lat="44.5159" lon="1.0155">
        <ele>105.4</ele>
        <time>2015-11-14T15:41:14Z</time>
      </trkpt>
      <trkpt lat="44.51587" lon="1.01549">
        <ele>105.4</ele>
        <time>2015-11-14T15:41:15Z</time>
      </trkpt>
      <trkpt lat="44.51585" lon="1.01549">
        <ele>105.4</ele>
        <time>2015-11-14T15:41:16Z</time>
      </trkpt>
      <trkpt lat="44.51583" lon="1.01548">
        <ele>105.88</ele>
        <time>2015-11-14T15:41:17Z</time>
      </trkpt>
      <trkpt lat="44.51581" lon="1.01549">
        <ele>105.88</ele>
        <time>2015-11-14T15:41:18Z</time>
      </trkpt>
      <trkpt lat="44.51579" lon="1.01549">
        <ele>106.36</ele>
        <time>2015-11-14T15:41:19Z</time>
      </trkpt>
      <trkpt lat="44.51578" lon="1.0155">
        <ele>106.36</ele>
        <time>2015-11-14T15:41:20Z</time>
      </trkpt>
      <trkpt lat="44.51575" lon="1.0155">
        <ele>106.84</ele>
        <time>2015-11-14T15:41:21Z</time>
      </trkpt>
      <trkpt lat="44.51573" lon="1.0155">
        <ele>107.81</ele>
        <time>2015-11-14T15:41:22Z</time>
      </trkpt>
      <trkpt lat="44.51571" lon="1.0155">
        <ele>108.29</ele>
        <time>2015-11-14T15:41:23Z</time>
      </trkpt>
      <trkpt lat="44.51568" lon="1.01551">
        <ele>108.29</ele>
        <time>2015-11-14T15:41:24Z</time>
      </trkpt>
      <trkpt lat="44.51566" lon="1.01551">
        <ele>108.77</ele>
        <time>2015-11-14T15:41:25Z</time>
      </trkpt>
      <trkpt lat="44.51564" lon="1.01551">
        <ele>108.77</ele>
        <time>2015-11-14T15:41:26Z</time>
      </trkpt>
      <trkpt lat="44.51561" lon="1.01551">
        <ele>109.25</ele>
        <time>2015-11-14T15:41:27Z</time>
      </trkpt>
      <trkpt lat="44.51559" lon="1.01551">
        <ele>109.25</ele>
        <time>2015-11-14T15:41:28Z</time>
      </trkpt>
      <trkpt lat="44.51516" lon="1.01543">
        <ele>106.84</ele>
        <time>2015-11-14T15:41:41Z</time>
      </trkpt>
      <trkpt lat="44.51512" lon="1.01542">
        <ele>106.36</ele>
        <time>2015-11-14T15:41:42Z</time>
      </trkpt>
      <trkpt lat="44.51508" lon="1.01541">
        <ele>106.36</ele>
        <time>2015-11-14T15:41:43Z</time>
      </trkpt>
      <trkpt lat="44.51504" lon="1.0154">
        <ele>105.88</ele>
        <time>2015-11-14T15:41:44Z</time>
      </trkpt>
      <trkpt lat="44.515" lon="1.0154">
        <ele>105.4</ele>
        <time>2015-11-14T15:41:45Z</time>
      </trkpt>
      <trkpt lat="44.51496" lon="1.01539">
        <ele>105.4</ele>
        <time>2015-11-14T15:41:46Z</time>
      </trkpt>
      <trkpt lat="44.51492" lon="1.01539">
        <ele>104.92</ele>
        <time>2015-11-14T15:41:47Z</time>
      </trkpt>
      <trkpt lat="44.51467" lon="1.01534">
        <ele>103.96</ele>
        <time>2015-11-14T15:41:52Z</time>
      </trkpt>
      <trkpt lat="44.51462" lon="1.01533">
        <ele>103.96</ele>
        <time>2015-11-14T15:41:53Z</time>
      </trkpt>
      <trkpt lat="44.51444" lon="1.01528">
        <ele>103</ele>
        <time>2015-11-14T15:41:56Z</time>
      </trkpt>
      <trkpt lat="44.51438" lon="1.01525">
        <ele>103</ele>
        <time>2015-11-14T15:41:57Z</time>
      </trkpt>
      <trkpt lat="44.51433" lon="1.01522">
        <ele>102.52</ele>
        <time>2015-11-14T15:41:58Z</time>
      </trkpt>
      <trkpt lat="44.51427" lon="1.01518">
        <ele>102.04</ele>
        <time>2015-11-14T15:41:59Z</time>
      </trkpt>
      <trkpt lat="44.51421" lon="1.01515">
        <ele>102.04</ele>
        <time>2015-11-14T15:42:00Z</time>
      </trkpt>
      <trkpt lat="44.51414" lon="1.01513">
        <ele>101.56</ele>
        <time>2015-11-14T15:42:01Z</time>
      </trkpt>
      <trkpt lat="44.51408" lon="1.01511">
        <ele>101.56</ele>
        <time>2015-11-14T15:42:02Z</time>
      </trkpt>
      <trkpt lat="44.51402" lon="1.01509">
        <ele>101.08</ele>
        <time>2015-11-14T15:42:03Z</time>
      </trkpt>
      <trkpt lat="44.51396" lon="1.01506">
        <ele>101.08</ele>
        <time>2015-11-14T15:42:04Z</time>
      </trkpt>
      <trkpt lat="44.51349" lon="1.0147">
        <ele>101.56</ele>
        <time>2015-11-14T15:42:12Z</time>
      </trkpt>
      <trkpt lat="44.51319" lon="1.01437">
        <ele>101.56</ele>
        <time>2015-11-14T15:42:18Z</time>
      </trkpt>
      <trkpt lat="44.51316" lon="1.01432">
        <ele>101.56</ele>
        <time>2015-11-14T15:42:19Z</time>
      </trkpt>
      <trkpt lat="44.51312" lon="1.01425">
        <ele>101.56</ele>
        <time>2015-11-14T15:42:20Z</time>
      </trkpt>
      <trkpt lat="44.51295" lon="1.0139">
        <ele>102.52</ele>
        <time>2015-11-14T15:42:25Z</time>
      </trkpt>
      <trkpt lat="44.51292" lon="1.01383">
        <ele>102.52</ele>
        <time>2015-11-14T15:42:26Z</time>
      </trkpt>
      <trkpt lat="44.51289" lon="1.01376">
        <ele>102.52</ele>
        <time>2015-11-14T15:42:27Z</time>
      </trkpt>
      <trkpt lat="44.51287" lon="1.01368">
        <ele>102.52</ele>
        <time>2015-11-14T15:42:28Z</time>
      </trkpt>
      <trkpt lat="44.51285" lon="1.01361">
        <ele>103</ele>
        <time>2015-11-14T15:42:29Z</time>
      </trkpt>
      <trkpt lat="44.51281" lon="1.01347">
        <ele>102.52</ele>
        <time>2015-11-14T15:42:31Z</time>
      </trkpt>
      <trkpt lat="44.51279" lon="1.01341">
        <ele>102.52</ele>
        <time>2015-11-14T15:42:32Z</time>
      </trkpt>
      <trkpt lat="44.51273" lon="1.01321">
        <ele>102.52</ele>
        <time>2015-11-14T15:42:35Z</time>
      </trkpt>
      <trkpt lat="44.51273" lon="1.01315">
        <ele>102.52</ele>
        <time>2015-11-14T15:42:36Z</time>
      </trkpt>
      <trkpt lat="44.51273" lon="1.01308">
        <ele>102.04</ele>
        <time>2015-11-14T15:42:37Z</time>
      </trkpt>
      <trkpt lat="44.51275" lon="1.01294">
        <ele>101.56</ele>
        <time>2015-11-14T15:42:39Z</time>
      </trkpt>
      <trkpt lat="44.51276" lon="1.01287">
        <ele>101.56</ele>
        <time>2015-11-14T15:42:40Z</time>
      </trkpt>
      <trkpt lat="44.51277" lon="1.0128">
        <ele>101.08</ele>
        <time>2015-11-14T15:42:41Z</time>
      </trkpt>
      <trkpt lat="44.51282" lon="1.01264">
        <ele>100.11</ele>
        <time>2015-11-14T15:42:43Z</time>
      </trkpt>
      <trkpt lat="44.51285" lon="1.01256">
        <ele>99.63</ele>
        <time>2015-11-14T15:42:44Z</time>
      </trkpt>
      <trkpt lat="44.5129" lon="1.01248">
        <ele>99.15</ele>
        <time>2015-11-14T15:42:45Z</time>
      </trkpt>
      <trkpt lat="44.51294" lon="1.01239">
        <ele>98.19</ele>
        <time>2015-11-14T15:42:46Z</time>
      </trkpt>
      <trkpt lat="44.51298" lon="1.0123">
        <ele>97.23</ele>
        <time>2015-11-14T15:42:47Z</time>
      </trkpt>
      <trkpt lat="44.51306" lon="1.01211">
        <ele>95.31</ele>
        <time>2015-11-14T15:42:49Z</time>
      </trkpt>
      <trkpt lat="44.51308" lon="1.01201">
        <ele>94.35</ele>
        <time>2015-11-14T15:42:50Z</time>
      </trkpt>
      <trkpt lat="44.51308" lon="1.0119">
        <ele>93.39</ele>
        <time>2015-11-14T15:42:51Z</time>
      </trkpt>
      <trkpt lat="44.51308" lon="1.01179">
        <ele>92.9</ele>
        <time>2015-11-14T15:42:52Z</time>
      </trkpt>
      <trkpt lat="44.51307" lon="1.01169">
        <ele>92.42</ele>
        <time>2015-11-14T15:42:53Z</time>
      </trkpt>
      <trkpt lat="44.51303" lon="1.01141">
        <ele>90.98</ele>
        <time>2015-11-14T15:42:56Z</time>
      </trkpt>
      <trkpt lat="44.51303" lon="1.01132">
        <ele>90.5</ele>
        <time>2015-11-14T15:42:57Z</time>
      </trkpt>
      <trkpt lat="44.51301" lon="1.01093">
        <ele>89.06</ele>
        <time>2015-11-14T15:43:01Z</time>
      </trkpt>
      <trkpt lat="44.51301" lon="1.01084">
        <ele>89.06</ele>
        <time>2015-11-14T15:43:02Z</time>
      </trkpt>
      <trkpt lat="44.513" lon="1.01075">
        <ele>89.06</ele>
        <time>2015-11-14T15:43:03Z</time>
      </trkpt>
      <trkpt lat="44.51299" lon="1.01066">
        <ele>88.58</ele>
        <time>2015-11-14T15:43:04Z</time>
      </trkpt>
      <trkpt lat="44.51298" lon="1.01058">
        <ele>88.58</ele>
        <time>2015-11-14T15:43:05Z</time>
      </trkpt>
      <trkpt lat="44.51297" lon="1.01051">
        <ele>88.58</ele>
        <time>2015-11-14T15:43:06Z</time>
      </trkpt>
      <trkpt lat="44.51294" lon="1.01039">
        <ele>88.58</ele>
        <time>2015-11-14T15:43:08Z</time>
      </trkpt>
      <trkpt lat="44.51287" lon="1.01022">
        <ele>89.06</ele>
        <time>2015-11-14T15:43:11Z</time>
      </trkpt>
      <trkpt lat="44.5126" lon="1.00991">
        <ele>92.42</ele>
        <time>2015-11-14T15:43:21Z</time>
      </trkpt>
      <trkpt lat="44.51256" lon="1.00988">
        <ele>92.9</ele>
        <time>2015-11-14T15:43:22Z</time>
      </trkpt>
      <trkpt lat="44.51235" lon="1.00969">
        <ele>93.87</ele>
        <time>2015-11-14T15:43:27Z</time>
      </trkpt>
      <trkpt lat="44.51214" lon="1.00951">
        <ele>94.35</ele>
        <time>2015-11-14T15:43:32Z</time>
      </trkpt>
      <trkpt lat="44.51199" lon="1.00933">
        <ele>93.87</ele>
        <time>2015-11-14T15:43:36Z</time>
      </trkpt>
      <trkpt lat="44.51195" lon="1.00927">
        <ele>94.35</ele>
        <time>2015-11-14T15:43:37Z</time>
      </trkpt>
      <trkpt lat="44.51184" lon="1.00911">
        <ele>94.35</ele>
        <time>2015-11-14T15:43:40Z</time>
      </trkpt>
      <trkpt lat="44.51177" lon="1.00899">
        <ele>94.35</ele>
        <time>2015-11-14T15:43:42Z</time>
      </trkpt>
      <trkpt lat="44.51174" lon="1.00894">
        <ele>94.35</ele>
        <time>2015-11-14T15:43:43Z</time>
      </trkpt>
      <trkpt lat="44.5116" lon="1.00875">
        <ele>95.31</ele>
        <time>2015-11-14T15:43:47Z</time>
      </trkpt>
      <trkpt lat="44.51107" lon="1.00803">
        <ele>94.35</ele>
        <time>2015-11-14T15:44:00Z</time>
      </trkpt>
      <trkpt lat="44.5103" lon="1.00713">
        <ele>88.58</ele>
        <time>2015-11-14T15:44:12Z</time>
      </trkpt>
      <trkpt lat="44.50961" lon="1.00636">
        <ele>87.62</ele>
        <time>2015-11-14T15:44:25Z</time>
      </trkpt>
      <trkpt lat="44.50935" lon="1.00611">
        <ele>90.02</ele>
        <time>2015-11-14T15:44:34Z</time>
      </trkpt>
      <trkpt lat="44.50924" lon="1.00588">
        <ele>91.46</ele>
        <time>2015-11-14T15:44:46Z</time>
      </trkpt>
      <trkpt lat="44.50917" lon="1.00578">
        <ele>92.9</ele>
        <time>2015-11-14T15:44:57Z</time>
      </trkpt>
      <trkpt lat="44.50905" lon="1.00552">
        <ele>92.42</ele>
        <time>2015-11-14T15:45:07Z</time>
      </trkpt>
      <trkpt lat="44.50891" lon="1.00521">
        <ele>91.46</ele>
        <time>2015-11-14T15:45:14Z</time>
      </trkpt>
      <trkpt lat="44.50884" lon="1.005">
        <ele>90.02</ele>
        <time>2015-11-14T15:45:18Z</time>
      </trkpt>
      <trkpt lat="44.50883" lon="1.00494">
        <ele>89.54</ele>
        <time>2015-11-14T15:45:19Z</time>
      </trkpt>
      <trkpt lat="44.50882" lon="1.00488">
        <ele>89.54</ele>
        <time>2015-11-14T15:45:20Z</time>
      </trkpt>
      <trkpt lat="44.5088" lon="1.00482">
        <ele>89.06</ele>
        <time>2015-11-14T15:45:21Z</time>
      </trkpt>
      <trkpt lat="44.50878" lon="1.00476">
        <ele>89.06</ele>
        <time>2015-11-14T15:45:22Z</time>
      </trkpt>
      <trkpt lat="44.50875" lon="1.00472">
        <ele>88.58</ele>
        <time>2015-11-14T15:45:23Z</time>
      </trkpt>
      <trkpt lat="44.50872" lon="1.00468">
        <ele>89.06</ele>
        <time>2015-11-14T15:45:24Z</time>
      </trkpt>
      <trkpt lat="44.50841" lon="1.00417">
        <ele>86.66</ele>
        <time>2015-11-14T15:45:34Z</time>
      </trkpt>
      <trkpt lat="44.50791" lon="1.00352">
        <ele>84.25</ele>
        <time>2015-11-14T15:45:43Z</time>
      </trkpt>
      <trkpt lat="44.50741" lon="1.00283">
        <ele>84.73</ele>
        <time>2015-11-14T15:45:53Z</time>
      </trkpt>
      <trkpt lat="44.50728" lon="1.00259">
        <ele>84.73</ele>
        <time>2015-11-14T15:45:57Z</time>
      </trkpt>
      <trkpt lat="44.50713" lon="1.00224">
        <ele>86.18</ele>
        <time>2015-11-14T15:46:06Z</time>
      </trkpt>
      <trkpt lat="44.50712" lon="1.00222">
        <ele>87.62</ele>
        <time>2015-11-14T15:46:17Z</time>
      </trkpt>
      <trkpt lat="44.50714" lon="1.00225">
        <ele>88.1</ele>
        <time>2015-11-14T15:46:20Z</time>
      </trkpt>
      <trkpt lat="44.50714" lon="1.00226">
        <ele>88.58</ele>
        <time>2015-11-14T15:46:21Z</time>
      </trkpt>
      <trkpt lat="44.50715" lon="1.00228">
        <ele>88.58</ele>
        <time>2015-11-14T15:46:22Z</time>
      </trkpt>
      <trkpt lat="44.50716" lon="1.00231">
        <ele>89.06</ele>
        <time>2015-11-14T15:46:24Z</time>
      </trkpt>
      <trkpt lat="44.50716" lon="1.00232">
        <ele>89.06</ele>
        <time>2015-11-14T15:46:25Z</time>
      </trkpt>
      <trkpt lat="44.50717" lon="1.00233">
        <ele>89.54</ele>
        <time>2015-11-14T15:46:26Z</time>
      </trkpt>
      <trkpt lat="44.50717" lon="1.00235">
        <ele>89.54</ele>
        <time>2015-11-14T15:46:27Z</time>
      </trkpt>
      <trkpt lat="44.50716" lon="1.00235">
        <ele>90.5</ele>
        <time>2015-11-14T15:46:37Z</time>
      </trkpt>
      <trkpt lat="44.50716" lon="1.00239">
        <ele>90.02</ele>
        <time>2015-11-14T15:47:10Z</time>
      </trkpt>
      <trkpt lat="44.50717" lon="1.0024">
        <ele>87.14</ele>
        <time>2015-11-14T15:47:43Z</time>
      </trkpt>
      <trkpt lat="44.50715" lon="1.00241">
        <ele>88.1</ele>
        <time>2015-11-14T15:48:18Z</time>
      </trkpt>
      <trkpt lat="44.50717" lon="1.00241">
        <ele>87.62</ele>
        <time>2015-11-14T15:48:51Z</time>
      </trkpt>
      <trkpt lat="44.50716" lon="1.00242">
        <ele>89.06</ele>
        <time>2015-11-14T15:49:28Z</time>
      </trkpt>
      <trkpt lat="44.50714" lon="1.00244">
        <ele>89.06</ele>
        <time>2015-11-14T15:50:06Z</time>
      </trkpt>
      <trkpt lat="44.50713" lon="1.00245">
        <ele>91.46</ele>
        <time>2015-11-14T15:50:39Z</time>
      </trkpt>
      <trkpt lat="44.50714" lon="1.00245">
        <ele>93.39</ele>
        <time>2015-11-14T15:51:08Z</time>
      </trkpt>
      <trkpt lat="44.50714" lon="1.00247">
        <ele>93.87</ele>
        <time>2015-11-14T15:51:41Z</time>
      </trkpt>
      <trkpt lat="44.50714" lon="1.00246">
        <ele>93.87</ele>
        <time>2015-11-14T15:52:02Z</time>
      </trkpt>
      <trkpt lat="44.50715" lon="1.00243">
        <ele>93.87</ele>
        <time>2015-11-14T15:52:23Z</time>
      </trkpt>
      <trkpt lat="44.50714" lon="1.0024">
        <ele>94.35</ele>
        <time>2015-11-14T15:52:43Z</time>
      </trkpt>
      <trkpt lat="44.50714" lon="1.00239">
        <ele>93.87</ele>
        <time>2015-11-14T15:52:44Z</time>
      </trkpt>
      <trkpt lat="44.50713" lon="1.00237">
        <ele>93.87</ele>
        <time>2015-11-14T15:52:45Z</time>
      </trkpt>
      <trkpt lat="44.50712" lon="1.00235">
        <ele>93.87</ele>
        <time>2015-11-14T15:52:46Z</time>
      </trkpt>
      <trkpt lat="44.50711" lon="1.00232">
        <ele>93.87</ele>
        <time>2015-11-14T15:52:47Z</time>
      </trkpt>
      <trkpt lat="44.50711" lon="1.00229">
        <ele>93.87</ele>
        <time>2015-11-14T15:52:48Z</time>
      </trkpt>
      <trkpt lat="44.5071" lon="1.00225">
        <ele>93.39</ele>
        <time>2015-11-14T15:52:49Z</time>
      </trkpt>
      <trkpt lat="44.50709" lon="1.00221">
        <ele>93.39</ele>
        <time>2015-11-14T15:52:50Z</time>
      </trkpt>
      <trkpt lat="44.50708" lon="1.00217">
        <ele>93.39</ele>
        <time>2015-11-14T15:52:51Z</time>
      </trkpt>
      <trkpt lat="44.50707" lon="1.00214">
        <ele>93.39</ele>
        <time>2015-11-14T15:52:52Z</time>
      </trkpt>
      <trkpt lat="44.50705" lon="1.0021">
        <ele>93.39</ele>
        <time>2015-11-14T15:52:53Z</time>
      </trkpt>
      <trkpt lat="44.50704" lon="1.00207">
        <ele>93.39</ele>
        <time>2015-11-14T15:52:54Z</time>
      </trkpt>
      <trkpt lat="44.50703" lon="1.00203">
        <ele>93.39</ele>
        <time>2015-11-14T15:52:55Z</time>
      </trkpt>
      <trkpt lat="44.50702" lon="1.00199">
        <ele>93.39</ele>
        <time>2015-11-14T15:52:56Z</time>
      </trkpt>
      <trkpt lat="44.50693" lon="1.00151">
        <ele>93.87</ele>
        <time>2015-11-14T15:53:08Z</time>
      </trkpt>
      <trkpt lat="44.50692" lon="1.00146">
        <ele>94.83</ele>
        <time>2015-11-14T15:53:14Z</time>
      </trkpt>
      <trkpt lat="44.50691" lon="1.00143">
        <ele>94.35</ele>
        <time>2015-11-14T15:53:15Z</time>
      </trkpt>
      <trkpt lat="44.50691" lon="1.00141">
        <ele>94.35</ele>
        <time>2015-11-14T15:53:16Z</time>
      </trkpt>
      <trkpt lat="44.5069" lon="1.00137">
        <ele>93.87</ele>
        <time>2015-11-14T15:53:17Z</time>
      </trkpt>
      <trkpt lat="44.50689" lon="1.00134">
        <ele>93.87</ele>
        <time>2015-11-14T15:53:18Z</time>
      </trkpt>
      <trkpt lat="44.50689" lon="1.0013">
        <ele>93.87</ele>
        <time>2015-11-14T15:53:19Z</time>
      </trkpt>
      <trkpt lat="44.50689" lon="1.00127">
        <ele>93.39</ele>
        <time>2015-11-14T15:53:20Z</time>
      </trkpt>
      <trkpt lat="44.50688" lon="1.00123">
        <ele>93.39</ele>
        <time>2015-11-14T15:53:21Z</time>
      </trkpt>
      <trkpt lat="44.50687" lon="1.00119">
        <ele>93.39</ele>
        <time>2015-11-14T15:53:22Z</time>
      </trkpt>
      <trkpt lat="44.50685" lon="1.00115">
        <ele>92.9</ele>
        <time>2015-11-14T15:53:23Z</time>
      </trkpt>
      <trkpt lat="44.50684" lon="1.00111">
        <ele>92.9</ele>
        <time>2015-11-14T15:53:24Z</time>
      </trkpt>
      <trkpt lat="44.50682" lon="1.00107">
        <ele>92.42</ele>
        <time>2015-11-14T15:53:25Z</time>
      </trkpt>
      <trkpt lat="44.50668" lon="1.00054">
        <ele>95.31</ele>
        <time>2015-11-14T15:53:39Z</time>
      </trkpt>
      <trkpt lat="44.5064" lon="1.0002">
        <ele>96.27</ele>
        <time>2015-11-14T15:53:51Z</time>
      </trkpt>
      <trkpt lat="44.50594" lon="0.99993">
        <ele>97.23</ele>
        <time>2015-11-14T15:54:06Z</time>
      </trkpt>
      <trkpt lat="44.50559" lon="0.99971">
        <ele>96.75</ele>
        <time>2015-11-14T15:54:17Z</time>
      </trkpt>
      <trkpt lat="44.50539" lon="0.99949">
        <ele>95.31</ele>
        <time>2015-11-14T15:54:23Z</time>
      </trkpt>
      <trkpt lat="44.50506" lon="0.99891">
        <ele>92.9</ele>
        <time>2015-11-14T15:54:31Z</time>
      </trkpt>
      <trkpt lat="44.50503" lon="0.99884">
        <ele>92.42</ele>
        <time>2015-11-14T15:54:32Z</time>
      </trkpt>
      <trkpt lat="44.505" lon="0.99877">
        <ele>91.94</ele>
        <time>2015-11-14T15:54:33Z</time>
      </trkpt>
      <trkpt lat="44.50496" lon="0.99871">
        <ele>91.94</ele>
        <time>2015-11-14T15:54:34Z</time>
      </trkpt>
      <trkpt lat="44.50492" lon="0.99865">
        <ele>90.98</ele>
        <time>2015-11-14T15:54:35Z</time>
      </trkpt>
      <trkpt lat="44.50487" lon="0.9986">
        <ele>90.5</ele>
        <time>2015-11-14T15:54:36Z</time>
      </trkpt>
      <trkpt lat="44.50482" lon="0.99856">
        <ele>90.02</ele>
        <time>2015-11-14T15:54:37Z</time>
      </trkpt>
      <trkpt lat="44.50478" lon="0.99852">
        <ele>89.06</ele>
        <time>2015-11-14T15:54:38Z</time>
      </trkpt>
      <trkpt lat="44.50472" lon="0.9985">
        <ele>88.1</ele>
        <time>2015-11-14T15:54:39Z</time>
      </trkpt>
      <trkpt lat="44.50444" lon="0.99841">
        <ele>85.69</ele>
        <time>2015-11-14T15:54:43Z</time>
      </trkpt>
      <trkpt lat="44.50436" lon="0.99841">
        <ele>85.21</ele>
        <time>2015-11-14T15:54:44Z</time>
      </trkpt>
      <trkpt lat="44.50429" lon="0.99842">
        <ele>84.73</ele>
        <time>2015-11-14T15:54:45Z</time>
      </trkpt>
      <trkpt lat="44.50392" lon="0.9985">
        <ele>82.81</ele>
        <time>2015-11-14T15:54:50Z</time>
      </trkpt>
      <trkpt lat="44.5035" lon="0.99851">
        <ele>83.29</ele>
        <time>2015-11-14T15:54:56Z</time>
      </trkpt>
      <trkpt lat="44.50313" lon="0.99839">
        <ele>84.25</ele>
        <time>2015-11-14T15:55:03Z</time>
      </trkpt>
      <trkpt lat="44.50309" lon="0.99836">
        <ele>84.25</ele>
        <time>2015-11-14T15:55:04Z</time>
      </trkpt>
      <trkpt lat="44.50294" lon="0.99825">
        <ele>83.29</ele>
        <time>2015-11-14T15:55:08Z</time>
      </trkpt>
      <trkpt lat="44.50258" lon="0.99802">
        <ele>82.33</ele>
        <time>2015-11-14T15:55:15Z</time>
      </trkpt>
      <trkpt lat="44.50251" lon="0.99798">
        <ele>82.33</ele>
        <time>2015-11-14T15:55:16Z</time>
      </trkpt>
      <trkpt lat="44.50244" lon="0.99794">
        <ele>81.85</ele>
        <time>2015-11-14T15:55:17Z</time>
      </trkpt>
      <trkpt lat="44.50237" lon="0.99789">
        <ele>81.37</ele>
        <time>2015-11-14T15:55:18Z</time>
      </trkpt>
      <trkpt lat="44.50231" lon="0.99783">
        <ele>81.37</ele>
        <time>2015-11-14T15:55:19Z</time>
      </trkpt>
      <trkpt lat="44.50225" lon="0.99777">
        <ele>81.85</ele>
        <time>2015-11-14T15:55:20Z</time>
      </trkpt>
      <trkpt lat="44.50201" lon="0.99753">
        <ele>83.29</ele>
        <time>2015-11-14T15:55:25Z</time>
      </trkpt>
      <trkpt lat="44.50175" lon="0.99723">
        <ele>85.21</ele>
        <time>2015-11-14T15:55:32Z</time>
      </trkpt>
      <trkpt lat="44.50171" lon="0.99717">
        <ele>85.21</ele>
        <time>2015-11-14T15:55:33Z</time>
      </trkpt>
      <trkpt lat="44.50123" lon="0.99625">
        <ele>81.37</ele>
        <time>2015-11-14T15:55:44Z</time>
      </trkpt>
      <trkpt lat="44.50084" lon="0.99543">
        <ele>79.93</ele>
        <time>2015-11-14T15:55:54Z</time>
      </trkpt>
      <trkpt lat="44.50065" lon="0.99485">
        <ele>78.48</ele>
        <time>2015-11-14T15:56:01Z</time>
      </trkpt>
      <trkpt lat="44.50058" lon="0.99444">
        <ele>78.97</ele>
        <time>2015-11-14T15:56:06Z</time>
      </trkpt>
      <trkpt lat="44.50042" lon="0.99385">
        <ele>80.41</ele>
        <time>2015-11-14T15:56:15Z</time>
      </trkpt>
      <trkpt lat="44.5004" lon="0.99381">
        <ele>80.89</ele>
        <time>2015-11-14T15:56:16Z</time>
      </trkpt>
      <trkpt lat="44.50019" lon="0.9935">
        <ele>84.73</ele>
        <time>2015-11-14T15:56:27Z</time>
      </trkpt>
      <trkpt lat="44.50013" lon="0.99341">
        <ele>86.18</ele>
        <time>2015-11-14T15:56:36Z</time>
      </trkpt>
      <trkpt lat="44.50012" lon="0.9934">
        <ele>86.18</ele>
        <time>2015-11-14T15:56:37Z</time>
      </trkpt>
      <trkpt lat="44.50011" lon="0.99338">
        <ele>86.18</ele>
        <time>2015-11-14T15:56:38Z</time>
      </trkpt>
      <trkpt lat="44.50011" lon="0.99337">
        <ele>86.18</ele>
        <time>2015-11-14T15:56:39Z</time>
      </trkpt>
      <trkpt lat="44.5001" lon="0.99336">
        <ele>86.18</ele>
        <time>2015-11-14T15:56:40Z</time>
      </trkpt>
      <trkpt lat="44.50008" lon="0.99334">
        <ele>86.18</ele>
        <time>2015-11-14T15:56:41Z</time>
      </trkpt>
      <trkpt lat="44.50006" lon="0.99332">
        <ele>85.21</ele>
        <time>2015-11-14T15:56:43Z</time>
      </trkpt>
      <trkpt lat="44.49987" lon="0.99321">
        <ele>83.77</ele>
        <time>2015-11-14T15:56:53Z</time>
      </trkpt>
      <trkpt lat="44.49986" lon="0.99319">
        <ele>83.29</ele>
        <time>2015-11-14T15:56:54Z</time>
      </trkpt>
      <trkpt lat="44.49985" lon="0.99318">
        <ele>83.29</ele>
        <time>2015-11-14T15:56:55Z</time>
      </trkpt>
      <trkpt lat="44.49983" lon="0.99317">
        <ele>83.29</ele>
        <time>2015-11-14T15:56:59Z</time>
      </trkpt>
      <trkpt lat="44.49957" lon="0.99305">
        <ele>80.89</ele>
        <time>2015-11-14T15:57:08Z</time>
      </trkpt>
      <trkpt lat="44.49923" lon="0.99302">
        <ele>81.37</ele>
        <time>2015-11-14T15:57:16Z</time>
      </trkpt>
      <trkpt lat="44.49913" lon="0.99303">
        <ele>81.37</ele>
        <time>2015-11-14T15:57:18Z</time>
      </trkpt>
      <trkpt lat="44.49883" lon="0.99297">
        <ele>81.85</ele>
        <time>2015-11-14T15:57:24Z</time>
      </trkpt>
      <trkpt lat="44.49878" lon="0.99295">
        <ele>82.33</ele>
        <time>2015-11-14T15:57:25Z</time>
      </trkpt>
      <trkpt lat="44.49873" lon="0.99292">
        <ele>82.33</ele>
        <time>2015-11-14T15:57:26Z</time>
      </trkpt>
      <trkpt lat="44.49814" lon="0.99243">
        <ele>82.33</ele>
        <time>2015-11-14T15:57:39Z</time>
      </trkpt>
      <trkpt lat="44.49758" lon="0.99199">
        <ele>80.41</ele>
        <time>2015-11-14T15:57:49Z</time>
      </trkpt>
      <trkpt lat="44.49752" lon="0.99196">
        <ele>79.93</ele>
        <time>2015-11-14T15:57:50Z</time>
      </trkpt>
      <trkpt lat="44.49746" lon="0.99194">
        <ele>79.93</ele>
        <time>2015-11-14T15:57:51Z</time>
      </trkpt>
      <trkpt lat="44.49739" lon="0.99193">
        <ele>79.93</ele>
        <time>2015-11-14T15:57:52Z</time>
      </trkpt>
      <trkpt lat="44.49733" lon="0.99193">
        <ele>79.45</ele>
        <time>2015-11-14T15:57:53Z</time>
      </trkpt>
      <trkpt lat="44.49665" lon="0.992">
        <ele>78.97</ele>
        <time>2015-11-14T15:58:04Z</time>
      </trkpt>
      <trkpt lat="44.49654" lon="0.99203">
        <ele>78.97</ele>
        <time>2015-11-14T15:58:06Z</time>
      </trkpt>
      <trkpt lat="44.4963" lon="0.9921">
        <ele>78.48</ele>
        <time>2015-11-14T15:58:12Z</time>
      </trkpt>
      <trkpt lat="44.49627" lon="0.99208">
        <ele>78</ele>
        <time>2015-11-14T15:58:13Z</time>
      </trkpt>
      <trkpt lat="44.49624" lon="0.99205">
        <ele>78</ele>
        <time>2015-11-14T15:58:14Z</time>
      </trkpt>
      <trkpt lat="44.4962" lon="0.99203">
        <ele>77.52</ele>
        <time>2015-11-14T15:58:15Z</time>
      </trkpt>
      <trkpt lat="44.49616" lon="0.99199">
        <ele>77.52</ele>
        <time>2015-11-14T15:58:16Z</time>
      </trkpt>
      <trkpt lat="44.49613" lon="0.99195">
        <ele>77.04</ele>
        <time>2015-11-14T15:58:17Z</time>
      </trkpt>
      <trkpt lat="44.49611" lon="0.99192">
        <ele>76.56</ele>
        <time>2015-11-14T15:58:18Z</time>
      </trkpt>
      <trkpt lat="44.4961" lon="0.99189">
        <ele>76.08</ele>
        <time>2015-11-14T15:58:19Z</time>
      </trkpt>
      <trkpt lat="44.49609" lon="0.99188">
        <ele>73.2</ele>
        <time>2015-11-14T15:58:30Z</time>
      </trkpt>
      <trkpt lat="44.4961" lon="0.99184">
        <ele>72.24</ele>
        <time>2015-11-14T15:58:46Z</time>
      </trkpt>
      <trkpt lat="44.49611" lon="0.99182">
        <ele>72.24</ele>
        <time>2015-11-14T15:58:47Z</time>
      </trkpt>
      <trkpt lat="44.49612" lon="0.99179">
        <ele>72.72</ele>
        <time>2015-11-14T15:58:48Z</time>
      </trkpt>
      <trkpt lat="44.49613" lon="0.99176">
        <ele>72.24</ele>
        <time>2015-11-14T15:58:49Z</time>
      </trkpt>
      <trkpt lat="44.49614" lon="0.99173">
        <ele>72.24</ele>
        <time>2015-11-14T15:58:50Z</time>
      </trkpt>
      <trkpt lat="44.49615" lon="0.9917">
        <ele>72.24</ele>
        <time>2015-11-14T15:58:51Z</time>
      </trkpt>
      <trkpt lat="44.4962" lon="0.99156">
        <ele>73.2</ele>
        <time>2015-11-14T15:58:58Z</time>
      </trkpt>
      <trkpt lat="44.49614" lon="0.99144">
        <ele>73.2</ele>
        <time>2015-11-14T15:59:02Z</time>
      </trkpt>
      <trkpt lat="44.4961" lon="0.9914">
        <ele>73.2</ele>
        <time>2015-11-14T15:59:03Z</time>
      </trkpt>
      <trkpt lat="44.49571" lon="0.99101">
        <ele>73.2</ele>
        <time>2015-11-14T15:59:11Z</time>
      </trkpt>
      <trkpt lat="44.49567" lon="0.99095">
        <ele>73.2</ele>
        <time>2015-11-14T15:59:12Z</time>
      </trkpt>
      <trkpt lat="44.49564" lon="0.99089">
        <ele>73.2</ele>
        <time>2015-11-14T15:59:13Z</time>
      </trkpt>
      <trkpt lat="44.4951" lon="0.98965">
        <ele>69.35</ele>
        <time>2015-11-14T15:59:28Z</time>
      </trkpt>
      <trkpt lat="44.49474" lon="0.9888">
        <ele>66.47</ele>
        <time>2015-11-14T15:59:40Z</time>
      </trkpt>
      <trkpt lat="44.49473" lon="0.98876">
        <ele>66.95</ele>
        <time>2015-11-14T15:59:42Z</time>
      </trkpt>
      <trkpt lat="44.49473" lon="0.98873">
        <ele>66.95</ele>
        <time>2015-11-14T15:59:43Z</time>
      </trkpt>
      <trkpt lat="44.49474" lon="0.98871">
        <ele>66.95</ele>
        <time>2015-11-14T15:59:44Z</time>
      </trkpt>
      <trkpt lat="44.49476" lon="0.98869">
        <ele>66.95</ele>
        <time>2015-11-14T15:59:45Z</time>
      </trkpt>
      <trkpt lat="44.49477" lon="0.98867">
        <ele>67.43</ele>
        <time>2015-11-14T15:59:46Z</time>
      </trkpt>
      <trkpt lat="44.49479" lon="0.98865">
        <ele>67.43</ele>
        <time>2015-11-14T15:59:47Z</time>
      </trkpt>
      <trkpt lat="44.49482" lon="0.98862">
        <ele>67.43</ele>
        <time>2015-11-14T15:59:48Z</time>
      </trkpt>
      <trkpt lat="44.49506" lon="0.98831">
        <ele>67.43</ele>
        <time>2015-11-14T15:59:57Z</time>
      </trkpt>
      <trkpt lat="44.49518" lon="0.98822">
        <ele>67.43</ele>
        <time>2015-11-14T16:00:00Z</time>
      </trkpt>
      <trkpt lat="44.49522" lon="0.98821">
        <ele>67.43</ele>
        <time>2015-11-14T16:00:01Z</time>
      </trkpt>
      <trkpt lat="44.49526" lon="0.98819">
        <ele>67.91</ele>
        <time>2015-11-14T16:00:02Z</time>
      </trkpt>
      <trkpt lat="44.49573" lon="0.98804">
        <ele>71.76</ele>
        <time>2015-11-14T16:00:15Z</time>
      </trkpt>
      <trkpt lat="44.49605" lon="0.98791">
        <ele>73.2</ele>
        <time>2015-11-14T16:00:25Z</time>
      </trkpt>
      <trkpt lat="44.49608" lon="0.98788">
        <ele>73.68</ele>
        <time>2015-11-14T16:00:26Z</time>
      </trkpt>
      <trkpt lat="44.4961" lon="0.98784">
        <ele>73.68</ele>
        <time>2015-11-14T16:00:27Z</time>
      </trkpt>
      <trkpt lat="44.49612" lon="0.98779">
        <ele>73.68</ele>
        <time>2015-11-14T16:00:28Z</time>
      </trkpt>
      <trkpt lat="44.49613" lon="0.98774">
        <ele>74.16</ele>
        <time>2015-11-14T16:00:29Z</time>
      </trkpt>
      <trkpt lat="44.49614" lon="0.98768">
        <ele>74.16</ele>
        <time>2015-11-14T16:00:30Z</time>
      </trkpt>
      <trkpt lat="44.49614" lon="0.98762">
        <ele>74.16</ele>
        <time>2015-11-14T16:00:31Z</time>
      </trkpt>
      <trkpt lat="44.49614" lon="0.98755">
        <ele>74.16</ele>
        <time>2015-11-14T16:00:32Z</time>
      </trkpt>
      <trkpt lat="44.49612" lon="0.98749">
        <ele>73.68</ele>
        <time>2015-11-14T16:00:33Z</time>
      </trkpt>
      <trkpt lat="44.49609" lon="0.98745">
        <ele>73.68</ele>
        <time>2015-11-14T16:00:34Z</time>
      </trkpt>
      <trkpt lat="44.49607" lon="0.98741">
        <ele>73.68</ele>
        <time>2015-11-14T16:00:35Z</time>
      </trkpt>
      <trkpt lat="44.49605" lon="0.98732">
        <ele>73.2</ele>
        <time>2015-11-14T16:00:37Z</time>
      </trkpt>
      <trkpt lat="44.49606" lon="0.98728">
        <ele>73.2</ele>
        <time>2015-11-14T16:00:38Z</time>
      </trkpt>
      <trkpt lat="44.49609" lon="0.98727">
        <ele>72.72</ele>
        <time>2015-11-14T16:00:39Z</time>
      </trkpt>
      <trkpt lat="44.49611" lon="0.98725">
        <ele>72.72</ele>
        <time>2015-11-14T16:00:40Z</time>
      </trkpt>
      <trkpt lat="44.49614" lon="0.98724">
        <ele>72.24</ele>
        <time>2015-11-14T16:00:41Z</time>
      </trkpt>
      <trkpt lat="44.49615" lon="0.98721">
        <ele>71.76</ele>
        <time>2015-11-14T16:00:42Z</time>
      </trkpt>
      <trkpt lat="44.49614" lon="0.98719">
        <ele>71.76</ele>
        <time>2015-11-14T16:00:43Z</time>
      </trkpt>
      <trkpt lat="44.49613" lon="0.98717">
        <ele>71.27</ele>
        <time>2015-11-14T16:00:44Z</time>
      </trkpt>
      <trkpt lat="44.49612" lon="0.98716">
        <ele>71.27</ele>
        <time>2015-11-14T16:00:45Z</time>
      </trkpt>
      <trkpt lat="44.49611" lon="0.98714">
        <ele>70.79</ele>
        <time>2015-11-14T16:00:46Z</time>
      </trkpt>
      <trkpt lat="44.49609" lon="0.9871">
        <ele>70.79</ele>
        <time>2015-11-14T16:00:47Z</time>
      </trkpt>
      <trkpt lat="44.49605" lon="0.98696">
        <ele>70.31</ele>
        <time>2015-11-14T16:00:50Z</time>
      </trkpt>
      <trkpt lat="44.49606" lon="0.98691">
        <ele>70.31</ele>
        <time>2015-11-14T16:00:51Z</time>
      </trkpt>
      <trkpt lat="44.49607" lon="0.98685">
        <ele>70.31</ele>
        <time>2015-11-14T16:00:52Z</time>
      </trkpt>
      <trkpt lat="44.49609" lon="0.9868">
        <ele>70.31</ele>
        <time>2015-11-14T16:00:53Z</time>
      </trkpt>
      <trkpt lat="44.49611" lon="0.98675">
        <ele>70.31</ele>
        <time>2015-11-14T16:00:54Z</time>
      </trkpt>
      <trkpt lat="44.49613" lon="0.9867">
        <ele>70.31</ele>
        <time>2015-11-14T16:00:55Z</time>
      </trkpt>
      <trkpt lat="44.49615" lon="0.98666">
        <ele>70.31</ele>
        <time>2015-11-14T16:00:56Z</time>
      </trkpt>
      <trkpt lat="44.49617" lon="0.98662">
        <ele>70.31</ele>
        <time>2015-11-14T16:00:57Z</time>
      </trkpt>
      <trkpt lat="44.49619" lon="0.98658">
        <ele>70.79</ele>
        <time>2015-11-14T16:00:58Z</time>
      </trkpt>
      <trkpt lat="44.49629" lon="0.98638">
        <ele>69.83</ele>
        <time>2015-11-14T16:01:06Z</time>
      </trkpt>
      <trkpt lat="44.4963" lon="0.98637">
        <ele>69.83</ele>
        <time>2015-11-14T16:01:07Z</time>
      </trkpt>
      <trkpt lat="44.49635" lon="0.98628">
        <ele>68.87</ele>
        <time>2015-11-14T16:01:18Z</time>
      </trkpt>
      <trkpt lat="44.49644" lon="0.98613">
        <ele>68.87</ele>
        <time>2015-11-14T16:01:27Z</time>
      </trkpt>
      <trkpt lat="44.49645" lon="0.98611">
        <ele>68.87</ele>
        <time>2015-11-14T16:01:28Z</time>
      </trkpt>
      <trkpt lat="44.49645" lon="0.98609">
        <ele>68.87</ele>
        <time>2015-11-14T16:01:29Z</time>
      </trkpt>
      <trkpt lat="44.49646" lon="0.98607">
        <ele>68.87</ele>
        <time>2015-11-14T16:01:30Z</time>
      </trkpt>
      <trkpt lat="44.49648" lon="0.98604">
        <ele>68.87</ele>
        <time>2015-11-14T16:01:31Z</time>
      </trkpt>
      <trkpt lat="44.49649" lon="0.98602">
        <ele>68.39</ele>
        <time>2015-11-14T16:01:32Z</time>
      </trkpt>
      <trkpt lat="44.4965" lon="0.986">
        <ele>68.39</ele>
        <time>2015-11-14T16:01:33Z</time>
      </trkpt>
      <trkpt lat="44.49651" lon="0.98598">
        <ele>67.91</ele>
        <time>2015-11-14T16:01:34Z</time>
      </trkpt>
      <trkpt lat="44.49652" lon="0.98597">
        <ele>67.91</ele>
        <time>2015-11-14T16:01:35Z</time>
      </trkpt>
      <trkpt lat="44.49653" lon="0.98594">
        <ele>67.43</ele>
        <time>2015-11-14T16:01:36Z</time>
      </trkpt>
      <trkpt lat="44.49669" lon="0.98562">
        <ele>65.99</ele>
        <time>2015-11-14T16:01:48Z</time>
      </trkpt>
      <trkpt lat="44.49688" lon="0.98525">
        <ele>67.91</ele>
        <time>2015-11-14T16:02:01Z</time>
      </trkpt>
      <trkpt lat="44.4971" lon="0.98486">
        <ele>69.83</ele>
        <time>2015-11-14T16:02:15Z</time>
      </trkpt>
      <trkpt lat="44.49734" lon="0.98446">
        <ele>69.35</ele>
        <time>2015-11-14T16:02:28Z</time>
      </trkpt>
      <trkpt lat="44.49752" lon="0.98392">
        <ele>72.72</ele>
        <time>2015-11-14T16:02:41Z</time>
      </trkpt>
      <trkpt lat="44.49767" lon="0.98352">
        <ele>73.68</ele>
        <time>2015-11-14T16:02:52Z</time>
      </trkpt>
      <trkpt lat="44.49774" lon="0.98354">
        <ele>74.16</ele>
        <time>2015-11-14T16:02:55Z</time>
      </trkpt>
      <trkpt lat="44.4978" lon="0.98359">
        <ele>75.6</ele>
        <time>2015-11-14T16:02:57Z</time>
      </trkpt>
      <trkpt lat="44.49783" lon="0.98362">
        <ele>76.08</ele>
        <time>2015-11-14T16:02:58Z</time>
      </trkpt>
      <trkpt lat="44.49784" lon="0.98366">
        <ele>76.56</ele>
        <time>2015-11-14T16:02:59Z</time>
      </trkpt>
      <trkpt lat="44.49785" lon="0.98369">
        <ele>77.04</ele>
        <time>2015-11-14T16:03:00Z</time>
      </trkpt>
      <trkpt lat="44.49784" lon="0.98371">
        <ele>77.52</ele>
        <time>2015-11-14T16:03:01Z</time>
      </trkpt>
      <trkpt lat="44.49783" lon="0.98373">
        <ele>78</ele>
        <time>2015-11-14T16:03:02Z</time>
      </trkpt>
      <trkpt lat="44.49781" lon="0.98373">
        <ele>78.48</ele>
        <time>2015-11-14T16:03:03Z</time>
      </trkpt>
      <trkpt lat="44.49775" lon="0.98371">
        <ele>79.93</ele>
        <time>2015-11-14T16:03:07Z</time>
      </trkpt>
      <trkpt lat="44.49774" lon="0.98369">
        <ele>80.41</ele>
        <time>2015-11-14T16:03:08Z</time>
      </trkpt>
      <trkpt lat="44.49773" lon="0.98367">
        <ele>80.41</ele>
        <time>2015-11-14T16:03:09Z</time>
      </trkpt>
      <trkpt lat="44.49774" lon="0.98364">
        <ele>79.45</ele>
        <time>2015-11-14T16:03:13Z</time>
      </trkpt>
      <trkpt lat="44.49775" lon="0.9836">
        <ele>79.45</ele>
        <time>2015-11-14T16:03:17Z</time>
      </trkpt>
      <trkpt lat="44.49775" lon="0.98359">
        <ele>79.45</ele>
        <time>2015-11-14T16:03:18Z</time>
      </trkpt>
      <trkpt lat="44.49776" lon="0.98354">
        <ele>78.48</ele>
        <time>2015-11-14T16:03:33Z</time>
      </trkpt>
      <trkpt lat="44.49777" lon="0.98354">
        <ele>78.48</ele>
        <time>2015-11-14T16:03:48Z</time>
      </trkpt>
      <trkpt lat="44.49777" lon="0.98352">
        <ele>78</ele>
        <time>2015-11-14T16:03:49Z</time>
      </trkpt>
      <trkpt lat="44.49777" lon="0.98349">
        <ele>77.52</ele>
        <time>2015-11-14T16:03:50Z</time>
      </trkpt>
      <trkpt lat="44.49778" lon="0.98346">
        <ele>77.04</ele>
        <time>2015-11-14T16:03:51Z</time>
      </trkpt>
      <trkpt lat="44.49779" lon="0.98342">
        <ele>76.56</ele>
        <time>2015-11-14T16:03:52Z</time>
      </trkpt>
      <trkpt lat="44.4978" lon="0.98338">
        <ele>76.56</ele>
        <time>2015-11-14T16:03:53Z</time>
      </trkpt>
      <trkpt lat="44.49792" lon="0.98298">
        <ele>75.6</ele>
        <time>2015-11-14T16:04:01Z</time>
      </trkpt>
      <trkpt lat="44.49793" lon="0.98293">
        <ele>75.6</ele>
        <time>2015-11-14T16:04:02Z</time>
      </trkpt>
      <trkpt lat="44.49795" lon="0.98287">
        <ele>75.12</ele>
        <time>2015-11-14T16:04:03Z</time>
      </trkpt>
      <trkpt lat="44.49796" lon="0.98282">
        <ele>75.12</ele>
        <time>2015-11-14T16:04:04Z</time>
      </trkpt>
      <trkpt lat="44.49798" lon="0.98276">
        <ele>74.64</ele>
        <time>2015-11-14T16:04:05Z</time>
      </trkpt>
      <trkpt lat="44.49799" lon="0.98271">
        <ele>74.64</ele>
        <time>2015-11-14T16:04:06Z</time>
      </trkpt>
      <trkpt lat="44.49804" lon="0.98254">
        <ele>74.16</ele>
        <time>2015-11-14T16:04:09Z</time>
      </trkpt>
      <trkpt lat="44.49805" lon="0.98248">
        <ele>74.16</ele>
        <time>2015-11-14T16:04:10Z</time>
      </trkpt>
      <trkpt lat="44.49822" lon="0.98189">
        <ele>73.68</ele>
        <time>2015-11-14T16:04:19Z</time>
      </trkpt>
      <trkpt lat="44.49824" lon="0.98183">
        <ele>73.68</ele>
        <time>2015-11-14T16:04:20Z</time>
      </trkpt>
      <trkpt lat="44.49825" lon="0.98178">
        <ele>73.68</ele>
        <time>2015-11-14T16:04:21Z</time>
      </trkpt>
      <trkpt lat="44.49846" lon="0.98071">
        <ele>73.2</ele>
        <time>2015-11-14T16:04:37Z</time>
      </trkpt>
      <trkpt lat="44.49848" lon="0.97998">
        <ele>73.2</ele>
        <time>2015-11-14T16:04:46Z</time>
      </trkpt>
      <trkpt lat="44.49844" lon="0.97866">
        <ele>70.31</ele>
        <time>2015-11-14T16:05:01Z</time>
      </trkpt>
      <trkpt lat="44.49828" lon="0.97728">
        <ele>65.03</ele>
        <time>2015-11-14T16:05:15Z</time>
      </trkpt>
      <trkpt lat="44.49798" lon="0.9759">
        <ele>62.14</ele>
        <time>2015-11-14T16:05:30Z</time>
      </trkpt>
      <trkpt lat="44.49762" lon="0.97453">
        <ele>61.18</ele>
        <time>2015-11-14T16:05:47Z</time>
      </trkpt>
      <trkpt lat="44.49727" lon="0.97322">
        <ele>60.22</ele>
        <time>2015-11-14T16:06:03Z</time>
      </trkpt>
      <trkpt lat="44.49688" lon="0.97205">
        <ele>60.22</ele>
        <time>2015-11-14T16:06:17Z</time>
      </trkpt>
      <trkpt lat="44.49677" lon="0.97171">
        <ele>60.22</ele>
        <time>2015-11-14T16:06:21Z</time>
      </trkpt>
      <trkpt lat="44.49674" lon="0.97162">
        <ele>59.74</ele>
        <time>2015-11-14T16:06:22Z</time>
      </trkpt>
      <trkpt lat="44.49629" lon="0.97038">
        <ele>57.82</ele>
        <time>2015-11-14T16:06:38Z</time>
      </trkpt>
      <trkpt lat="44.49617" lon="0.97008">
        <ele>57.82</ele>
        <time>2015-11-14T16:06:42Z</time>
      </trkpt>
      <trkpt lat="44.4958" lon="0.96914">
        <ele>60.22</ele>
        <time>2015-11-14T16:06:56Z</time>
      </trkpt>
      <trkpt lat="44.49542" lon="0.96824">
        <ele>63.1</ele>
        <time>2015-11-14T16:07:09Z</time>
      </trkpt>
      <trkpt lat="44.49507" lon="0.96723">
        <ele>65.51</ele>
        <time>2015-11-14T16:07:22Z</time>
      </trkpt>
      <trkpt lat="44.49458" lon="0.96608">
        <ele>67.43</ele>
        <time>2015-11-14T16:07:38Z</time>
      </trkpt>
      <trkpt lat="44.49416" lon="0.96514">
        <ele>69.35</ele>
        <time>2015-11-14T16:07:53Z</time>
      </trkpt>
      <trkpt lat="44.49401" lon="0.96479">
        <ele>69.83</ele>
        <time>2015-11-14T16:08:04Z</time>
      </trkpt>
      <trkpt lat="44.49401" lon="0.96479">
        <ele>71.27</ele>
        <time>2015-11-14T16:08:24Z</time>
      </trkpt>
      <trkpt lat="44.49401" lon="0.96479">
        <ele>70.79</ele>
        <time>2015-11-14T16:08:26Z</time>
      </trkpt>
      <trkpt lat="44.49398" lon="0.96471">
        <ele>71.27</ele>
        <time>2015-11-14T16:08:33Z</time>
      </trkpt>
      <trkpt lat="44.49395" lon="0.96465">
        <ele>71.27</ele>
        <time>2015-11-14T16:08:45Z</time>
      </trkpt>
      <trkpt lat="44.49394" lon="0.96463">
        <ele>71.76</ele>
        <time>2015-11-14T16:09:05Z</time>
      </trkpt>
      <trkpt lat="44.49386" lon="0.96449">
        <ele>73.2</ele>
        <time>2015-11-14T16:09:17Z</time>
      </trkpt>
      <trkpt lat="44.49361" lon="0.96392">
        <ele>70.79</ele>
        <time>2015-11-14T16:09:31Z</time>
      </trkpt>
      <trkpt lat="44.49333" lon="0.96325">
        <ele>70.31</ele>
        <time>2015-11-14T16:09:45Z</time>
      </trkpt>
      <trkpt lat="44.4932" lon="0.96295">
        <ele>70.31</ele>
        <time>2015-11-14T16:09:51Z</time>
      </trkpt>
      <trkpt lat="44.49305" lon="0.96254">
        <ele>69.83</ele>
        <time>2015-11-14T16:09:58Z</time>
      </trkpt>
      <trkpt lat="44.49302" lon="0.96247">
        <ele>69.83</ele>
        <time>2015-11-14T16:09:59Z</time>
      </trkpt>
      <trkpt lat="44.49257" lon="0.96141">
        <ele>69.35</ele>
        <time>2015-11-14T16:10:15Z</time>
      </trkpt>
      <trkpt lat="44.49216" lon="0.96045">
        <ele>68.39</ele>
        <time>2015-11-14T16:10:30Z</time>
      </trkpt>
      <trkpt lat="44.49162" lon="0.95921">
        <ele>68.39</ele>
        <time>2015-11-14T16:10:48Z</time>
      </trkpt>
      <trkpt lat="44.49107" lon="0.95792">
        <ele>67.43</ele>
        <time>2015-11-14T16:11:05Z</time>
      </trkpt>
      <trkpt lat="44.49047" lon="0.95649">
        <ele>67.91</ele>
        <time>2015-11-14T16:11:23Z</time>
      </trkpt>
      <trkpt lat="44.48997" lon="0.95506">
        <ele>68.39</ele>
        <time>2015-11-14T16:11:40Z</time>
      </trkpt>
      <trkpt lat="44.48977" lon="0.95386">
        <ele>68.39</ele>
        <time>2015-11-14T16:11:54Z</time>
      </trkpt>
      <trkpt lat="44.48965" lon="0.95267">
        <ele>69.83</ele>
        <time>2015-11-14T16:12:09Z</time>
      </trkpt>
      <trkpt lat="44.48954" lon="0.95145">
        <ele>69.35</ele>
        <time>2015-11-14T16:12:24Z</time>
      </trkpt>
      <trkpt lat="44.48942" lon="0.95014">
        <ele>69.35</ele>
        <time>2015-11-14T16:12:40Z</time>
      </trkpt>
      <trkpt lat="44.4893" lon="0.94883">
        <ele>69.83</ele>
        <time>2015-11-14T16:12:57Z</time>
      </trkpt>
      <trkpt lat="44.48926" lon="0.94829">
        <ele>70.31</ele>
        <time>2015-11-14T16:13:04Z</time>
      </trkpt>
      <trkpt lat="44.48916" lon="0.94732">
        <ele>70.31</ele>
        <time>2015-11-14T16:13:17Z</time>
      </trkpt>
      <trkpt lat="44.48913" lon="0.94689">
        <ele>70.31</ele>
        <time>2015-11-14T16:13:23Z</time>
      </trkpt>
      <trkpt lat="44.48905" lon="0.94607">
        <ele>71.76</ele>
        <time>2015-11-14T16:13:38Z</time>
      </trkpt>
      <trkpt lat="44.48905" lon="0.94604">
        <ele>71.27</ele>
        <time>2015-11-14T16:13:39Z</time>
      </trkpt>
      <trkpt lat="44.48904" lon="0.94589">
        <ele>72.24</ele>
        <time>2015-11-14T16:13:49Z</time>
      </trkpt>
      <trkpt lat="44.48903" lon="0.94587">
        <ele>73.2</ele>
        <time>2015-11-14T16:14:02Z</time>
      </trkpt>
      <trkpt lat="44.48895" lon="0.94565">
        <ele>73.2</ele>
        <time>2015-11-14T16:14:13Z</time>
      </trkpt>
      <trkpt lat="44.48889" lon="0.94555">
        <ele>71.76</ele>
        <time>2015-11-14T16:14:16Z</time>
      </trkpt>
      <trkpt lat="44.48887" lon="0.94555">
        <ele>71.27</ele>
        <time>2015-11-14T16:14:17Z</time>
      </trkpt>
      <trkpt lat="44.48879" lon="0.94557">
        <ele>71.27</ele>
        <time>2015-11-14T16:14:19Z</time>
      </trkpt>
      <trkpt lat="44.4887" lon="0.94561">
        <ele>70.79</ele>
        <time>2015-11-14T16:14:21Z</time>
      </trkpt>
      <trkpt lat="44.48866" lon="0.94564">
        <ele>70.31</ele>
        <time>2015-11-14T16:14:22Z</time>
      </trkpt>
      <trkpt lat="44.48862" lon="0.94568">
        <ele>70.31</ele>
        <time>2015-11-14T16:14:23Z</time>
      </trkpt>
      <trkpt lat="44.48832" lon="0.94589">
        <ele>69.35</ele>
        <time>2015-11-14T16:14:29Z</time>
      </trkpt>
      <trkpt lat="44.48827" lon="0.94592">
        <ele>69.35</ele>
        <time>2015-11-14T16:14:30Z</time>
      </trkpt>
      <trkpt lat="44.48821" lon="0.94593">
        <ele>68.87</ele>
        <time>2015-11-14T16:14:31Z</time>
      </trkpt>
      <trkpt lat="44.48815" lon="0.94593">
        <ele>68.87</ele>
        <time>2015-11-14T16:14:32Z</time>
      </trkpt>
      <trkpt lat="44.48788" lon="0.94584">
        <ele>68.87</ele>
        <time>2015-11-14T16:14:37Z</time>
      </trkpt>
      <trkpt lat="44.48745" lon="0.94526">
        <ele>66.95</ele>
        <time>2015-11-14T16:14:49Z</time>
      </trkpt>
      <trkpt lat="44.48742" lon="0.94524">
        <ele>67.43</ele>
        <time>2015-11-14T16:14:50Z</time>
      </trkpt>
      <trkpt lat="44.4874" lon="0.94523">
        <ele>67.43</ele>
        <time>2015-11-14T16:14:51Z</time>
      </trkpt>
      <trkpt lat="44.48738" lon="0.94523">
        <ele>67.91</ele>
        <time>2015-11-14T16:14:52Z</time>
      </trkpt>
      <trkpt lat="44.48729" lon="0.94522">
        <ele>68.39</ele>
        <time>2015-11-14T16:14:56Z</time>
      </trkpt>
      <trkpt lat="44.48713" lon="0.9453">
        <ele>66.95</ele>
        <time>2015-11-14T16:15:05Z</time>
      </trkpt>
      <trkpt lat="44.48705" lon="0.94528">
        <ele>66.95</ele>
        <time>2015-11-14T16:15:07Z</time>
      </trkpt>
      <trkpt lat="44.48701" lon="0.94524">
        <ele>67.43</ele>
        <time>2015-11-14T16:15:08Z</time>
      </trkpt>
      <trkpt lat="44.48698" lon="0.9452">
        <ele>67.43</ele>
        <time>2015-11-14T16:15:09Z</time>
      </trkpt>
      <trkpt lat="44.48694" lon="0.94515">
        <ele>67.43</ele>
        <time>2015-11-14T16:15:10Z</time>
      </trkpt>
      <trkpt lat="44.48691" lon="0.9451">
        <ele>67.43</ele>
        <time>2015-11-14T16:15:11Z</time>
      </trkpt>
      <trkpt lat="44.48684" lon="0.945">
        <ele>67.43</ele>
        <time>2015-11-14T16:15:13Z</time>
      </trkpt>
      <trkpt lat="44.48682" lon="0.94495">
        <ele>67.43</ele>
        <time>2015-11-14T16:15:14Z</time>
      </trkpt>
      <trkpt lat="44.4868" lon="0.94489">
        <ele>67.43</ele>
        <time>2015-11-14T16:15:15Z</time>
      </trkpt>
      <trkpt lat="44.4868" lon="0.94483">
        <ele>67.43</ele>
        <time>2015-11-14T16:15:16Z</time>
      </trkpt>
      <trkpt lat="44.4868" lon="0.94477">
        <ele>66.95</ele>
        <time>2015-11-14T16:15:17Z</time>
      </trkpt>
      <trkpt lat="44.4868" lon="0.94464">
        <ele>67.43</ele>
        <time>2015-11-14T16:15:19Z</time>
      </trkpt>
      <trkpt lat="44.48679" lon="0.94458">
        <ele>66.95</ele>
        <time>2015-11-14T16:15:20Z</time>
      </trkpt>
      <trkpt lat="44.48676" lon="0.94453">
        <ele>66.95</ele>
        <time>2015-11-14T16:15:21Z</time>
      </trkpt>
      <trkpt lat="44.48673" lon="0.94447">
        <ele>66.47</ele>
        <time>2015-11-14T16:15:22Z</time>
      </trkpt>
      <trkpt lat="44.4867" lon="0.94443">
        <ele>66.47</ele>
        <time>2015-11-14T16:15:23Z</time>
      </trkpt>
      <trkpt lat="44.48647" lon="0.94408">
        <ele>65.99</ele>
        <time>2015-11-14T16:15:32Z</time>
      </trkpt>
      <trkpt lat="44.48643" lon="0.94407">
        <ele>65.99</ele>
        <time>2015-11-14T16:15:33Z</time>
      </trkpt>
      <trkpt lat="44.4864" lon="0.94409">
        <ele>65.99</ele>
        <time>2015-11-14T16:15:34Z</time>
      </trkpt>
      <trkpt lat="44.4859" lon="0.94431">
        <ele>67.43</ele>
        <time>2015-11-14T16:15:47Z</time>
      </trkpt>
      <trkpt lat="44.48579" lon="0.94435">
        <ele>67.43</ele>
        <time>2015-11-14T16:15:50Z</time>
      </trkpt>
      <trkpt lat="44.48575" lon="0.94437">
        <ele>67.43</ele>
        <time>2015-11-14T16:15:51Z</time>
      </trkpt>
      <trkpt lat="44.48563" lon="0.94449">
        <ele>66.95</ele>
        <time>2015-11-14T16:15:54Z</time>
      </trkpt>
      <trkpt lat="44.48561" lon="0.94453">
        <ele>67.43</ele>
        <time>2015-11-14T16:15:55Z</time>
      </trkpt>
      <trkpt lat="44.48559" lon="0.94456">
        <ele>67.43</ele>
        <time>2015-11-14T16:15:56Z</time>
      </trkpt>
      <trkpt lat="44.48554" lon="0.94459">
        <ele>67.43</ele>
        <time>2015-11-14T16:15:58Z</time>
      </trkpt>
      <trkpt lat="44.48551" lon="0.94456">
        <ele>66.47</ele>
        <time>2015-11-14T16:16:00Z</time>
      </trkpt>
      <trkpt lat="44.48551" lon="0.94453">
        <ele>65.99</ele>
        <time>2015-11-14T16:16:01Z</time>
      </trkpt>
      <trkpt lat="44.4855" lon="0.9445">
        <ele>65.51</ele>
        <time>2015-11-14T16:16:02Z</time>
      </trkpt>
      <trkpt lat="44.48549" lon="0.94446">
        <ele>65.03</ele>
        <time>2015-11-14T16:16:03Z</time>
      </trkpt>
      <trkpt lat="44.48547" lon="0.94443">
        <ele>65.03</ele>
        <time>2015-11-14T16:16:04Z</time>
      </trkpt>
      <trkpt lat="44.48542" lon="0.94433">
        <ele>64.55</ele>
        <time>2015-11-14T16:16:06Z</time>
      </trkpt>
      <trkpt lat="44.48538" lon="0.94427">
        <ele>64.55</ele>
        <time>2015-11-14T16:16:07Z</time>
      </trkpt>
      <trkpt lat="44.48521" lon="0.94418">
        <ele>64.55</ele>
        <time>2015-11-14T16:16:12Z</time>
      </trkpt>
      <trkpt lat="44.48471" lon="0.94436">
        <ele>65.03</ele>
        <time>2015-11-14T16:16:23Z</time>
      </trkpt>
      <trkpt lat="44.48443" lon="0.94444">
        <ele>66.95</ele>
        <time>2015-11-14T16:16:34Z</time>
      </trkpt>
      <trkpt lat="44.48442" lon="0.94446">
        <ele>68.39</ele>
        <time>2015-11-14T16:16:47Z</time>
      </trkpt>
      <trkpt lat="44.48441" lon="0.94451">
        <ele>69.35</ele>
        <time>2015-11-14T16:17:01Z</time>
      </trkpt>
      <trkpt lat="44.48439" lon="0.94452">
        <ele>68.39</ele>
        <time>2015-11-14T16:17:11Z</time>
      </trkpt>
      <trkpt lat="44.48439" lon="0.94455">
        <ele>68.39</ele>
        <time>2015-11-14T16:17:15Z</time>
      </trkpt>
      <trkpt lat="44.48436" lon="0.94468">
        <ele>68.39</ele>
        <time>2015-11-14T16:17:20Z</time>
      </trkpt>
      <trkpt lat="44.48432" lon="0.94474">
        <ele>68.87</ele>
        <time>2015-11-14T16:17:22Z</time>
      </trkpt>
      <trkpt lat="44.48428" lon="0.94474">
        <ele>68.87</ele>
        <time>2015-11-14T16:17:23Z</time>
      </trkpt>
      <trkpt lat="44.48409" lon="0.94475">
        <ele>67.91</ele>
        <time>2015-11-14T16:17:27Z</time>
      </trkpt>
      <trkpt lat="44.48405" lon="0.94473">
        <ele>67.91</ele>
        <time>2015-11-14T16:17:28Z</time>
      </trkpt>
      <trkpt lat="44.48402" lon="0.94469">
        <ele>67.91</ele>
        <time>2015-11-14T16:17:29Z</time>
      </trkpt>
      <trkpt lat="44.48399" lon="0.94464">
        <ele>67.91</ele>
        <time>2015-11-14T16:17:30Z</time>
      </trkpt>
      <trkpt lat="44.48398" lon="0.94459">
        <ele>67.43</ele>
        <time>2015-11-14T16:17:31Z</time>
      </trkpt>
      <trkpt lat="44.48398" lon="0.94452">
        <ele>67.43</ele>
        <time>2015-11-14T16:17:32Z</time>
      </trkpt>
      <trkpt lat="44.48389" lon="0.94396">
        <ele>65.99</ele>
        <time>2015-11-14T16:17:43Z</time>
      </trkpt>
      <trkpt lat="44.48388" lon="0.94395">
        <ele>65.99</ele>
        <time>2015-11-14T16:17:45Z</time>
      </trkpt>
      <trkpt lat="44.48388" lon="0.94391">
        <ele>66.47</ele>
        <time>2015-11-14T16:17:48Z</time>
      </trkpt>
      <trkpt lat="44.48387" lon="0.9439">
        <ele>66.47</ele>
        <time>2015-11-14T16:17:49Z</time>
      </trkpt>
      <trkpt lat="44.48385" lon="0.94388">
        <ele>66.47</ele>
        <time>2015-11-14T16:17:50Z</time>
      </trkpt>
      <trkpt lat="44.48382" lon="0.94388">
        <ele>66.47</ele>
        <time>2015-11-14T16:17:51Z</time>
      </trkpt>
      <trkpt lat="44.48378" lon="0.94389">
        <ele>66.47</ele>
        <time>2015-11-14T16:17:52Z</time>
      </trkpt>
      <trkpt lat="44.48322" lon="0.94403">
        <ele>67.43</ele>
        <time>2015-11-14T16:18:04Z</time>
      </trkpt>
      <trkpt lat="44.48246" lon="0.94424">
        <ele>68.87</ele>
        <time>2015-11-14T16:18:21Z</time>
      </trkpt>
      <trkpt lat="44.48241" lon="0.94426">
        <ele>69.35</ele>
        <time>2015-11-14T16:18:23Z</time>
      </trkpt>
      <trkpt lat="44.4824" lon="0.94429">
        <ele>69.35</ele>
        <time>2015-11-14T16:18:24Z</time>
      </trkpt>
      <trkpt lat="44.4824" lon="0.94433">
        <ele>69.35</ele>
        <time>2015-11-14T16:18:25Z</time>
      </trkpt>
      <trkpt lat="44.4824" lon="0.94438">
        <ele>69.83</ele>
        <time>2015-11-14T16:18:26Z</time>
      </trkpt>
      <trkpt lat="44.48241" lon="0.94443">
        <ele>69.83</ele>
        <time>2015-11-14T16:18:27Z</time>
      </trkpt>
      <trkpt lat="44.48242" lon="0.94449">
        <ele>69.83</ele>
        <time>2015-11-14T16:18:28Z</time>
      </trkpt>
      <trkpt lat="44.48244" lon="0.94462">
        <ele>70.31</ele>
        <time>2015-11-14T16:18:30Z</time>
      </trkpt>
      <trkpt lat="44.48244" lon="0.94469">
        <ele>69.83</ele>
        <time>2015-11-14T16:18:31Z</time>
      </trkpt>
      <trkpt lat="44.48241" lon="0.94475">
        <ele>69.83</ele>
        <time>2015-11-14T16:18:32Z</time>
      </trkpt>
      <trkpt lat="44.48237" lon="0.94479">
        <ele>69.83</ele>
        <time>2015-11-14T16:18:33Z</time>
      </trkpt>
      <trkpt lat="44.48233" lon="0.94483">
        <ele>70.31</ele>
        <time>2015-11-14T16:18:34Z</time>
      </trkpt>
      <trkpt lat="44.48227" lon="0.94485">
        <ele>70.31</ele>
        <time>2015-11-14T16:18:35Z</time>
      </trkpt>
      <trkpt lat="44.48222" lon="0.94487">
        <ele>70.31</ele>
        <time>2015-11-14T16:18:36Z</time>
      </trkpt>
      <trkpt lat="44.4817" lon="0.94509">
        <ele>69.83</ele>
        <time>2015-11-14T16:18:46Z</time>
      </trkpt>
      <trkpt lat="44.48143" lon="0.94523">
        <ele>71.76</ele>
        <time>2015-11-14T16:18:55Z</time>
      </trkpt>
      <trkpt lat="44.48125" lon="0.94535">
        <ele>71.27</ele>
        <time>2015-11-14T16:19:05Z</time>
      </trkpt>
      <trkpt lat="44.48097" lon="0.94557">
        <ele>69.83</ele>
        <time>2015-11-14T16:19:15Z</time>
      </trkpt>
      <trkpt lat="44.48097" lon="0.94557">
        <ele>69.83</ele>
        <time>2015-11-14T16:19:16Z</time>
      </trkpt>
      <trkpt lat="44.48096" lon="0.94559">
        <ele>69.83</ele>
        <time>2015-11-14T16:19:17Z</time>
      </trkpt>
      <trkpt lat="44.48096" lon="0.94563">
        <ele>69.35</ele>
        <time>2015-11-14T16:19:18Z</time>
      </trkpt>
      <trkpt lat="44.48096" lon="0.94567">
        <ele>69.35</ele>
        <time>2015-11-14T16:19:19Z</time>
      </trkpt>
      <trkpt lat="44.48098" lon="0.94572">
        <ele>69.35</ele>
        <time>2015-11-14T16:19:20Z</time>
      </trkpt>
      <trkpt lat="44.481" lon="0.94577">
        <ele>69.35</ele>
        <time>2015-11-14T16:19:21Z</time>
      </trkpt>
      <trkpt lat="44.48102" lon="0.94583">
        <ele>69.83</ele>
        <time>2015-11-14T16:19:22Z</time>
      </trkpt>
      <trkpt lat="44.48124" lon="0.94639">
        <ele>71.76</ele>
        <time>2015-11-14T16:19:32Z</time>
      </trkpt>
      <trkpt lat="44.48126" lon="0.94644">
        <ele>71.76</ele>
        <time>2015-11-14T16:19:33Z</time>
      </trkpt>
      <trkpt lat="44.48128" lon="0.9465">
        <ele>71.76</ele>
        <time>2015-11-14T16:19:34Z</time>
      </trkpt>
      <trkpt lat="44.48133" lon="0.94665">
        <ele>71.27</ele>
        <time>2015-11-14T16:19:37Z</time>
      </trkpt>
      <trkpt lat="44.48133" lon="0.9467">
        <ele>70.79</ele>
        <time>2015-11-14T16:19:38Z</time>
      </trkpt>
      <trkpt lat="44.48132" lon="0.94675">
        <ele>70.79</ele>
        <time>2015-11-14T16:19:39Z</time>
      </trkpt>
      <trkpt lat="44.48129" lon="0.94678">
        <ele>70.79</ele>
        <time>2015-11-14T16:19:40Z</time>
      </trkpt>
      <trkpt lat="44.48125" lon="0.9468">
        <ele>70.79</ele>
        <time>2015-11-14T16:19:41Z</time>
      </trkpt>
      <trkpt lat="44.48122" lon="0.94683">
        <ele>70.79</ele>
        <time>2015-11-14T16:19:42Z</time>
      </trkpt>
      <trkpt lat="44.48118" lon="0.94685">
        <ele>70.79</ele>
        <time>2015-11-14T16:19:43Z</time>
      </trkpt>
      <trkpt lat="44.48057" lon="0.94736">
        <ele>70.31</ele>
        <time>2015-11-14T16:19:58Z</time>
      </trkpt>
      <trkpt lat="44.48015" lon="0.94771">
        <ele>68.87</ele>
        <time>2015-11-14T16:20:08Z</time>
      </trkpt>
      <trkpt lat="44.48012" lon="0.94771">
        <ele>68.87</ele>
        <time>2015-11-14T16:20:09Z</time>
      </trkpt>
      <trkpt lat="44.48008" lon="0.94768">
        <ele>68.87</ele>
        <time>2015-11-14T16:20:10Z</time>
      </trkpt>
      <trkpt lat="44.48006" lon="0.94763">
        <ele>68.39</ele>
        <time>2015-11-14T16:20:11Z</time>
      </trkpt>
      <trkpt lat="44.48004" lon="0.94758">
        <ele>68.39</ele>
        <time>2015-11-14T16:20:12Z</time>
      </trkpt>
      <trkpt lat="44.48001" lon="0.94753">
        <ele>68.39</ele>
        <time>2015-11-14T16:20:13Z</time>
      </trkpt>
      <trkpt lat="44.48" lon="0.94749">
        <ele>68.39</ele>
        <time>2015-11-14T16:20:14Z</time>
      </trkpt>
      <trkpt lat="44.47987" lon="0.94713">
        <ele>70.31</ele>
        <time>2015-11-14T16:20:23Z</time>
      </trkpt>
      <trkpt lat="44.47956" lon="0.94627">
        <ele>69.35</ele>
        <time>2015-11-14T16:20:38Z</time>
      </trkpt>
      <trkpt lat="44.47953" lon="0.94615">
        <ele>69.35</ele>
        <time>2015-11-14T16:20:40Z</time>
      </trkpt>
      <trkpt lat="44.4794" lon="0.94572">
        <ele>68.39</ele>
        <time>2015-11-14T16:20:48Z</time>
      </trkpt>
      <trkpt lat="44.47936" lon="0.94553">
        <ele>68.39</ele>
        <time>2015-11-14T16:20:51Z</time>
      </trkpt>
      <trkpt lat="44.47906" lon="0.94454">
        <ele>65.51</ele>
        <time>2015-11-14T16:21:07Z</time>
      </trkpt>
      <trkpt lat="44.47903" lon="0.94441">
        <ele>65.03</ele>
        <time>2015-11-14T16:21:09Z</time>
      </trkpt>
      <trkpt lat="44.47866" lon="0.94339">
        <ele>64.07</ele>
        <time>2015-11-14T16:21:24Z</time>
      </trkpt>
      <trkpt lat="44.47846" lon="0.94292">
        <ele>63.58</ele>
        <time>2015-11-14T16:21:31Z</time>
      </trkpt>
      <trkpt lat="44.47835" lon="0.94255">
        <ele>63.1</ele>
        <time>2015-11-14T16:21:36Z</time>
      </trkpt>
      <trkpt lat="44.47818" lon="0.94227">
        <ele>61.66</ele>
        <time>2015-11-14T16:21:41Z</time>
      </trkpt>
      <trkpt lat="44.47787" lon="0.94171">
        <ele>60.22</ele>
        <time>2015-11-14T16:21:52Z</time>
      </trkpt>
      <trkpt lat="44.47731" lon="0.94109">
        <ele>60.7</ele>
        <time>2015-11-14T16:22:07Z</time>
      </trkpt>
      <trkpt lat="44.47691" lon="0.94072">
        <ele>60.7</ele>
        <time>2015-11-14T16:22:16Z</time>
      </trkpt>
      <trkpt lat="44.47629" lon="0.94032">
        <ele>59.26</ele>
        <time>2015-11-14T16:22:29Z</time>
      </trkpt>
      <trkpt lat="44.47583" lon="0.93992">
        <ele>58.3</ele>
        <time>2015-11-14T16:22:39Z</time>
      </trkpt>
      <trkpt lat="44.47579" lon="0.93988">
        <ele>58.3</ele>
        <time>2015-11-14T16:22:40Z</time>
      </trkpt>
      <trkpt lat="44.47575" lon="0.93984">
        <ele>58.78</ele>
        <time>2015-11-14T16:22:41Z</time>
      </trkpt>
      <trkpt lat="44.47548" lon="0.93963">
        <ele>59.26</ele>
        <time>2015-11-14T16:22:47Z</time>
      </trkpt>
      <trkpt lat="44.47543" lon="0.93962">
        <ele>59.74</ele>
        <time>2015-11-14T16:22:48Z</time>
      </trkpt>
      <trkpt lat="44.47533" lon="0.9396">
        <ele>60.22</ele>
        <time>2015-11-14T16:22:50Z</time>
      </trkpt>
      <trkpt lat="44.47529" lon="0.93958">
        <ele>60.7</ele>
        <time>2015-11-14T16:22:51Z</time>
      </trkpt>
      <trkpt lat="44.47525" lon="0.93956">
        <ele>61.18</ele>
        <time>2015-11-14T16:22:52Z</time>
      </trkpt>
      <trkpt lat="44.47522" lon="0.93952">
        <ele>61.66</ele>
        <time>2015-11-14T16:22:53Z</time>
      </trkpt>
      <trkpt lat="44.47519" lon="0.93948">
        <ele>62.14</ele>
        <time>2015-11-14T16:22:54Z</time>
      </trkpt>
      <trkpt lat="44.47513" lon="0.9394">
        <ele>63.1</ele>
        <time>2015-11-14T16:22:56Z</time>
      </trkpt>
      <trkpt lat="44.47488" lon="0.93894">
        <ele>65.99</ele>
        <time>2015-11-14T16:23:07Z</time>
      </trkpt>
      <trkpt lat="44.47486" lon="0.93894">
        <ele>65.99</ele>
        <time>2015-11-14T16:23:21Z</time>
      </trkpt>
      <trkpt lat="44.47467" lon="0.93906">
        <ele>67.43</ele>
        <time>2015-11-14T16:23:35Z</time>
      </trkpt>
      <trkpt lat="44.47428" lon="0.93936">
        <ele>71.27</ele>
        <time>2015-11-14T16:23:50Z</time>
      </trkpt>
      <trkpt lat="44.47405" lon="0.93952">
        <ele>72.24</ele>
        <time>2015-11-14T16:23:59Z</time>
      </trkpt>
      <trkpt lat="44.47403" lon="0.93952">
        <ele>72.24</ele>
        <time>2015-11-14T16:24:00Z</time>
      </trkpt>
      <trkpt lat="44.47392" lon="0.93957">
        <ele>73.68</ele>
        <time>2015-11-14T16:24:06Z</time>
      </trkpt>
      <trkpt lat="44.4739" lon="0.93956">
        <ele>73.68</ele>
        <time>2015-11-14T16:24:07Z</time>
      </trkpt>
      <trkpt lat="44.47389" lon="0.93954">
        <ele>73.68</ele>
        <time>2015-11-14T16:24:08Z</time>
      </trkpt>
      <trkpt lat="44.47388" lon="0.93951">
        <ele>73.68</ele>
        <time>2015-11-14T16:24:09Z</time>
      </trkpt>
      <trkpt lat="44.47388" lon="0.93947">
        <ele>73.68</ele>
        <time>2015-11-14T16:24:10Z</time>
      </trkpt>
      <trkpt lat="44.47387" lon="0.93943">
        <ele>73.68</ele>
        <time>2015-11-14T16:24:11Z</time>
      </trkpt>
      <trkpt lat="44.47377" lon="0.93896">
        <ele>72.24</ele>
        <time>2015-11-14T16:24:24Z</time>
      </trkpt>
      <trkpt lat="44.47371" lon="0.93854">
        <ele>69.83</ele>
        <time>2015-11-14T16:24:31Z</time>
      </trkpt>
      <trkpt lat="44.47368" lon="0.93842">
        <ele>69.35</ele>
        <time>2015-11-14T16:24:33Z</time>
      </trkpt>
      <trkpt lat="44.47366" lon="0.93837">
        <ele>69.35</ele>
        <time>2015-11-14T16:24:34Z</time>
      </trkpt>
      <trkpt lat="44.47343" lon="0.9379">
        <ele>69.83</ele>
        <time>2015-11-14T16:24:45Z</time>
      </trkpt>
      <trkpt lat="44.4732" lon="0.93739">
        <ele>69.35</ele>
        <time>2015-11-14T16:24:57Z</time>
      </trkpt>
      <trkpt lat="44.47296" lon="0.93685">
        <ele>69.83</ele>
        <time>2015-11-14T16:25:08Z</time>
      </trkpt>
      <trkpt lat="44.47294" lon="0.93679">
        <ele>69.83</ele>
        <time>2015-11-14T16:25:09Z</time>
      </trkpt>
      <trkpt lat="44.4729" lon="0.93675">
        <ele>69.83</ele>
        <time>2015-11-14T16:25:10Z</time>
      </trkpt>
      <trkpt lat="44.47286" lon="0.9367">
        <ele>70.31</ele>
        <time>2015-11-14T16:25:11Z</time>
      </trkpt>
      <trkpt lat="44.47284" lon="0.93665">
        <ele>70.31</ele>
        <time>2015-11-14T16:25:12Z</time>
      </trkpt>
      <trkpt lat="44.47281" lon="0.93658">
        <ele>70.31</ele>
        <time>2015-11-14T16:25:13Z</time>
      </trkpt>
      <trkpt lat="44.47279" lon="0.93652">
        <ele>70.31</ele>
        <time>2015-11-14T16:25:14Z</time>
      </trkpt>
      <trkpt lat="44.47275" lon="0.93646">
        <ele>70.31</ele>
        <time>2015-11-14T16:25:15Z</time>
      </trkpt>
      <trkpt lat="44.47271" lon="0.93642">
        <ele>70.31</ele>
        <time>2015-11-14T16:25:16Z</time>
      </trkpt>
      <trkpt lat="44.47267" lon="0.93637">
        <ele>70.31</ele>
        <time>2015-11-14T16:25:17Z</time>
      </trkpt>
      <trkpt lat="44.47251" lon="0.93619">
        <ele>70.31</ele>
        <time>2015-11-14T16:25:21Z</time>
      </trkpt>
      <trkpt lat="44.47248" lon="0.93612">
        <ele>70.79</ele>
        <time>2015-11-14T16:25:22Z</time>
      </trkpt>
      <trkpt lat="44.4723" lon="0.93565">
        <ele>70.31</ele>
        <time>2015-11-14T16:25:33Z</time>
      </trkpt>
      <trkpt lat="44.47229" lon="0.93562">
        <ele>69.83</ele>
        <time>2015-11-14T16:25:52Z</time>
      </trkpt>
      <trkpt lat="44.47228" lon="0.93562">
        <ele>71.27</ele>
        <time>2015-11-14T16:26:10Z</time>
      </trkpt>
      <trkpt lat="44.47228" lon="0.93549">
        <ele>72.24</ele>
        <time>2015-11-14T16:26:25Z</time>
      </trkpt>
      <trkpt lat="44.47227" lon="0.93496">
        <ele>71.76</ele>
        <time>2015-11-14T16:26:38Z</time>
      </trkpt>
      <trkpt lat="44.47214" lon="0.93449">
        <ele>69.83</ele>
        <time>2015-11-14T16:26:51Z</time>
      </trkpt>
      <trkpt lat="44.47207" lon="0.93423">
        <ele>68.39</ele>
        <time>2015-11-14T16:27:00Z</time>
      </trkpt>
      <trkpt lat="44.47207" lon="0.93421">
        <ele>68.39</ele>
        <time>2015-11-14T16:27:01Z</time>
      </trkpt>
      <trkpt lat="44.47206" lon="0.93417">
        <ele>68.87</ele>
        <time>2015-11-14T16:27:11Z</time>
      </trkpt>
      <trkpt lat="44.47208" lon="0.93415">
        <ele>70.79</ele>
        <time>2015-11-14T16:27:43Z</time>
      </trkpt>
      <trkpt lat="44.47208" lon="0.93414">
        <ele>69.83</ele>
        <time>2015-11-14T16:28:11Z</time>
      </trkpt>
      <trkpt lat="44.47207" lon="0.93413">
        <ele>70.31</ele>
        <time>2015-11-14T16:28:47Z</time>
      </trkpt>
      <trkpt lat="44.47206" lon="0.93413">
        <ele>70.31</ele>
        <time>2015-11-14T16:29:15Z</time>
      </trkpt>
      <trkpt lat="44.47205" lon="0.93412">
        <ele>70.31</ele>
        <time>2015-11-14T16:29:48Z</time>
      </trkpt>
      <trkpt lat="44.47206" lon="0.93412">
        <ele>71.76</ele>
        <time>2015-11-14T16:30:24Z</time>
      </trkpt>
      <trkpt lat="44.47205" lon="0.93413">
        <ele>70.79</ele>
        <time>2015-11-14T16:30:48Z</time>
      </trkpt>
      <trkpt lat="44.47205" lon="0.93413">
        <ele>71.27</ele>
        <time>2015-11-14T16:31:18Z</time>
      </trkpt>
      <trkpt lat="44.47205" lon="0.93413">
        <ele>71.27</ele>
        <time>2015-11-14T16:31:49Z</time>
      </trkpt>
      <trkpt lat="44.47204" lon="0.93413">
        <ele>71.27</ele>
        <time>2015-11-14T16:32:15Z</time>
      </trkpt>
      <trkpt lat="44.47203" lon="0.93413">
        <ele>70.31</ele>
        <time>2015-11-14T16:32:58Z</time>
      </trkpt>
      <trkpt lat="44.47204" lon="0.93414">
        <ele>69.83</ele>
        <time>2015-11-14T16:33:24Z</time>
      </trkpt>
      <trkpt lat="44.47204" lon="0.93414">
        <ele>70.79</ele>
        <time>2015-11-14T16:33:50Z</time>
      </trkpt>
      <trkpt lat="44.47206" lon="0.93413">
        <ele>71.76</ele>
        <time>2015-11-14T16:34:20Z</time>
      </trkpt>
    </trkseg>
  </trk>
</gpx>